Provisional Data: Snake Creek near Lawsville Center, PA


Please select a monitoring station.
Please select start date.
Please select start date.

Toggle Unit: C/F Toggle Unit: C/F
Sample Time Temperature (C) Temperature (F) Specific Conductivity (mS/cm) pH   Turbidity (NTU+) DO (mg/L)
12/23/2021 12:00:00 AM 0.69 33.242 0.091 7.09 2.24 13.59
12/23/2021 12:15:00 AM 0.67 33.206 0.092 7.11 2.18 13.6
12/23/2021 12:30:00 AM 0.64 33.152 0.092 7.11 2.17 13.61
12/23/2021 12:45:00 AM 0.62 33.116 0.092 7.11 2.21 13.62
12/23/2021 1:00:00 AM 0.6 33.08 0.092 7.09 2.24 13.63
12/23/2021 1:15:00 AM 0.57 33.026 0.092 7.11 2.19 13.64
12/23/2021 1:30:00 AM 0.55 32.99 0.092 7.1 2.17 13.65
12/23/2021 1:45:00 AM 0.54 32.972 0.092 7.1 2.3 13.66
12/23/2021 2:00:00 AM 0.52 32.936 0.092 7.11 2.21 13.66
12/23/2021 2:15:00 AM 0.51 32.918 0.092 7.1 2.19 13.67
12/23/2021 2:30:00 AM 0.5 32.9 0.092 7.08 2.21 13.68
12/23/2021 2:45:00 AM 0.49 32.882 0.092 7.1 2.23 13.69
12/23/2021 3:00:00 AM 0.49 32.882 0.092 7.08 2.16 13.69
12/23/2021 3:15:00 AM 0.49 32.882 0.092 7.1 2.11 13.7
12/23/2021 3:30:00 AM 0.48 32.864 0.092 7.08 2.14 13.7
12/23/2021 3:45:00 AM 0.47 32.846 0.092 7.1 2.26 13.71
12/23/2021 4:00:00 AM 0.45 32.81 0.092 7.1 2.15 13.71
12/23/2021 4:15:00 AM 0.43 32.774 0.092 7.1 2.14 13.72
12/23/2021 4:30:00 AM 0.41 32.738 0.092 7.1 2.2 13.72
12/23/2021 4:45:00 AM 0.4 32.72 0.092 7.07 2.11 13.73
12/23/2021 5:00:00 AM 0.38 32.684 0.092 7.1 2.19 13.73
12/23/2021 5:15:00 AM 0.35 32.63 0.092 7.1 2.13 13.74
12/23/2021 5:30:00 AM 0.33 32.594 0.092 7.09 2.13 13.75
12/23/2021 5:45:00 AM 0.31 32.558 0.092 7.09 2.16 13.76
12/23/2021 6:00:00 AM 0.3 32.54 0.092 7.07 2.12 13.77
12/23/2021 6:15:00 AM 0.29 32.522 0.092 7.09 2.11 13.78
12/23/2021 6:30:00 AM 0.28 32.504 0.092 7.09 2.13 13.79
12/23/2021 6:45:00 AM 0.28 32.504 0.092 7.09 2.15 13.8
12/23/2021 7:00:00 AM 0.27 32.486 0.092 7.08 2.14 13.81
12/23/2021 7:15:00 AM 0.26 32.468 0.092 7.08 2.12 13.82
12/23/2021 7:30:00 AM 0.26 32.468 0.092 7.07 2.13 13.83
12/23/2021 7:45:00 AM 0.26 32.468 0.092 7.09 2.16 13.85
12/23/2021 8:00:00 AM 0.27 32.486 0.092 7.1 2.07 13.89
12/23/2021 8:15:00 AM -99999.99 -179968 -99999.99 -99999.99 -99999.99 -99999.99
12/23/2021 8:30:00 AM 0.29 32.522 0.092 7.14 2.16 14.1
12/23/2021 8:45:00 AM 0.31 32.558 0.092 7.14 2.13 14.26
12/23/2021 9:00:00 AM 0.34 32.612 0.092 7.19 2.12 14.42
12/23/2021 9:15:00 AM 0.36 32.648 0.092 7.19 2.17 14.55
12/23/2021 9:30:00 AM 0.39 32.702 0.092 7.25 2.07 14.7
12/23/2021 9:45:00 AM 0.42 32.756 0.091 7.29 2.08 14.85
12/23/2021 10:00:00 AM 0.46 32.828 0.091 7.34 2.1 14.98
12/23/2021 10:15:00 AM 0.51 32.918 0.091 7.38 2.11 15.09
12/23/2021 10:30:00 AM 0.55 32.99 0.091 7.43 2.02 15.18
12/23/2021 10:45:00 AM 0.62 33.116 0.09 7.47 2.12 15.25
12/23/2021 11:00:00 AM 0.67 33.206 0.09 7.51 2.08 15.3
12/23/2021 11:15:00 AM 0.72 33.296 0.09 7.53 2.1 15.32
12/23/2021 11:30:00 AM 0.76 33.368 0.09 7.57 2.05 15.32
12/23/2021 11:45:00 AM 0.84 33.512 0.09 7.6 2.24 15.32
12/23/2021 12:00:00 PM 0.92 33.656 0.09 7.63 2.05 15.34
12/23/2021 12:15:00 PM 0.96 33.728 0.089 7.65 2.06 15.35
12/23/2021 12:30:00 PM 0.99 33.782 0.089 7.68 2.11 15.34
12/23/2021 12:45:00 PM 1.05 33.89 0.089 7.7 2.02 15.32
12/23/2021 1:00:00 PM 1.13 34.034 0.089 7.74 2.08 15.31
12/23/2021 1:15:00 PM 1.18 34.124 0.089 7.76 2.16 15.3
12/23/2021 1:30:00 PM 1.22 34.196 0.089 7.77 2.12 15.27
12/23/2021 1:45:00 PM 1.29 34.322 0.089 7.77 2.06 15.25
12/23/2021 2:00:00 PM 1.36 34.448 0.089 7.8 2.02 15.24
12/23/2021 2:15:00 PM 1.41 34.538 0.089 7.8 2.05 15.22
12/23/2021 2:30:00 PM 1.42 34.556 0.089 7.81 2.08 15.17
12/23/2021 2:45:00 PM 1.4 34.52 0.089 7.77 2.03 15.08
12/23/2021 3:00:00 PM 1.38 34.484 0.088 7.76 2.07 15.02
12/23/2021 3:15:00 PM 1.33 34.394 0.089 7.72 2.07 14.97
12/23/2021 3:30:00 PM 1.28 34.304 0.089 7.69 2.1 14.93
12/23/2021 3:45:00 PM 1.22 34.196 0.089 7.63 2.12 14.86
12/23/2021 4:00:00 PM 1.16 34.088 0.089 7.6 2.06 14.78
12/23/2021 4:15:00 PM 1.1 33.98 0.089 7.53 2.07 14.65
12/23/2021 4:30:00 PM 1.04 33.872 0.089 7.47 2.15 14.51
12/23/2021 4:45:00 PM 0.99 33.782 0.089 7.41 2.12 14.34
12/23/2021 5:00:00 PM 0.94 33.692 0.09 7.36 2.06 14.2
12/23/2021 5:15:00 PM 0.9 33.62 0.09 7.3 2.1 14.08
12/23/2021 5:30:00 PM 0.85 33.53 0.09 7.27 2.1 13.99
12/23/2021 5:45:00 PM 0.81 33.458 0.09 7.21 2.1 13.91
12/23/2021 6:00:00 PM 0.79 33.422 0.09 7.21 2.07 13.84
12/23/2021 6:15:00 PM 0.78 33.404 0.09 7.18 2.07 13.8
12/23/2021 6:30:00 PM 0.77 33.386 0.09 7.17 2.09 13.76
12/23/2021 6:45:00 PM 0.76 33.368 0.09 7.15 2.06 13.73
12/23/2021 7:00:00 PM 0.76 33.368 0.091 7.15 2.08 13.7
12/23/2021 7:15:00 PM 0.76 33.368 0.091 7.13 2.12 13.69
12/23/2021 7:30:00 PM 0.76 33.368 0.091 7.12 2.09 13.68
12/23/2021 7:45:00 PM 0.76 33.368 0.091 7.13 2.05 13.67
12/23/2021 8:00:00 PM 0.76 33.368 0.091 7.12 2.03 13.66
12/23/2021 8:15:00 PM 0.76 33.368 0.091 7.11 2.1 13.66
12/23/2021 8:30:00 PM 0.75 33.35 0.091 7.11 2.06 13.66
12/23/2021 8:45:00 PM 0.75 33.35 0.091 7.12 2.05 13.66
12/23/2021 9:00:00 PM 0.74 33.332 0.091 7.11 2.09 13.65
12/23/2021 9:15:00 PM 0.73 33.314 0.091 7.11 2.14 13.65
12/23/2021 9:30:00 PM 0.71 33.278 0.091 7.09 2.13 13.65
12/23/2021 9:45:00 PM 0.71 33.278 0.091 7.11 2.1 13.65
12/23/2021 10:00:00 PM 0.7 33.26 0.091 7.09 2.05 13.65
12/23/2021 10:15:00 PM 0.71 33.278 0.092 7.11 2.11 13.65
12/23/2021 10:30:00 PM 0.71 33.278 0.092 7.1 2.14 13.66
12/23/2021 10:45:00 PM 0.71 33.278 0.092 7.11 2.08 13.65
12/23/2021 11:00:00 PM 0.7 33.26 0.092 7.09 2.06 13.65
12/23/2021 11:15:00 PM 0.7 33.26 0.092 7.1 2.13 13.65
12/23/2021 11:30:00 PM 0.7 33.26 0.092 7.08 2.09 13.65
12/23/2021 11:45:00 PM 0.7 33.26 0.092 7.11 2.08 13.64
12/24/2021 12:00:00 AM 0.7 33.26 0.092 7.11 2.12 13.64
12/24/2021 12:15:00 AM 0.7 33.26 0.092 7.1 2.09 13.64
12/24/2021 12:30:00 AM 0.71 33.278 0.092 7.1 2.11 13.64
12/24/2021 12:45:00 AM 0.7 33.26 0.092 7.1 2.11 13.63
12/24/2021 1:00:00 AM 0.7 33.26 0.092 7.09 2.05 13.63
12/24/2021 1:15:00 AM 0.69 33.242 0.092 7.1 2.11 13.63
12/24/2021 1:30:00 AM 0.67 33.206 0.092 7.1 2.08 13.63
12/24/2021 1:45:00 AM 0.65 33.17 0.092 7.08 2.1 13.63
12/24/2021 2:00:00 AM 0.63 33.134 0.092 7.1 2.14 13.63
12/24/2021 2:15:00 AM 0.59 33.062 0.092 7.1 2.1 13.62
12/24/2021 2:30:00 AM 0.56 33.008 0.092 7.1 2.05 13.63
12/24/2021 2:45:00 AM 0.54 32.972 0.092 7.1 2.12 13.64
12/24/2021 3:00:00 AM 0.52 32.936 0.092 7.08 2.08 13.65
12/24/2021 3:15:00 AM 0.51 32.918 0.092 7.09 2.08 13.66
12/24/2021 3:30:00 AM 0.49 32.882 0.092 7.08 2.12 13.67
12/24/2021 3:45:00 AM 0.46 32.828 0.092 7.1 2.13 13.68
12/24/2021 4:00:00 AM 0.44 32.792 0.092 7.09 2.15 13.69
12/24/2021 4:15:00 AM 0.44 32.792 0.092 7.1 2.11 13.7
12/24/2021 4:30:00 AM 0.44 32.792 0.092 7.09 2.09 13.7
12/24/2021 4:45:00 AM 0.44 32.792 0.092 7.08 2.15 13.71
12/24/2021 5:00:00 AM 0.45 32.81 0.092 7.1 2.14 13.71
12/24/2021 5:15:00 AM 0.46 32.828 0.092 7.09 2.11 13.71
12/24/2021 5:30:00 AM 0.47 32.846 0.092 7.09 2.15 13.71
12/24/2021 5:45:00 AM 0.49 32.882 0.092 7.08 2.04 13.71
12/24/2021 6:00:00 AM 0.51 32.918 0.092 7.09 2.07 13.7
12/24/2021 6:15:00 AM -99999.99 -179968 -99999.99 -99999.99 -99999.99 -99999.99
12/24/2021 6:30:00 AM 0.55 32.99 0.092 7.1 2.1 13.69
12/24/2021 6:45:00 AM 0.57 33.026 0.092 7.09 2.1 13.68
12/24/2021 7:00:00 AM 0.59 33.062 0.092 7.1 2.11 13.68
12/24/2021 7:15:00 AM 0.61 33.098 0.092 7.1 2.06 13.67
12/24/2021 7:30:00 AM 0.62 33.116 0.092 7.09 2.07 13.66
12/24/2021 7:45:00 AM 0.65 33.17 0.092 7.1 2.1 13.67
12/24/2021 8:00:00 AM -99999.99 -179968 -99999.99 -99999.99 -99999.99 -99999.99
12/24/2021 8:15:00 AM 0.68 33.224 0.092 7.11 2.09 13.74
12/24/2021 8:30:00 AM 0.7 33.26 0.092 7.13 2.12 13.86
12/24/2021 8:45:00 AM 0.73 33.314 0.092 7.15 2.18 13.99
12/24/2021 9:00:00 AM 0.76 33.368 0.091 7.15 2.09 14.11
12/24/2021 9:15:00 AM 0.81 33.458 0.091 7.21 2.09 14.26
12/24/2021 9:30:00 AM 0.85 33.53 0.091 7.21 2.05 14.39
12/24/2021 9:45:00 AM 0.9 33.62 0.091 7.27 2.03 14.53
12/24/2021 10:00:00 AM 0.95 33.71 0.091 7.29 2.02 14.65
12/24/2021 10:15:00 AM 1.01 33.818 0.091 7.36 2.03 14.78
12/24/2021 10:30:00 AM 1.07 33.926 0.091 7.4 2.06 14.86
12/24/2021 10:45:00 AM 1.15 34.07 0.09 7.44 2.1 14.95
12/24/2021 11:00:00 AM 1.21 34.178 0.09 7.46 2.05 15
12/24/2021 11:15:00 AM 1.28 34.304 0.09 7.52 2.04 15.03
12/24/2021 11:30:00 AM 1.32 34.376 0.09 7.55 2.05 15.04
12/24/2021 11:45:00 AM 1.38 34.484 0.09 7.56 2.04 15.01
12/24/2021 12:00:00 PM 1.43 34.574 0.09 7.6 2.03 15
12/24/2021 12:15:00 PM 1.48 34.664 0.09 7.62 2.05 14.98
12/24/2021 12:30:00 PM 1.53 34.754 0.09 7.63 2.04 14.96
12/24/2021 12:45:00 PM 1.57 34.826 0.09 7.65 2.02 14.92
12/24/2021 1:00:00 PM 1.61 34.898 0.089 7.66 2.02 14.9
12/24/2021 1:15:00 PM 1.67 35.006 0.089 7.67 2.05 14.88
12/24/2021 1:30:00 PM 1.73 35.114 0.089 7.69 2.03 14.89
12/24/2021 1:45:00 PM 1.81 35.258 0.089 7.73 2.1 14.91
12/24/2021 2:00:00 PM 1.89 35.402 0.089 7.75 2.05 14.94
12/24/2021 2:15:00 PM 2 35.6 0.089 7.81 2.12 14.97
12/24/2021 2:30:00 PM 2.07 35.726 0.089 7.85 2.04 14.95
12/24/2021 2:45:00 PM 2.12 35.816 0.088 7.86 2.03 14.9
12/24/2021 3:00:00 PM 2.14 35.852 0.088 7.85 2.06 14.82
12/24/2021 3:15:00 PM 2.16 35.888 0.088 7.83 2.04 14.76
12/24/2021 3:30:00 PM 2.18 35.924 0.088 7.81 2.15 14.69
12/24/2021 3:45:00 PM 2.17 35.906 0.088 7.76 2.22 14.61
12/24/2021 4:00:00 PM 2.14 35.852 0.089 7.72 2.26 14.53
12/24/2021 4:15:00 PM 2.1 35.78 0.089 7.64 2.29 14.36
12/24/2021 4:30:00 PM 2.06 35.708 0.089 7.54 2.21 14.19
12/24/2021 4:45:00 PM 2.02 35.636 0.089 7.48 2.36 14
12/24/2021 5:00:00 PM 1.98 35.564 0.09 7.4 2.27 13.81
12/24/2021 5:15:00 PM 1.94 35.492 0.09 7.35 2.12 13.67
12/24/2021 5:30:00 PM 1.91 35.438 0.09 7.3 2.22 13.55
12/24/2021 5:45:00 PM 1.88 35.384 0.09 7.26 2.12 13.46
12/24/2021 6:00:00 PM 1.85 35.33 0.091 7.22 2.18 13.39
12/24/2021 6:15:00 PM 1.83 35.294 0.091 7.21 2.26 13.33
12/24/2021 6:30:00 PM 1.81 35.258 0.091 7.19 2.19 13.28
12/24/2021 6:45:00 PM 1.8 35.24 0.091 7.16 2.23 13.26
12/24/2021 7:00:00 PM 1.78 35.204 0.091 7.15 2.17 13.24
12/24/2021 7:15:00 PM 1.77 35.186 0.091 7.15 2.22 13.22
12/24/2021 7:30:00 PM 1.77 35.186 0.091 7.14 2.16 13.21
12/24/2021 7:45:00 PM 1.76 35.168 0.091 7.14 2.16 13.2
12/24/2021 8:00:00 PM 1.75 35.15 0.091 7.13 2.31 13.2
12/24/2021 8:15:00 PM 1.75 35.15 0.091 7.12 2.19 13.2
12/24/2021 8:30:00 PM 1.75 35.15 0.091 7.12 2.15 13.19
12/24/2021 8:45:00 PM 1.75 35.15 0.091 7.09 2.22 13.19
12/24/2021 9:00:00 PM 1.74 35.132 0.091 7.12 2.19 13.19
12/24/2021 9:15:00 PM 1.75 35.15 0.092 7.11 2.16 13.18
12/24/2021 9:30:00 PM 1.75 35.15 0.092 7.11 2.19 13.18
12/24/2021 9:45:00 PM 1.76 35.168 0.092 7.11 2.21 13.18
12/24/2021 10:00:00 PM 1.77 35.186 0.092 7.1 2.19 13.17
12/24/2021 10:15:00 PM 1.78 35.204 0.092 7.11 2.24 13.16
12/24/2021 10:30:00 PM 1.78 35.204 0.092 7.11 2.13 13.16
12/24/2021 10:45:00 PM 1.79 35.222 0.092 7.1 2.26 13.15
12/24/2021 11:00:00 PM 1.79 35.222 0.092 7.09 2.23 13.15
12/24/2021 11:15:00 PM 1.8 35.24 0.092 7.11 2.14 13.14
12/24/2021 11:30:00 PM 1.82 35.276 0.092 7.11 2.22 13.13
12/24/2021 11:45:00 PM 1.83 35.294 0.092 7.11 2.18 13.13
12/25/2021 12:00:00 AM 1.85 35.33 0.092 7.08 2.2 13.12
12/25/2021 12:15:00 AM 1.87 35.366 0.092 7.11 2.25 13.11
12/25/2021 12:30:00 AM 1.89 35.402 0.092 7.11 2.24 13.1
12/25/2021 12:45:00 AM 1.91 35.438 0.092 7.09 2.23 13.1
12/25/2021 1:00:00 AM 1.92 35.456 0.092 7.09 2.18 13.09
12/25/2021 1:15:00 AM 1.94 35.492 0.092 7.11 2.32 13.08
12/25/2021 1:30:00 AM 1.96 35.528 0.092 7.09 2.19 13.07
12/25/2021 1:45:00 AM 1.97 35.546 0.092 7.11 2.26 13.06
12/25/2021 2:00:00 AM 1.99 35.582 0.092 7.11 2.3 13.04
12/25/2021 2:15:00 AM 2 35.6 0.092 7.11 2.31 13.04
12/25/2021 2:30:00 AM 2.01 35.618 0.093 7.11 2.39 13.03
12/25/2021 2:45:00 AM 2.03 35.654 0.093 7.09 2.35 13.02
12/25/2021 3:00:00 AM 2.04 35.672 0.093 7.11 2.24 13.01
12/25/2021 3:15:00 AM 2.06 35.708 0.092 7.11 2.4 12.99
12/25/2021 3:30:00 AM 2.08 35.744 0.092 7.11 2.39 12.99
12/25/2021 3:45:00 AM 2.09 35.762 0.092 7.1 2.35 12.97
12/25/2021 4:00:00 AM 2.1 35.78 0.092 7.11 2.4 12.97
12/25/2021 4:15:00 AM 2.12 35.816 0.092 7.11 2.48 12.97
12/25/2021 4:30:00 AM 2.13 35.834 0.092 7.09 2.44 12.96
12/25/2021 4:45:00 AM 2.15 35.87 0.092 7.1 2.41 12.94
12/25/2021 5:00:00 AM 2.16 35.888 0.092 7.11 2.39 12.94
12/25/2021 5:15:00 AM 2.18 35.924 0.092 7.1 2.52 12.93
12/25/2021 5:30:00 AM 2.2 35.96 0.092 7.11 2.56 12.92
12/25/2021 5:45:00 AM 2.21 35.978 0.092 7.1 2.64 12.91
12/25/2021 6:00:00 AM -99999.99 -179968 -99999.99 -99999.99 -99999.99 -99999.99
12/25/2021 6:15:00 AM 2.25 36.05 0.092 7.12 2.79 12.89
12/25/2021 6:30:00 AM 2.27 36.086 0.092 7.11 2.96 12.9
12/25/2021 6:45:00 AM 2.28 36.104 0.091 7.12 3.34 12.89
12/25/2021 7:00:00 AM 2.3 36.14 0.092 7.12 3.9 12.87
12/25/2021 7:15:00 AM 2.31 36.158 0.091 7.09 3.57 12.87
12/25/2021 7:30:00 AM 2.33 36.194 0.091 7.11 4.09 12.88
12/25/2021 7:45:00 AM 2.34 36.212 0.091 7.11 5.46 12.88
12/25/2021 8:00:00 AM -99999.99 -179968 -99999.99 -99999.99 -99999.99 -99999.99
12/25/2021 8:15:00 AM 2.38 36.284 0.091 7.14 7.58 12.94
12/25/2021 8:30:00 AM 2.39 36.302 0.092 7.15 8.65 12.96
12/25/2021 8:45:00 AM 2.4 36.32 0.092 7.16 9.68 13.01
12/25/2021 9:00:00 AM 2.42 36.356 0.092 7.17 9.79 13.09
12/25/2021 9:15:00 AM 2.44 36.392 0.092 7.21 10.76 13.16
12/25/2021 9:30:00 AM 2.45 36.41 0.092 7.23 11.98 13.18
12/25/2021 9:45:00 AM 2.47 36.446 0.092 7.23 11.45 13.2
12/25/2021 10:00:00 AM 2.48 36.464 0.092 7.25 11.73 13.26
12/25/2021 10:15:00 AM 2.49 36.482 0.092 7.28 12.73 13.28
12/25/2021 10:30:00 AM 2.5 36.5 0.092 7.29 12.13 13.27
12/25/2021 10:45:00 AM 2.51 36.518 0.091 7.27 13.76 13.28
12/25/2021 11:00:00 AM 2.52 36.536 0.091 7.3 14.02 13.3
12/25/2021 11:15:00 AM 2.54 36.572 0.09 7.3 18.9 13.3
12/25/2021 11:30:00 AM 2.57 36.626 0.091 7.3 18 13.36
12/25/2021 11:45:00 AM 2.62 36.716 0.091 7.3 19.4 13.4
12/25/2021 12:00:00 PM 2.64 36.752 0.091 7.31 18.48 13.39
12/25/2021 12:15:00 PM 2.65 36.77 0.092 7.31 18.1 13.35
12/25/2021 12:30:00 PM 2.66 36.788 0.093 7.3 19.08 13.3
12/25/2021 12:45:00 PM 2.67 36.806 0.093 7.31 19.45 13.25
12/25/2021 1:00:00 PM 2.67 36.806 0.094 7.3 16.88 13.21
12/25/2021 1:15:00 PM 2.68 36.824 0.094 7.28 18.84 13.17
12/25/2021 1:30:00 PM 2.71 36.878 0.094 7.3 18.94 13.21
12/25/2021 1:45:00 PM 2.74 36.932 0.094 7.3 19.01 13.23
12/25/2021 2:00:00 PM 2.77 36.986 0.093 7.31 19.17 13.23
12/25/2021 2:15:00 PM 2.8 37.04 0.093 7.3 18.97 13.24
12/25/2021 2:30:00 PM 2.83 37.094 0.094 7.31 20.11 13.22
12/25/2021 2:45:00 PM 2.85 37.13 0.094 7.29 17.84 13.2
12/25/2021 3:00:00 PM 2.89 37.202 0.093 7.29 17.94 13.18
12/25/2021 3:15:00 PM 2.92 37.256 0.093 7.28 16.58 13.15
12/25/2021 3:30:00 PM 2.94 37.292 0.093 7.27 17.55 13.08
12/25/2021 3:45:00 PM 2.96 37.328 0.092 7.26 12.79 13.04
12/25/2021 4:00:00 PM 2.98 37.364 0.092 7.24 16.67 12.99
12/25/2021 4:15:00 PM 3 37.4 0.091 7.22 16.16 12.92
12/25/2021 4:30:00 PM 3.02 37.436 0.091 7.19 15.43 12.87
12/25/2021 4:45:00 PM 3.04 37.472 0.091 7.18 14.91 12.82
12/25/2021 5:00:00 PM 3.06 37.508 0.09 7.17 15.04 12.78
12/25/2021 5:15:00 PM 3.07 37.526 0.09 7.16 15.87 12.75
12/25/2021 5:30:00 PM 3.08 37.544 0.09 7.13 13.65 12.73
12/25/2021 5:45:00 PM 3.1 37.58 0.089 7.14 13.77 12.71
12/25/2021 6:00:00 PM 3.11 37.598 0.089 7.12 13.31 12.7
12/25/2021 6:15:00 PM 3.12 37.616 0.089 7.13 12.57 12.69
12/25/2021 6:30:00 PM 3.13 37.634 0.089 7.1 12.53 12.68
12/25/2021 6:45:00 PM 3.14 37.652 0.088 7.12 12.18 12.68
12/25/2021 7:00:00 PM 3.15 37.67 0.088 7.12 11.89 12.67
12/25/2021 7:15:00 PM 3.16 37.688 0.088 7.08 11.68 12.67
12/25/2021 7:30:00 PM 3.17 37.706 0.088 7.1 11.39 12.67
12/25/2021 7:45:00 PM 3.18 37.724 0.088 7.1 11.67 12.67
12/25/2021 8:00:00 PM 3.19 37.742 0.088 7.09 11.04 12.66
12/25/2021 8:15:00 PM 3.21 37.778 0.088 7.11 10.57 12.66
12/25/2021 8:30:00 PM 3.23 37.814 0.088 7.1 9.87 12.65
12/25/2021 8:45:00 PM 3.24 37.832 0.088 7.09 9.74 12.65
12/25/2021 9:00:00 PM 3.26 37.868 0.088 7.11 9.6 12.64
12/25/2021 9:15:00 PM 3.28 37.904 0.088 7.11 10.39 12.64
12/25/2021 9:30:00 PM 3.29 37.922 0.088 7.08 9.7 12.64
12/25/2021 9:45:00 PM 3.3 37.94 0.088 7.11 9.71 12.63
12/25/2021 10:00:00 PM 3.32 37.976 0.088 7.11 8.83 12.63
12/25/2021 10:15:00 PM 3.33 37.994 0.088 7.1 9.49 12.62
12/25/2021 10:30:00 PM 3.35 38.03 0.088 7.11 10.01 12.62
12/25/2021 10:45:00 PM 3.36 38.048 0.088 7.08 9.09 12.62
12/25/2021 11:00:00 PM 3.38 38.084 0.089 7.11 9.05 12.61
12/25/2021 11:15:00 PM 3.39 38.102 0.089 7.11 8.96 12.61
12/25/2021 11:30:00 PM 3.4 38.12 0.089 7.12 8.94 12.61
12/25/2021 11:45:00 PM 3.41 38.138 0.089 7.12 9.05 12.6
12/26/2021 12:00:00 AM 3.42 38.156 0.089 7.11 8.31 12.61
12/26/2021 12:15:00 AM 3.43 38.174 0.089 7.1 8.87 12.6
12/26/2021 12:30:00 AM 3.44 38.192 0.089 7.12 8.98 12.59
12/26/2021 12:45:00 AM 3.45 38.21 0.089 7.12 8.51 12.6
12/26/2021 1:00:00 AM 3.45 38.21 0.089 7.12 8.6 12.59
12/26/2021 1:15:00 AM 3.46 38.228 0.089 7.11 8.86 12.6
12/26/2021 1:30:00 AM 3.46 38.228 0.089 7.11 7.99 12.59
12/26/2021 1:45:00 AM 3.46 38.228 0.089 7.11 7.86 12.6
12/26/2021 2:00:00 AM 3.46 38.228 0.09 7.09 7.87 12.59
12/26/2021 2:15:00 AM 3.46 38.228 0.09 7.1 7.92 12.6
12/26/2021 2:30:00 AM 3.46 38.228 0.09 7.11 7.72 12.6
12/26/2021 2:45:00 AM 3.46 38.228 0.09 7.11 7.84 12.6
12/26/2021 3:00:00 AM 3.45 38.21 0.09 7.14 7.51 12.61
12/26/2021 3:15:00 AM 3.44 38.192 0.09 7.11 7.66 12.6
12/26/2021 3:30:00 AM 3.43 38.174 0.09 7.11 6.9 12.61
12/26/2021 3:45:00 AM 3.42 38.156 0.09 7.11 6.87 12.61
12/26/2021 4:00:00 AM 3.41 38.138 0.09 7.12 6.82 12.61
12/26/2021 4:15:00 AM 3.41 38.138 0.09 7.1 6.63 12.61
12/26/2021 4:30:00 AM 3.4 38.12 0.09 7.11 6.9 12.62
12/26/2021 4:45:00 AM 3.39 38.102 0.09 7.11 6.43 12.63
12/26/2021 5:00:00 AM 3.38 38.084 0.09 7.11 6.36 12.63
12/26/2021 5:15:00 AM 3.37 38.066 0.091 7.07 6.47 12.64
12/26/2021 5:30:00 AM 3.35 38.03 0.091 7.11 6.5 12.65
12/26/2021 5:45:00 AM 3.34 38.012 0.091 7.09 6.18 12.66
12/26/2021 6:00:00 AM 3.32 37.976 0.091 7.11 6.17 12.66
12/26/2021 6:15:00 AM 3.3 37.94 0.091 7.11 6.02 12.67
12/26/2021 6:30:00 AM 3.28 37.904 0.091 7.11 5.61 12.68
12/26/2021 6:45:00 AM 3.25 37.85 0.091 7.09 5.8 12.68
12/26/2021 7:00:00 AM 3.21 37.778 0.091 7.11 5.68 12.7
12/26/2021 7:15:00 AM 3.19 37.742 0.091 7.1 5.24 12.71
12/26/2021 7:30:00 AM 3.17 37.706 0.091 7.09 5.6 12.72
12/26/2021 7:45:00 AM 3.15 37.67 0.091 7.11 5.35 12.74
12/26/2021 8:00:00 AM 3.13 37.634 0.091 7.1 5.2 12.79
12/26/2021 8:15:00 AM 3.1 37.58 0.091 7.13 5.17 12.87
12/26/2021 8:30:00 AM 3.07 37.526 0.091 7.14 5.12 12.94
12/26/2021 8:45:00 AM 3.04 37.472 0.091 7.16 4.97 13.03
12/26/2021 9:00:00 AM 3.03 37.454 0.091 7.19 4.82 13.13
12/26/2021 9:15:00 AM 3.04 37.472 0.091 7.2 4.91 13.25
12/26/2021 9:30:00 AM 3.06 37.508 0.091 7.25 4.85 13.37
12/26/2021 9:45:00 AM 3.09 37.562 0.091 7.28 4.46 13.49
12/26/2021 10:00:00 AM 3.12 37.616 0.09 7.31 4.32 13.6
12/26/2021 10:15:00 AM 3.14 37.652 0.09 7.35 4.37 13.69
12/26/2021 10:30:00 AM 3.17 37.706 0.09 7.36 4.31 13.73
12/26/2021 10:45:00 AM 3.2 37.76 0.09 7.4 4.38 13.76
12/26/2021 11:00:00 AM 3.22 37.796 0.09 7.42 4.18 13.78
12/26/2021 11:15:00 AM 3.25 37.85 0.09 7.45 4.17 13.8
12/26/2021 11:30:00 AM 3.29 37.922 0.09 7.46 4.28 13.81
12/26/2021 11:45:00 AM 3.31 37.958 0.09 7.44 4.15 13.8
12/26/2021 12:00:00 PM 3.34 38.012 0.09 7.48 4.06 13.79
12/26/2021 12:15:00 PM 3.36 38.048 0.09 7.5 4.09 13.78
12/26/2021 12:30:00 PM 3.38 38.084 0.09 7.49 4.04 13.79
12/26/2021 12:45:00 PM 3.4 38.12 0.089 7.52 3.97 13.78
12/26/2021 1:00:00 PM 3.43 38.174 0.089 7.51 4.02 13.77
12/26/2021 1:15:00 PM 3.46 38.228 0.089 7.53 4.02 13.78
12/26/2021 1:30:00 PM 3.49 38.282 0.089 7.55 3.85 13.8
12/26/2021 1:45:00 PM 3.52 38.336 0.089 7.54 3.84 13.81
12/26/2021 2:00:00 PM 3.54 38.372 0.089 7.56 3.87 13.8
12/26/2021 2:15:00 PM 3.54 38.372 0.089 7.56 3.81 13.75
12/26/2021 2:30:00 PM 3.55 38.39 0.089 7.51 4.2 13.67
12/26/2021 2:45:00 PM 3.54 38.372 0.089 7.49 4.16 13.57
12/26/2021 3:00:00 PM 3.54 38.372 0.089 7.46 4.15 13.53
12/26/2021 3:15:00 PM 3.54 38.372 0.089 7.45 3.95 13.5
12/26/2021 3:30:00 PM 3.53 38.354 0.089 7.39 3.96 13.43
12/26/2021 3:45:00 PM 3.52 38.336 0.09 7.39 4.04 13.34
12/26/2021 4:00:00 PM 3.51 38.318 0.09 7.33 3.98 13.23
12/26/2021 4:15:00 PM 3.5 38.3 0.09 7.31 3.98 13.12
12/26/2021 4:30:00 PM 3.49 38.282 0.09 7.28 3.93 13.04
12/26/2021 4:45:00 PM 3.46 38.228 0.09 7.25 3.99 12.97
12/26/2021 5:00:00 PM 3.43 38.174 0.09 7.22 3.93 12.9
12/26/2021 5:15:00 PM 3.41 38.138 0.09 7.2 3.88 12.84
12/26/2021 5:30:00 PM 3.39 38.102 0.09 7.15 3.9 12.8
12/26/2021 5:45:00 PM 3.37 38.066 0.09 7.16 4.09 12.77
12/26/2021 6:00:00 PM 3.34 38.012 0.09 7.15 3.97 12.75
12/26/2021 6:15:00 PM 3.32 37.976 0.091 7.14 3.98 12.74
12/26/2021 6:30:00 PM 3.29 37.922 0.091 7.14 3.93 12.74
12/26/2021 6:45:00 PM 3.27 37.886 0.091 7.13 3.88 12.74
12/26/2021 7:00:00 PM 3.24 37.832 0.091 7.12 3.82 12.74
12/26/2021 7:15:00 PM 3.21 37.778 0.091 7.12 3.96 12.75
12/26/2021 7:30:00 PM 3.19 37.742 0.091 7.11 3.9 12.75
12/26/2021 7:45:00 PM 3.16 37.688 0.091 7.08 3.82 12.76
12/26/2021 8:00:00 PM 3.13 37.634 0.091 7.1 3.91 12.77
12/26/2021 8:15:00 PM 3.1 37.58 0.091 7.09 3.85 12.78
12/26/2021 8:30:00 PM 3.08 37.544 0.091 7.11 3.79 12.8
12/26/2021 8:45:00 PM 3.05 37.49 0.091 7.11 3.65 12.8
12/26/2021 9:00:00 PM 3.02 37.436 0.091 7.1 3.75 12.81
12/26/2021 9:15:00 PM 2.99 37.382 0.091 7.1 3.93 12.82
12/26/2021 9:30:00 PM 2.96 37.328 0.091 7.09 3.85 12.83
12/26/2021 9:45:00 PM 2.94 37.292 0.091 7.1 3.71 12.84
12/26/2021 10:00:00 PM 2.92 37.256 0.091 7.08 3.55 12.85
12/26/2021 10:15:00 PM 2.9 37.22 0.091 7.1 3.68 12.85
12/26/2021 10:30:00 PM 2.88 37.184 0.091 7.1 3.54 12.86
12/26/2021 10:45:00 PM 2.85 37.13 0.091 7.09 3.65 12.87
12/26/2021 11:00:00 PM 2.83 37.094 0.091 7.1 3.56 12.88
12/26/2021 11:15:00 PM 2.81 37.058 0.091 7.1 3.76 12.89
12/26/2021 11:30:00 PM 2.79 37.022 0.091 7.07 3.81 12.89
12/26/2021 11:45:00 PM 2.77 36.986 0.091 7.09 3.56 12.9
12/27/2021 12:00:00 AM 2.74 36.932 0.091 7.1 3.68 12.92
12/27/2021 12:15:00 AM 2.69 36.842 0.091 7.07 3.63 12.93
12/27/2021 12:30:00 AM 2.64 36.752 0.091 7.1 3.61 12.94
12/27/2021 12:45:00 AM 2.61 36.698 0.091 7.08 3.54 12.96
12/27/2021 1:00:00 AM 2.57 36.626 0.091 7.1 3.48 12.96
12/27/2021 1:15:00 AM 2.51 36.518 0.091 7.08 3.6 12.99
12/27/2021 1:30:00 AM 2.46 36.428 0.091 7.1 3.47 13
12/27/2021 1:45:00 AM 2.43 36.374 0.091 7.09 3.36 13.01
12/27/2021 2:00:00 AM 2.39 36.302 0.091 7.07 3.37 13.02
12/27/2021 2:15:00 AM 2.35 36.23 0.091 7.09 3.4 13.04
12/27/2021 2:30:00 AM 2.31 36.158 0.091 7.09 3.47 13.06
12/27/2021 2:45:00 AM 2.27 36.086 0.091 7.06 3.32 13.07
12/27/2021 3:00:00 AM 2.23 36.014 0.091 7.09 3.27 13.08
12/27/2021 3:15:00 AM 2.2 35.96 0.091 7.08 3.47 13.08
12/27/2021 3:30:00 AM 2.16 35.888 0.091 7.08 3.3 13.1
12/27/2021 3:45:00 AM 2.13 35.834 0.091 7.09 3.24 13.11
12/27/2021 4:00:00 AM 2.1 35.78 0.091 7.08 3.16 13.12
12/27/2021 4:15:00 AM 2.06 35.708 0.091 7.09 3.25 13.14
12/27/2021 4:30:00 AM 2.04 35.672 0.091 7.06 3.33 13.14
12/27/2021 4:45:00 AM 2.02 35.636 0.091 7.09 3.18 13.15
12/27/2021 5:00:00 AM 2 35.6 0.091 7.07 3.25 13.17
12/27/2021 5:15:00 AM 1.98 35.564 0.091 7.07 3.19 13.18
12/27/2021 5:30:00 AM 1.95 35.51 0.091 7.06 3.25 13.18
12/27/2021 5:45:00 AM 1.93 35.474 0.091 7.08 3.1 13.19
12/27/2021 6:00:00 AM 1.91 35.438 0.091 7.08 3.16 13.2
12/27/2021 6:15:00 AM 1.89 35.402 0.091 7.08 3.08 13.21
12/27/2021 6:30:00 AM 1.88 35.384 0.091 7.08 3.26 13.22
12/27/2021 6:45:00 AM 1.86 35.348 0.091 7.08 2.96 13.22
12/27/2021 7:00:00 AM 1.85 35.33 0.091 7.06 3.11 13.23
12/27/2021 7:15:00 AM 1.83 35.294 0.091 7.05 3.06 13.24
12/27/2021 7:30:00 AM 1.82 35.276 0.091 7.08 2.97 13.24
12/27/2021 7:45:00 AM 1.81 35.258 0.091 7.08 2.88 13.25
12/27/2021 8:00:00 AM 1.81 35.258 0.091 7.08 2.92 13.26
12/27/2021 8:15:00 AM 1.8 35.24 0.091 7.08 3.02 13.28
12/27/2021 8:30:00 AM 1.79 35.222 0.091 7.09 3.02 13.32
12/27/2021 8:45:00 AM 1.79 35.222 0.091 7.1 2.95 13.36
12/27/2021 9:00:00 AM 1.78 35.204 0.09 7.11 2.95 13.41
12/27/2021 9:15:00 AM 1.78 35.204 0.09 7.12 2.89 13.46
12/27/2021 9:30:00 AM 1.78 35.204 0.09 7.13 3 13.49
12/27/2021 9:45:00 AM 1.77 35.186 0.09 7.09 2.95 13.52
12/27/2021 10:00:00 AM 1.78 35.204 0.09 7.17 3.02 13.58
12/27/2021 10:15:00 AM 1.79 35.222 0.09 7.16 3.01 13.7
12/27/2021 10:30:00 AM 1.81 35.258 0.09 7.16 3.09 13.8
12/27/2021 10:45:00 AM 1.82 35.276 0.09 7.21 2.99 13.88
12/27/2021 11:00:00 AM 1.84 35.312 0.09 7.23 2.81 13.96
12/27/2021 11:15:00 AM 1.86 35.348 0.09 7.27 2.89 14.05
12/27/2021 11:30:00 AM 1.88 35.384 0.089 7.29 2.79 14.1
12/27/2021 11:45:00 AM 1.9 35.42 0.089 7.3 2.73 14.15
12/27/2021 12:00:00 PM 1.92 35.456 0.089 7.33 2.76 14.18
12/27/2021 12:15:00 PM 1.95 35.51 0.089 7.36 2.97 14.2
12/27/2021 12:30:00 PM 1.96 35.528 0.089 7.35 2.83 14.21
12/27/2021 12:45:00 PM 1.97 35.546 0.089 7.36 2.91 14.17
12/27/2021 1:00:00 PM 1.98 35.564 0.089 7.38 2.86 14.18
12/27/2021 1:15:00 PM 2 35.6 0.089 7.39 2.83 14.2
12/27/2021 1:30:00 PM 2.01 35.618 0.089 7.41 2.74 14.22
12/27/2021 1:45:00 PM 2.01 35.618 0.088 7.42 2.77 14.23
12/27/2021 2:00:00 PM 2.02 35.636 0.088 7.43 2.67 14.22
12/27/2021 2:15:00 PM 2.04 35.672 0.088 7.42 2.71 14.2
12/27/2021 2:30:00 PM 2.05 35.69 0.088 7.43 2.78 14.18
12/27/2021 2:45:00 PM 2.07 35.726 0.088 7.43 2.75 14.13
12/27/2021 3:00:00 PM 2.08 35.744 0.088 7.39 2.77 14.05
12/27/2021 3:15:00 PM 2.09 35.762 0.088 7.38 2.66 13.96
12/27/2021 3:30:00 PM 2.1 35.78 0.088 7.36 2.84 13.85
12/27/2021 3:45:00 PM 2.11 35.798 0.088 7.31 2.74 13.78
12/27/2021 4:00:00 PM 2.13 35.834 0.088 7.3 2.71 13.72
12/27/2021 4:15:00 PM 2.13 35.834 0.088 7.28 2.83 13.6
12/27/2021 4:30:00 PM 2.14 35.852 0.089 7.24 2.76 13.5
12/27/2021 4:45:00 PM 2.14 35.852 0.089 7.22 2.8 13.4
12/27/2021 5:00:00 PM 2.14 35.852 0.089 7.19 2.77 13.31
12/27/2021 5:15:00 PM 2.14 35.852 0.089 7.17 2.78 13.26
12/27/2021 5:30:00 PM 2.14 35.852 0.089 7.15 2.78 13.21
12/27/2021 5:45:00 PM 2.13 35.834 0.089 7.14 2.79 13.16
12/27/2021 6:00:00 PM 2.11 35.798 0.089 7.11 2.72 13.14
12/27/2021 6:15:00 PM 2.1 35.78 0.089 7.13 2.91 13.12
12/27/2021 6:30:00 PM 2.09 35.762 0.089 7.11 2.83 13.09
12/27/2021 6:45:00 PM 2.07 35.726 0.089 7.11 2.78 13.09
12/27/2021 7:00:00 PM 2.06 35.708 0.089 7.1 3.12 13.09
12/27/2021 7:15:00 PM 2.06 35.708 0.089 7.1 3.06 13.09
12/27/2021 7:30:00 PM 2.06 35.708 0.089 7.1 3.1 13.08
12/27/2021 7:45:00 PM 2.06 35.708 0.089 7.11 3.05 13.08
12/27/2021 8:00:00 PM 2.06 35.708 0.089 7.1 3.06 13.08
12/27/2021 8:15:00 PM 2.06 35.708 0.089 7.1 3.14 13.07
12/27/2021 8:30:00 PM 2.05 35.69 0.089 7.09 3 13.08
12/27/2021 8:45:00 PM 2.05 35.69 0.089 7.07 3.12 13.07
12/27/2021 9:00:00 PM 2.04 35.672 0.089 7.09 3.14 13.06
12/27/2021 9:15:00 PM 2.03 35.654 0.089 7.09 3 13.07
12/27/2021 9:30:00 PM 2.03 35.654 0.089 7.1 3.07 13.06
12/27/2021 9:45:00 PM 2.02 35.636 0.09 7.09 3.05 13.07
12/27/2021 10:00:00 PM 2.02 35.636 0.09 7.08 3.02 13.05
12/27/2021 10:15:00 PM 2.01 35.618 0.09 7.08 3.05 13.06
12/27/2021 10:30:00 PM 2.01 35.618 0.09 7.09 3.08 13.07
12/27/2021 10:45:00 PM 2.01 35.618 0.089 7.07 3.04 13.06
12/27/2021 11:00:00 PM 2.01 35.618 0.089 7.09 3.06 13.06
12/27/2021 11:15:00 PM 2.01 35.618 0.09 7.06 2.98 13.06
12/27/2021 11:30:00 PM 2.01 35.618 0.09 7.09 3.04 13.05
12/27/2021 11:45:00 PM 2.01 35.618 0.09 7.08 2.9 13.05
12/28/2021 12:00:00 AM 2.02 35.636 0.09 7.06 2.93 13.06
12/28/2021 12:15:00 AM 2.02 35.636 0.09 7.09 2.99 13.05
12/28/2021 12:30:00 AM 2.02 35.636 0.09 7.08 2.87 13.05
12/28/2021 12:45:00 AM 2.03 35.654 0.089 7.06 3.01 13.04
12/28/2021 1:00:00 AM 2.04 35.672 0.089 7.09 2.91 13.05
12/28/2021 1:15:00 AM 2.05 35.69 0.089 7.05 2.87 13.04
12/28/2021 1:30:00 AM 2.06 35.708 0.089 7.08 2.8 13.03
12/28/2021 1:45:00 AM 2.07 35.726 0.089 7.09 3.03 13.03
12/28/2021 2:00:00 AM 2.08 35.744 0.089 7.08 2.89 13.03
12/28/2021 2:15:00 AM 2.1 35.78 0.089 7.08 2.91 13.02
12/28/2021 2:30:00 AM 2.11 35.798 0.089 7.08 2.85 13.03
12/28/2021 2:45:00 AM 2.13 35.834 0.089 7.07 2.98 13.01
12/28/2021 3:00:00 AM 2.14 35.852 0.089 7.07 2.82 13.01
12/28/2021 3:15:00 AM 2.15 35.87 0.089 7.07 2.86 13.01
12/28/2021 3:30:00 AM 2.17 35.906 0.089 7.08 2.98 13.01
12/28/2021 3:45:00 AM 2.18 35.924 0.089 7.09 2.91 13.01
12/28/2021 4:00:00 AM 2.19 35.942 0.089 7.08 2.83 13
12/28/2021 4:15:00 AM 2.2 35.96 0.089 7.06 2.84 12.99
12/28/2021 4:30:00 AM 2.22 35.996 0.089 7.07 2.9 13
12/28/2021 4:45:00 AM 2.23 36.014 0.089 7.05 2.89 12.99
12/28/2021 5:00:00 AM 2.24 36.032 0.089 7.08 2.77 12.98
12/28/2021 5:15:00 AM 2.25 36.05 0.089 7.08 2.93 12.98
12/28/2021 5:30:00 AM 2.26 36.068 0.089 7.07 2.95 12.97
12/28/2021 5:45:00 AM 2.28 36.104 0.089 7.07 2.84 12.96
12/28/2021 6:00:00 AM 2.28 36.104 0.089 7.07 2.89 12.97
12/28/2021 6:15:00 AM 2.28 36.104 0.089 7.08 2.84 12.96
12/28/2021 6:30:00 AM 2.28 36.104 0.089 7.07 2.83 12.97
12/28/2021 6:45:00 AM 2.28 36.104 0.089 7.03 2.91 12.97
12/28/2021 7:00:00 AM 2.28 36.104 0.089 7.08 2.75 12.97
12/28/2021 7:15:00 AM 2.29 36.122 0.089 7.06 2.65 12.97
12/28/2021 7:30:00 AM 2.29 36.122 0.089 7.08 2.81 12.98
12/28/2021 7:45:00 AM 2.28 36.104 0.089 7.08 2.81 13
12/28/2021 8:00:00 AM 2.26 36.068 0.089 7.11 3.02 13.06
12/28/2021 8:15:00 AM 2.24 36.032 0.089 7.1 3.04 13.14
12/28/2021 8:30:00 AM 2.22 35.996 0.089 7.11 2.84 13.28
12/28/2021 8:45:00 AM 2.22 35.996 0.088 7.15 2.76 13.43
12/28/2021 9:00:00 AM 2.24 36.032 0.088 7.18 2.72 13.58
12/28/2021 9:15:00 AM 2.24 36.032 0.088 7.2 2.84 13.73
12/28/2021 9:30:00 AM 2.22 35.996 0.088 7.25 2.74 13.8
12/28/2021 9:45:00 AM 2.23 36.014 0.088 7.26 2.71 13.88
12/28/2021 10:00:00 AM 2.26 36.068 0.088 7.3 2.79 13.99
12/28/2021 10:15:00 AM 2.31 36.158 0.087 7.34 2.67 14.06
12/28/2021 10:30:00 AM 2.38 36.284 0.087 7.35 2.71 14.15
12/28/2021 10:45:00 AM 2.47 36.446 0.087 7.42 2.74 14.2
12/28/2021 11:00:00 AM 2.53 36.554 0.087 7.46 2.74 14.26
12/28/2021 11:15:00 AM 2.62 36.716 0.086 7.49 2.74 14.29
12/28/2021 11:30:00 AM 2.74 36.932 0.086 7.52 2.78 14.3
12/28/2021 11:45:00 AM 2.84 37.112 0.086 7.55 2.79 14.27
12/28/2021 12:00:00 PM 2.89 37.202 0.086 7.56 2.82 14.24
12/28/2021 12:15:00 PM 2.95 37.31 0.086 7.57 3.1 14.23
12/28/2021 12:30:00 PM 3.01 37.418 0.086 7.6 3.21 14.22
12/28/2021 12:45:00 PM 3.07 37.526 0.086 7.62 3.29 14.21
12/28/2021 1:00:00 PM 3.12 37.616 0.086 7.63 3.31 14.19
12/28/2021 1:15:00 PM 3.15 37.67 0.086 7.64 3.54 14.15
12/28/2021 1:30:00 PM 3.17 37.706 0.086 7.63 3.62 14.09
12/28/2021 1:45:00 PM 3.19 37.742 0.086 7.62 3.42 14.05
12/28/2021 2:00:00 PM 3.21 37.778 0.086 7.6 3.35 13.97
12/28/2021 2:15:00 PM 3.23 37.814 0.086 7.57 3.21 13.87
12/28/2021 2:30:00 PM 3.24 37.832 0.086 7.54 3.19 13.79
12/28/2021 2:45:00 PM 3.26 37.868 0.086 7.51 3.3 13.7
12/28/2021 3:00:00 PM 3.28 37.904 0.086 7.5 3.06 13.67
12/28/2021 3:15:00 PM 3.3 37.94 0.086 7.47 3.11 13.64
12/28/2021 3:30:00 PM 3.3 37.94 0.086 7.43 3.01 13.54
12/28/2021 3:45:00 PM 3.31 37.958 0.086 7.39 3.28 13.41
12/28/2021 4:00:00 PM 3.31 37.958 0.086 7.35 3.16 13.29
12/28/2021 4:15:00 PM 3.31 37.958 0.086 7.32 3.11 13.17
12/28/2021 4:30:00 PM 3.31 37.958 0.086 7.25 3.17 13.08
12/28/2021 4:45:00 PM 3.3 37.94 0.086 7.23 3.1 12.98
12/28/2021 5:00:00 PM 3.3 37.94 0.086 7.21 3.3 12.89
12/28/2021 5:15:00 PM 3.29 37.922 0.086 7.19 3.33 12.83
12/28/2021 5:30:00 PM 3.28 37.904 0.087 7.17 3.24 12.79
12/28/2021 5:45:00 PM 3.27 37.886 0.087 7.14 3.23 12.75
12/28/2021 6:00:00 PM 3.26 37.868 0.087 7.14 3.02 12.72
12/28/2021 6:15:00 PM 3.24 37.832 0.087 7.13 3.16 12.71
12/28/2021 6:30:00 PM 3.23 37.814 0.087 7.12 3.18 12.7
12/28/2021 6:45:00 PM 3.21 37.778 0.087 7.12 3.18 12.69
12/28/2021 7:00:00 PM 3.14 37.652 0.087 7.11 3.16 12.69
12/28/2021 7:15:00 PM 2.99 37.382 0.087 7.11 3.21 12.69
12/28/2021 7:30:00 PM 2.84 37.112 0.087 7.11 3.37 12.7
12/28/2021 7:45:00 PM 2.72 36.896 0.087 7.07 3.67 12.72
12/28/2021 8:00:00 PM 2.64 36.752 0.087 7.1 4.24 12.74
12/28/2021 8:15:00 PM 2.58 36.644 0.087 7.1 3.89 12.77
12/28/2021 8:30:00 PM 2.51 36.518 0.088 7.07 3.8 12.82
12/28/2021 8:45:00 PM 2.45 36.41 0.087 7.07 3.73 12.84
12/28/2021 9:00:00 PM 2.37 36.266 0.087 7.09 3.79 12.87
12/28/2021 9:15:00 PM 2.25 36.05 0.087 7.09 3.66 12.89
12/28/2021 9:30:00 PM 2.19 35.942 0.087 7.09 3.99 12.93
12/28/2021 9:45:00 PM 2.18 35.924 0.087 7.09 4 12.96
12/28/2021 10:00:00 PM 2.18 35.924 0.087 7.07 4.15 12.98
12/28/2021 10:15:00 PM 2.18 35.924 0.087 7.09 3.98 12.99
12/28/2021 10:30:00 PM 2.18 35.924 0.087 7.08 3.89 13
12/28/2021 10:45:00 PM 2.19 35.942 0.087 7.06 4.12 13
12/28/2021 11:00:00 PM 2.2 35.96 0.087 7.09 4.12 13.01
12/28/2021 11:15:00 PM 2.21 35.978 0.087 7.08 4.31 13.01
12/28/2021 11:30:00 PM 2.21 35.978 0.087 7.09 4.56 13.01
12/28/2021 11:45:00 PM 2.22 35.996 0.088 7.09 4.26 13.01
12/29/2021 12:00:00 AM 2.23 36.014 0.088 7.05 4.16 13
12/29/2021 12:15:00 AM 2.24 36.032 0.088 7.08 3.95 13
12/29/2021 12:30:00 AM 2.26 36.068 0.088 7.08 4.11 12.99
12/29/2021 12:45:00 AM 2.28 36.104 0.088 7.08 3.79 12.98
12/29/2021 1:00:00 AM 2.29 36.122 0.088 7.08 4.01 12.99
12/29/2021 1:15:00 AM 2.3 36.14 0.088 7.04 3.92 12.99
12/29/2021 1:30:00 AM 2.31 36.158 0.088 7.08 3.88 12.98
12/29/2021 1:45:00 AM 2.32 36.176 0.088 7.08 3.94 12.97
12/29/2021 2:00:00 AM 2.33 36.194 0.088 7.05 4.07 12.96
12/29/2021 2:15:00 AM 2.34 36.212 0.088 7.08 4.2 12.97
12/29/2021 2:30:00 AM 2.35 36.23 0.088 7.04 4.32 12.94
12/29/2021 2:45:00 AM 2.36 36.248 0.089 7.08 4.63 12.95
12/29/2021 3:00:00 AM 2.37 36.266 0.089 7.08 4.64 12.94
12/29/2021 3:15:00 AM 2.39 36.302 0.089 7.06 4.03 12.94
12/29/2021 3:30:00 AM 2.4 36.32 0.089 7.08 4.02 12.93
12/29/2021 3:45:00 AM 2.41 36.338 0.089 7.08 4.31 12.93
12/29/2021 4:00:00 AM 2.42 36.356 0.09 7.08 4.24 12.92
12/29/2021 4:15:00 AM 2.43 36.374 0.091 7.08 4.45 12.92
12/29/2021 4:30:00 AM 2.44 36.392 0.091 7.08 4.28 12.91
12/29/2021 4:45:00 AM 2.44 36.392 0.091 7.08 4.06 12.91
12/29/2021 5:00:00 AM 2.45 36.41 0.091 7.08 4.36 12.91
12/29/2021 5:15:00 AM 2.46 36.428 0.092 7.08 4.83 12.9
12/29/2021 5:30:00 AM 2.47 36.446 0.092 7.07 4.6 12.91
12/29/2021 5:45:00 AM 2.48 36.464 0.092 7.05 4.76 12.89
12/29/2021 6:00:00 AM 2.49 36.482 0.092 7.08 4.48 12.89
12/29/2021 6:15:00 AM 2.49 36.482 0.092 7.05 4.75 12.89
12/29/2021 6:30:00 AM 2.5 36.5 0.093 7.06 4.57 12.89
12/29/2021 6:45:00 AM 2.51 36.518 0.093 7.08 4.66 12.89
12/29/2021 7:00:00 AM 2.52 36.536 0.093 7.08 4.73 12.89
12/29/2021 7:15:00 AM 2.53 36.554 0.093 7.08 4.32 12.88
12/29/2021 7:30:00 AM 2.54 36.572 0.093 7.07 4.36 12.89
12/29/2021 7:45:00 AM 2.55 36.59 0.094 7.08 4.37 12.89
12/29/2021 8:00:00 AM 2.55 36.59 0.094 7.08 4.37 12.91
12/29/2021 8:15:00 AM 2.56 36.608 0.094 7.09 4.48 12.94
12/29/2021 8:30:00 AM 2.57 36.626 0.094 7.09 4.24 13
12/29/2021 8:45:00 AM 2.59 36.662 0.094 7.12 4.06 13.07
12/29/2021 9:00:00 AM 2.61 36.698 0.094 7.13 4.15 13.18
12/29/2021 9:15:00 AM 2.63 36.734 0.094 7.15 4.25 13.31
12/29/2021 9:30:00 AM 2.66 36.788 0.095 7.19 4.11 13.4
12/29/2021 9:45:00 AM 2.68 36.824 0.095 7.21 3.99 13.49
12/29/2021 10:00:00 AM 2.71 36.878 0.095 7.27 4.03 13.56
12/29/2021 10:15:00 AM 2.73 36.914 0.095 7.27 4.04 13.62
12/29/2021 10:30:00 AM 2.77 36.986 0.095 7.26 3.9 13.71
12/29/2021 10:45:00 AM 2.81 37.058 0.095 7.32 3.94 13.8
12/29/2021 11:00:00 AM 2.86 37.148 0.095 7.37 4.32 13.87
12/29/2021 11:15:00 AM 2.9 37.22 0.095 7.38 4.6 13.92
12/29/2021 11:30:00 AM 2.95 37.31 0.095 7.44 4.28 13.96
12/29/2021 11:45:00 AM 3.01 37.418 0.096 7.48 4.75 14
12/29/2021 12:00:00 PM 3.07 37.526 0.095 7.5 5 14.03
12/29/2021 12:15:00 PM 3.1 37.58 0.095 7.53 5.01 14.02
12/29/2021 12:30:00 PM 3.14 37.652 0.095 7.55 5.43 14
12/29/2021 12:45:00 PM 3.19 37.742 0.095 7.57 5.02 13.98
12/29/2021 1:00:00 PM 3.24 37.832 0.095 7.58 5.06 13.97
12/29/2021 1:15:00 PM 3.28 37.904 0.095 7.58 5.65 13.94
12/29/2021 1:30:00 PM 3.32 37.976 0.096 7.59 5.14 13.9
12/29/2021 1:45:00 PM 3.35 38.03 0.096 7.58 5.25 13.84
12/29/2021 2:00:00 PM 3.38 38.084 0.096 7.56 5.3 13.8
12/29/2021 2:15:00 PM 3.41 38.138 0.096 7.54 5.55 13.73
12/29/2021 2:30:00 PM 3.43 38.174 0.096 7.52 5.26 13.65
12/29/2021 2:45:00 PM 3.46 38.228 0.096 7.48 5.52 13.59
12/29/2021 3:00:00 PM 3.5 38.3 0.096 7.48 5.29 13.57
12/29/2021 3:15:00 PM 3.53 38.354 0.096 7.48 5.81 13.55
12/29/2021 3:30:00 PM 3.56 38.408 0.097 7.46 6.3 13.47
12/29/2021 3:45:00 PM 3.58 38.444 0.097 7.41 5.93 13.37
12/29/2021 4:00:00 PM 3.59 38.462 0.097 7.37 6.51 13.28
12/29/2021 4:15:00 PM 3.61 38.498 0.097 7.35 6.1 13.17
12/29/2021 4:30:00 PM 3.62 38.516 0.097 7.32 6.77 13.07
12/29/2021 4:45:00 PM 3.62 38.516 0.097 7.24 6.59 12.97
12/29/2021 5:00:00 PM 3.62 38.516 0.097 7.24 6.3 12.87
12/29/2021 5:15:00 PM 3.62 38.516 0.098 7.2 6.33 12.79
12/29/2021 5:30:00 PM 3.62 38.516 0.098 7.19 6.39 12.74
12/29/2021 5:45:00 PM 3.62 38.516 0.098 7.17 6.22 12.7
12/29/2021 6:00:00 PM 3.62 38.516 0.098 7.15 5.97 12.68
12/29/2021 6:15:00 PM 3.61 38.498 0.098 7.12 6.04 12.66
12/29/2021 6:30:00 PM 3.61 38.498 0.098 7.14 6.12 12.65
12/29/2021 6:45:00 PM 3.61 38.498 0.098 7.12 5.89 12.64
12/29/2021 7:00:00 PM 3.6 38.48 0.098 7.13 6.18 12.63
12/29/2021 7:15:00 PM 3.6 38.48 0.098 7.11 6.24 12.64
12/29/2021 7:30:00 PM 3.59 38.462 0.098 7.12 5.7 12.64
12/29/2021 7:45:00 PM 3.59 38.462 0.098 7.12 5.85 12.64
12/29/2021 8:00:00 PM 3.58 38.444 0.098 7.08 5.82 12.65
12/29/2021 8:15:00 PM 3.58 38.444 0.098 7.09 5.91 12.65
12/29/2021 8:30:00 PM 3.57 38.426 0.098 7.12 5.77 12.65
12/29/2021 8:45:00 PM 3.57 38.426 0.098 7.11 5.43 12.65
12/29/2021 9:00:00 PM 3.57 38.426 0.098 7.12 5.26 12.65
12/29/2021 9:15:00 PM 3.56 38.408 0.098 7.12 5.26 12.65
12/29/2021 9:30:00 PM 3.56 38.408 0.098 7.12 5.31 12.65
12/29/2021 9:45:00 PM 3.56 38.408 0.098 7.09 5.41 12.65
12/29/2021 10:00:00 PM 3.55 38.39 0.098 7.11 5.29 12.65
12/29/2021 10:15:00 PM 3.55 38.39 0.098 7.08 5.1 12.65
12/29/2021 10:30:00 PM 3.55 38.39 0.098 7.11 5 12.65
12/29/2021 10:45:00 PM 3.55 38.39 0.098 7.1 4.95 12.65
12/29/2021 11:00:00 PM 3.55 38.39 0.098 7.11 5.15 12.65
12/29/2021 11:15:00 PM 3.55 38.39 0.098 7.1 4.96 12.64
12/29/2021 11:30:00 PM 3.54 38.372 0.098 7.1 4.74 12.64
12/29/2021 11:45:00 PM 3.54 38.372 0.097 7.1 4.78 12.64
12/30/2021 12:00:00 AM 3.54 38.372 0.097 7.1 4.75 12.64
12/30/2021 12:15:00 AM 3.54 38.372 0.097 7.09 4.53 12.64
12/30/2021 12:30:00 AM 3.54 38.372 0.097 7.08 4.63 12.64
12/30/2021 12:45:00 AM 3.54 38.372 0.097 7.1 4.77 12.63
12/30/2021 1:00:00 AM 3.54 38.372 0.096 7.09 4.48 12.63
12/30/2021 1:15:00 AM 3.54 38.372 0.096 7.09 4.43 12.64
12/30/2021 1:30:00 AM 3.54 38.372 0.096 7.08 4.54 12.64
12/30/2021 1:45:00 AM 3.54 38.372 0.096 7.1 4.38 12.63
12/30/2021 2:00:00 AM 3.54 38.372 0.096 7.1 4.52 12.62
12/30/2021 2:15:00 AM 3.54 38.372 0.096 7.09 4.55 12.62
12/30/2021 2:30:00 AM 3.54 38.372 0.095 7.07 4.38 12.62
12/30/2021 2:45:00 AM 3.54 38.372 0.095 7.09 4.4 12.62
12/30/2021 3:00:00 AM 3.54 38.372 0.095 7.07 4.71 12.61
12/30/2021 3:15:00 AM 3.54 38.372 0.095 7.09 4.57 12.61
12/30/2021 3:30:00 AM 3.54 38.372 0.095 7.09 4.34 12.61
12/30/2021 3:45:00 AM 3.54 38.372 0.095 7.07 4.22 12.61
12/30/2021 4:00:00 AM 3.54 38.372 0.095 7.09 4.37 12.61
12/30/2021 4:15:00 AM 3.54 38.372 0.094 7.09 4.4 12.6
12/30/2021 4:30:00 AM 3.55 38.39 0.094 7.09 4.03 12.6
12/30/2021 4:45:00 AM 3.55 38.39 0.094 7.06 4.05 12.6
12/30/2021 5:00:00 AM 3.55 38.39 0.094 7.09 3.95 12.59
12/30/2021 5:15:00 AM 3.56 38.408 0.094 7.09 4.06 12.59
12/30/2021 5:30:00 AM 3.56 38.408 0.094 7.08 4.06 12.59
12/30/2021 5:45:00 AM 3.57 38.426 0.094 7.08 4.04 12.59
12/30/2021 6:00:00 AM 3.57 38.426 0.094 7.05 3.82 12.58
12/30/2021 6:15:00 AM 3.57 38.426 0.094 7.07 3.76 12.59
12/30/2021 6:30:00 AM 3.58 38.444 0.094 7.08 3.86 12.59
12/30/2021 6:45:00 AM 3.59 38.462 0.094 7.08 3.88 12.59
12/30/2021 7:00:00 AM 3.59 38.462 0.093 7.08 3.8 12.58
12/30/2021 7:15:00 AM 3.59 38.462 0.093 7.08 3.89 12.59
12/30/2021 7:30:00 AM 3.6 38.48 0.093 7.07 3.98 12.58
12/30/2021 7:45:00 AM 3.6 38.48 0.093 7.08 3.9 12.58
12/30/2021 8:00:00 AM 3.61 38.498 0.093 7.08 4.05 12.59
12/30/2021 8:15:00 AM 3.62 38.516 0.093 7.07 4.39 12.6
12/30/2021 8:30:00 AM 3.62 38.516 0.093 7.08 4.89 12.63
12/30/2021 8:45:00 AM 3.63 38.534 0.093 7.1 4 12.66
12/30/2021 9:00:00 AM 3.64 38.552 0.093 7.11 4.15 12.72
12/30/2021 9:15:00 AM 3.66 38.588 0.093 7.12 4.03 12.78
12/30/2021 9:30:00 AM 3.67 38.606 0.093 7.13 4.18 12.84
12/30/2021 9:45:00 AM 3.69 38.642 0.093 7.15 4.11 12.9
12/30/2021 10:00:00 AM -99999.99 -179968 -99999.99 -99999.99 -99999.99 -99999.99
12/30/2021 10:15:00 AM 3.75 38.75 0.092 7.22 4.04 13.13
12/30/2021 10:30:00 AM 3.78 38.804 0.092 7.24 4.04 13.23
12/30/2021 10:45:00 AM 3.81 38.858 0.092 7.27 3.93 13.31
12/30/2021 11:00:00 AM 3.84 38.912 0.092 7.31 3.89 13.37
12/30/2021 11:15:00 AM 3.87 38.966 0.092 7.33 3.92 13.4
12/30/2021 11:30:00 AM 3.91 39.038 0.092 7.36 3.95 13.43
12/30/2021 11:45:00 AM 3.93 39.074 0.092 7.38 3.7 13.41
12/30/2021 12:00:00 PM 3.96 39.128 0.092 7.37 3.73 13.4
12/30/2021 12:15:00 PM 3.99 39.182 0.091 7.4 3.9 13.39
12/30/2021 12:30:00 PM 4.04 39.272 0.091 7.4 3.68 13.43
12/30/2021 12:45:00 PM 4.08 39.344 0.091 7.45 3.8 13.48
12/30/2021 1:00:00 PM 4.13 39.434 0.091 7.48 3.78 13.5
12/30/2021 1:15:00 PM 4.17 39.506 0.091 7.49 3.67 13.5
12/30/2021 1:30:00 PM 4.21 39.578 0.091 7.47 3.66 13.47
12/30/2021 1:45:00 PM 4.25 39.65 0.091 7.51 3.57 13.47
12/30/2021 2:00:00 PM 4.29 39.722 0.091 7.52 3.56 13.46
12/30/2021 2:15:00 PM 4.31 39.758 0.091 7.52 3.52 13.43
12/30/2021 2:30:00 PM 4.33 39.794 0.091 7.5 3.46 13.34
12/30/2021 2:45:00 PM 4.35 39.83 0.091 7.46 3.49 13.23
12/30/2021 3:00:00 PM 4.37 39.866 0.091 7.4 3.47 13.13
12/30/2021 3:15:00 PM 4.38 39.884 0.091 7.38 3.55 13.06
12/30/2021 3:30:00 PM 4.4 39.92 0.091 7.36 3.59 13.01
12/30/2021 3:45:00 PM 4.42 39.956 0.091 7.36 3.66 12.96
12/30/2021 4:00:00 PM 4.44 39.992 0.091 7.33 3.43 12.88
12/30/2021 4:15:00 PM 4.45 40.01 0.091 7.3 3.46 12.78
12/30/2021 4:30:00 PM 4.46 40.028 0.092 7.26 3.36 12.66
12/30/2021 4:45:00 PM 4.46 40.028 0.092 7.23 3.54 12.57
12/30/2021 5:00:00 PM 4.47 40.046 0.092 7.17 3.46 12.49
12/30/2021 5:15:00 PM 4.47 40.046 0.092 7.16 3.4 12.41
12/30/2021 5:30:00 PM 4.47 40.046 0.092 7.14 3.52 12.37
12/30/2021 5:45:00 PM 4.48 40.064 0.092 7.12 3.79 12.34
12/30/2021 6:00:00 PM 4.48 40.064 0.092 7.12 3.96 12.32
12/30/2021 6:15:00 PM 4.48 40.064 0.092 7.12 3.83 12.3
12/30/2021 6:30:00 PM 4.48 40.064 0.092 7.11 3.94 12.29
12/30/2021 6:45:00 PM 4.48 40.064 0.092 7.1 3.83 12.28
12/30/2021 7:00:00 PM 4.49 40.082 0.093 7.1 3.85 12.27
12/30/2021 7:15:00 PM 4.49 40.082 0.093 7.06 3.96 12.27
12/30/2021 7:30:00 PM 4.5 40.1 0.093 7.08 3.78 12.26
12/30/2021 7:45:00 PM 4.5 40.1 0.093 7.09 4.02 12.26
12/30/2021 8:00:00 PM 4.5 40.1 0.093 7.08 4.06 12.26
12/30/2021 8:15:00 PM 4.51 40.118 0.093 7.08 3.81 12.25
12/30/2021 8:30:00 PM 4.51 40.118 0.093 7.05 4 12.25
12/30/2021 8:45:00 PM 4.52 40.136 0.093 7.06 4.13 12.25
12/30/2021 9:00:00 PM 4.52 40.136 0.093 7.08 4.05 12.24
12/30/2021 9:15:00 PM 4.52 40.136 0.093 7.08 3.76 12.25
12/30/2021 9:30:00 PM 4.52 40.136 0.093 7.05 3.93 12.25
12/30/2021 9:45:00 PM 4.52 40.136 0.093 7.07 4.07 12.25
12/30/2021 10:00:00 PM 4.52 40.136 0.093 7.07 4.02 12.24
12/30/2021 10:15:00 PM 4.52 40.136 0.093 7.06 3.87 12.25
12/30/2021 10:30:00 PM 4.53 40.154 0.093 7.04 3.84 12.24
12/30/2021 10:45:00 PM 4.53 40.154 0.093 7.07 4.07 12.24
12/30/2021 11:00:00 PM 4.53 40.154 0.093 7.06 4.08 12.23
12/30/2021 11:15:00 PM 4.53 40.154 0.093 7.07 3.85 12.23
12/30/2021 11:30:00 PM 4.52 40.136 0.093 7.03 3.98 12.24
12/30/2021 11:45:00 PM 4.51 40.118 0.093 7.07 3.81 12.24
12/31/2021 12:00:00 AM 4.52 40.136 0.093 7.06 3.96 12.25
12/31/2021 12:15:00 AM 4.52 40.136 0.093 7.06 3.78 12.24
12/31/2021 12:30:00 AM 4.51 40.118 0.093 7.07 3.9 12.23
12/31/2021 12:45:00 AM 4.51 40.118 0.093 7.06 4.07 12.24
12/31/2021 1:00:00 AM 4.51 40.118 0.093 7.06 4.16 12.25
12/31/2021 1:15:00 AM 4.51 40.118 0.093 7.03 4.18 12.24
12/31/2021 1:30:00 AM 4.51 40.118 0.093 7.04 3.92 12.25
12/31/2021 1:45:00 AM 4.51 40.118 0.093 7.06 3.99 12.24
12/31/2021 2:00:00 AM 4.51 40.118 0.093 7.02 3.86 12.24
12/31/2021 2:15:00 AM 4.51 40.118 0.093 7.05 3.75 12.24
12/31/2021 2:30:00 AM 4.52 40.136 0.093 7.06 3.69 12.25
12/31/2021 2:45:00 AM 4.52 40.136 0.093 7.03 3.74 12.24
12/31/2021 3:00:00 AM 4.52 40.136 0.093 7.05 3.74 12.24
12/31/2021 3:15:00 AM 4.52 40.136 0.093 7.02 3.78 12.23
12/31/2021 3:30:00 AM 4.53 40.154 0.093 7.05 3.62 12.24
12/31/2021 3:45:00 AM 4.53 40.154 0.093 7.05 3.66 12.23
12/31/2021 4:00:00 AM 4.53 40.154 0.093 7.05 3.74 12.23
12/31/2021 4:15:00 AM 4.54 40.172 0.092 7.05 3.61 12.22
12/31/2021 4:30:00 AM 4.54 40.172 0.093 7.05 3.61 12.23
12/31/2021 4:45:00 AM 4.55 40.19 0.093 7.05 3.56 12.22
12/31/2021 5:00:00 AM 4.55 40.19 0.093 7.01 3.48 12.21
12/31/2021 5:15:00 AM 4.55 40.19 0.093 7.05 3.59 12.21
12/31/2021 5:30:00 AM 4.56 40.208 0.093 7.05 3.51 12.21
12/31/2021 5:45:00 AM 4.56 40.208 0.092 7.05 3.53 12.2
12/31/2021 6:00:00 AM 4.56 40.208 0.092 7.05 3.36 12.21
12/31/2021 6:15:00 AM 4.56 40.208 0.092 7.05 3.44 12.21
12/31/2021 6:30:00 AM 4.56 40.208 0.092 7.05 3.33 12.2
12/31/2021 6:45:00 AM 4.56 40.208 0.092 7.05 3.35 12.2
12/31/2021 7:00:00 AM 4.56 40.208 0.092 6.99 3.23 12.2
12/31/2021 7:15:00 AM 4.56 40.208 0.092 7.05 3.35 12.21
12/31/2021 7:30:00 AM 4.56 40.208 0.092 7.05 3.38 12.2
12/31/2021 7:45:00 AM 4.57 40.226 0.092 7 3.6 12.21
12/31/2021 8:00:00 AM 4.57 40.226 0.092 7.05 3.37 12.25
12/31/2021 8:15:00 AM 4.58 40.244 0.092 7.07 3.31 12.31
12/31/2021 8:30:00 AM 4.6 40.28 0.092 7.08 3.32 12.38
12/31/2021 8:45:00 AM 4.62 40.316 0.092 7.11 3.17 12.48
12/31/2021 9:00:00 AM 4.65 40.37 0.092 7.1 3.19 12.58
12/31/2021 9:15:00 AM 4.68 40.424 0.092 7.16 3.44 12.68
12/31/2021 9:30:00 AM 4.72 40.496 0.092 7.19 3.29 12.79
12/31/2021 9:45:00 AM 4.76 40.568 0.092 7.22 3.16 12.87
12/31/2021 10:00:00 AM 4.8 40.64 0.091 7.25 3.34 12.97
12/31/2021 10:15:00 AM 4.84 40.712 0.091 7.3 3.01 13.04
12/31/2021 10:30:00 AM 4.89 40.802 0.091 7.31 3.15 13.09
12/31/2021 10:45:00 AM 4.93 40.874 0.091 7.37 3.02 13.15
12/31/2021 11:00:00 AM 5.01 41.018 0.091 7.39 3.12 13.25
12/31/2021 11:15:00 AM 5.1 41.18 0.09 7.46 2.95 13.35
12/31/2021 11:30:00 AM 5.17 41.306 0.09 7.51 2.98 13.39
12/31/2021 11:45:00 AM 5.28 41.504 0.09 7.58 2.9 13.43
12/31/2021 12:00:00 PM 5.38 41.684 0.09 7.62 2.86 13.46
12/31/2021 12:15:00 PM 5.43 41.774 0.09 7.67 3.21 13.45
12/31/2021 12:30:00 PM 5.52 41.936 0.089 7.71 3.13 13.44
12/31/2021 12:45:00 PM 5.66 42.188 0.089 7.75 2.94 13.44
12/31/2021 1:00:00 PM 5.81 42.458 0.089 7.78 3.13 13.43
12/31/2021 1:15:00 PM 5.97 42.746 0.089 7.82 3.26 13.43
12/31/2021 1:30:00 PM 6.08 42.944 0.089 7.86 2.94 13.39
12/31/2021 1:45:00 PM 6.05 42.89 0.089 7.83 3.01 13.28
12/31/2021 2:00:00 PM 5.99 42.782 0.089 7.8 3.08 13.2
12/31/2021 2:15:00 PM 5.98 42.764 0.089 7.79 2.95 13.17
12/31/2021 2:30:00 PM 5.98 42.764 0.089 7.73 2.96 13.14
12/31/2021 2:45:00 PM 5.98 42.764 0.089 7.76 2.94 13.12
12/31/2021 3:00:00 PM 6.01 42.818 0.089 7.77 2.89 13.12
12/31/2021 3:15:00 PM 6.02 42.836 0.089 7.72 3.04 13.1
12/31/2021 3:30:00 PM 6 42.8 0.089 7.73 2.93 13.04
12/31/2021 3:45:00 PM 5.97 42.746 0.089 7.69 2.99 12.97
12/31/2021 4:00:00 PM 5.93 42.674 0.089 7.59 2.98 12.85
12/31/2021 4:15:00 PM 5.9 42.62 0.089 7.54 3.04 12.69
12/31/2021 4:30:00 PM 5.87 42.566 0.089 7.46 2.95 12.54
12/31/2021 4:45:00 PM 5.84 42.512 0.089 7.39 2.87 12.37
12/31/2021 5:00:00 PM 5.81 42.458 0.089 7.31 3 12.23
12/31/2021 5:15:00 PM 5.79 42.422 0.089 7.26 3.01 12.11
12/31/2021 5:30:00 PM 5.76 42.368 0.09 7.23 2.95 12.02
12/31/2021 5:45:00 PM 5.73 42.314 0.09 7.19 2.93 11.95
12/31/2021 6:00:00 PM 5.7 42.26 0.09 7.16 3.02 11.91
12/31/2021 6:15:00 PM 5.66 42.188 0.09 7.12 3.18 11.88
12/31/2021 6:30:00 PM 5.63 42.134 0.09 7.13 3.12 11.87
12/31/2021 6:45:00 PM 5.6 42.08 0.09 7.12 3.15 11.86
12/31/2021 7:00:00 PM 5.57 42.026 0.09 7.11 3.06 11.87
12/31/2021 7:15:00 PM 5.54 41.972 0.09 7.1 3.12 11.87
12/31/2021 7:30:00 PM 5.51 41.918 0.09 7.09 3.27 11.87
12/31/2021 7:45:00 PM 5.48 41.864 0.09 7.06 3.27 11.88
12/31/2021 8:00:00 PM 5.45 41.81 0.091 7.06 3.22 11.88
12/31/2021 8:15:00 PM 5.41 41.738 0.091 7.08 3.15 11.9
12/31/2021 8:30:00 PM 5.38 41.684 0.091 7.07 3.22 11.9
12/31/2021 8:45:00 PM 5.33 41.594 0.091 7.08 3.09 11.91
12/31/2021 9:00:00 PM 5.3 41.54 0.091 7.03 3.22 11.92
12/31/2021 9:15:00 PM 5.28 41.504 0.091 7.07 3.13 11.93
12/31/2021 9:30:00 PM 5.27 41.486 0.092 7.06 3.11 11.93
12/31/2021 9:45:00 PM 5.26 41.468 0.092 7.04 3.15 11.94
12/31/2021 10:00:00 PM 5.25 41.45 0.091 7.07 3.36 11.95
12/31/2021 10:15:00 PM 5.25 41.45 0.091 7.06 3.08 11.95
12/31/2021 10:30:00 PM 5.25 41.45 0.091 7.06 3.17 11.94
12/31/2021 10:45:00 PM 5.24 41.432 0.091 7.07 3.14 11.95
12/31/2021 11:00:00 PM 5.24 41.432 0.091 7.06 3.1 11.95
12/31/2021 11:15:00 PM 5.23 41.414 0.091 7.06 3.09 11.95
12/31/2021 11:30:00 PM 5.24 41.432 0.091 7.06 3.18 11.94
12/31/2021 11:45:00 PM 5.24 41.432 0.091 7.02 3.07 11.95
1/1/2022 12:00:00 AM 5.24 41.432 0.091 7.06 3.11 11.95
1/1/2022 12:15:00 AM 5.24 41.432 0.091 7.06 3.24 11.94
1/1/2022 12:30:00 AM 5.25 41.45 0.091 7.06 3 11.93
1/1/2022 12:45:00 AM 5.25 41.45 0.091 7.06 3.11 11.94
1/1/2022 1:00:00 AM 5.26 41.468 0.091 7.06 3.04 11.94
1/1/2022 1:15:00 AM 5.26 41.468 0.091 7.02 2.96 11.93
1/1/2022 1:30:00 AM 5.28 41.504 0.091 7.06 2.99 11.92
1/1/2022 1:45:00 AM 5.29 41.522 0.091 7.07 3.09 11.92
1/1/2022 2:00:00 AM 5.3 41.54 0.091 7.02 3.07 11.91
1/1/2022 2:15:00 AM 5.31 41.558 0.091 7.05 3.02 11.9
1/1/2022 2:30:00 AM 5.33 41.594 0.091 7.07 3.03 11.9
1/1/2022 2:45:00 AM 5.34 41.612 0.091 7.06 3.08 11.89
1/1/2022 3:00:00 AM 5.35 41.63 0.091 7.04 2.94 11.89
1/1/2022 3:15:00 AM 5.36 41.648 0.091 7.07 3.03 11.88
1/1/2022 3:30:00 AM 5.38 41.684 0.091 7.03 2.86 11.88
1/1/2022 3:45:00 AM 5.39 41.702 0.091 7.07 2.96 11.87
1/1/2022 4:00:00 AM 5.4 41.72 0.091 7.06 2.99 11.86
1/1/2022 4:15:00 AM 5.41 41.738 0.091 7.07 2.89 11.86
1/1/2022 4:30:00 AM 5.42 41.756 0.091 7.02 2.97 11.86
1/1/2022 4:45:00 AM 5.44 41.792 0.091 7.07 2.92 11.85
1/1/2022 5:00:00 AM 5.45 41.81 0.091 7.02 2.9 11.84
1/1/2022 5:15:00 AM 5.46 41.828 0.091 7.07 3.02 11.83
1/1/2022 5:30:00 AM 5.47 41.846 0.091 7.03 2.99 11.83
1/1/2022 5:45:00 AM 5.49 41.882 0.09 7.07 3.07 11.83
1/1/2022 6:00:00 AM 5.5 41.9 0.09 7.04 3 11.82
1/1/2022 6:15:00 AM 5.52 41.936 0.09 7.07 3.08 11.82
1/1/2022 6:30:00 AM 5.53 41.954 0.09 7.07 3.16 11.81
1/1/2022 6:45:00 AM 5.55 41.99 0.09 7.07 2.99 11.81
1/1/2022 7:00:00 AM 5.55 41.99 0.09 7.07 2.86 11.8
1/1/2022 7:15:00 AM 5.57 42.026 0.09 7.07 2.79 11.8
1/1/2022 7:30:00 AM 5.58 42.044 0.09 7.02 3.03 11.79
1/1/2022 7:45:00 AM 5.6 42.08 0.09 7.07 3.06 11.79
1/1/2022 8:00:00 AM 5.61 42.098 0.091 7.07 3.06 11.79
1/1/2022 8:15:00 AM 5.63 42.134 0.09 7.06 2.93 11.81
1/1/2022 8:30:00 AM 5.65 42.17 0.09 7.05 2.9 11.84
1/1/2022 8:45:00 AM 5.67 42.206 0.09 7.07 3.02 11.9
1/1/2022 9:00:00 AM 5.69 42.242 0.09 7.09 2.99 11.96
1/1/2022 9:15:00 AM 5.7 42.26 0.09 7.11 3.08 11.98
1/1/2022 9:30:00 AM 5.72 42.296 0.09 7.14 2.89 12.04
1/1/2022 9:45:00 AM 5.74 42.332 0.09 7.15 2.86 12.11
1/1/2022 10:00:00 AM 5.76 42.368 0.09 7.16 2.89 12.18
1/1/2022 10:15:00 AM 5.78 42.404 0.09 7.16 2.83 12.24
1/1/2022 10:30:00 AM 5.8 42.44 0.09 7.2 2.96 12.3
1/1/2022 10:45:00 AM 5.82 42.476 0.09 7.23 2.84 12.37
1/1/2022 11:00:00 AM 5.85 42.53 0.089 7.25 2.92 12.44
1/1/2022 11:15:00 AM 5.88 42.584 0.089 7.27 2.86 12.49
1/1/2022 11:30:00 AM 5.91 42.638 0.089 7.26 2.79 12.57
1/1/2022 11:45:00 AM 5.94 42.692 0.089 7.33 2.86 12.63
1/1/2022 12:00:00 PM 5.97 42.746 0.089 7.36 2.79 12.66
1/1/2022 12:15:00 PM 6.01 42.818 0.089 7.34 2.85 12.69
1/1/2022 12:30:00 PM 6.05 42.89 0.089 7.39 2.71 12.76
1/1/2022 12:45:00 PM 6.1 42.98 0.088 7.44 2.78 12.83
1/1/2022 1:00:00 PM 6.16 43.088 0.088 7.5 2.71 12.9
1/1/2022 1:15:00 PM 6.22 43.196 0.088 7.51 2.83 12.96
1/1/2022 1:30:00 PM 6.29 43.322 0.088 7.61 2.7 13.02
1/1/2022 1:45:00 PM 6.36 43.448 0.088 7.64 2.75 13.08
1/1/2022 2:00:00 PM 6.42 43.556 0.088 7.72 2.8 13.09
1/1/2022 2:15:00 PM 6.46 43.628 0.088 7.72 2.75 13.04
1/1/2022 2:30:00 PM 6.49 43.682 0.087 7.74 2.71 12.97
1/1/2022 2:45:00 PM 6.52 43.736 0.087 7.71 2.78 12.88
1/1/2022 3:00:00 PM 6.55 43.79 0.087 7.64 2.84 12.76
1/1/2022 3:15:00 PM 6.56 43.808 0.087 7.61 2.89 12.64
1/1/2022 3:30:00 PM 6.57 43.826 0.087 7.5 2.7 12.49
1/1/2022 3:45:00 PM 6.58 43.844 0.088 7.48 2.73 12.34
1/1/2022 4:00:00 PM 6.57 43.826 0.088 7.42 2.84 12.21
1/1/2022 4:15:00 PM 6.57 43.826 0.088 7.35 2.69 12.07
1/1/2022 4:30:00 PM 6.56 43.808 0.088 7.28 2.81 11.94
1/1/2022 4:45:00 PM 6.55 43.79 0.088 7.27 2.88 11.84
1/1/2022 5:00:00 PM 6.54 43.772 0.088 7.22 2.75 11.73
1/1/2022 5:15:00 PM 6.53 43.754 0.088 7.16 2.83 11.66
1/1/2022 5:30:00 PM 6.51 43.718 0.088 7.16 2.86 11.6
1/1/2022 5:45:00 PM 6.5 43.7 0.088 7.13 2.94 11.56
1/1/2022 6:00:00 PM 6.49 43.682 0.088 7.12 2.91 11.54
1/1/2022 6:15:00 PM 6.48 43.664 0.088 7.1 3.05 11.51
1/1/2022 6:30:00 PM 6.47 43.646 0.088 7.09 2.93 11.49
1/1/2022 6:45:00 PM 6.46 43.628 0.088 7.04 2.9 11.49
1/1/2022 7:00:00 PM 6.45 43.61 0.088 7.07 3.01 11.49
1/1/2022 7:15:00 PM 6.44 43.592 0.088 7.07 3.07 11.49
1/1/2022 7:30:00 PM 6.43 43.574 0.088 7.06 3.02 11.48
1/1/2022 7:45:00 PM 6.42 43.556 0.088 7.02 3.02 11.49
1/1/2022 8:00:00 PM 6.41 43.538 0.088 7.06 3.17 11.48
1/1/2022 8:15:00 PM 6.4 43.52 0.088 7.05 3.33 11.49
1/1/2022 8:30:00 PM 6.39 43.502 0.088 7.05 3.23 11.48
1/1/2022 8:45:00 PM 6.38 43.484 0.088 7.05 3.23 11.49
1/1/2022 9:00:00 PM 6.37 43.466 0.088 7.04 3.47 11.49
1/1/2022 9:15:00 PM 6.36 43.448 0.088 7.01 3.6 11.49
1/1/2022 9:30:00 PM 6.35 43.43 0.088 7.02 3.93 11.49
1/1/2022 9:45:00 PM 6.35 43.43 0.088 7.05 4.14 11.49
1/1/2022 10:00:00 PM 6.34 43.412 0.088 7 4.42 11.49
1/1/2022 10:15:00 PM 6.33 43.394 0.088 7.04 5.1 11.49
1/1/2022 10:30:00 PM 6.33 43.394 0.088 7.05 4.97 11.48
1/1/2022 10:45:00 PM 6.33 43.394 0.088 7.05 4.86 11.49
1/1/2022 11:00:00 PM 6.33 43.394 0.088 6.99 4.78 11.48
1/1/2022 11:15:00 PM 6.32 43.376 0.089 7.05 5.11 11.49
1/1/2022 11:30:00 PM 6.32 43.376 0.089 7.02 4.16 11.49
1/1/2022 11:45:00 PM 6.32 43.376 0.089 7.03 3.9 11.49
1/2/2022 12:00:00 AM 6.33 43.394 0.089 7.06 4.33 11.48
1/2/2022 12:15:00 AM 6.34 43.412 0.089 7.06 4.13 11.48
1/2/2022 12:30:00 AM 6.34 43.412 0.089 7.07 3.67 11.48
1/2/2022 12:45:00 AM 6.34 43.412 0.089 7.02 3.6 11.49
1/2/2022 1:00:00 AM 6.33 43.394 0.089 7.07 3.74 11.49
1/2/2022 1:15:00 AM 6.32 43.376 0.089 7.07 4.66 11.49
1/2/2022 1:30:00 AM 6.31 43.358 0.089 7.08 4.82 11.5
1/2/2022 1:45:00 AM 6.3 43.34 0.089 7.07 4.28 11.5
1/2/2022 2:00:00 AM 6.29 43.322 0.089 7.04 5.26 11.51
1/2/2022 2:15:00 AM 6.28 43.304 0.089 7.06 5 11.51
1/2/2022 2:30:00 AM 6.27 43.286 0.089 7.08 5.61 11.51
1/2/2022 2:45:00 AM 6.25 43.25 0.089 7.04 5.74 11.52
1/2/2022 3:00:00 AM 6.24 43.232 0.089 7.08 6.06 11.52
1/2/2022 3:15:00 AM 6.22 43.196 0.089 7.08 5.8 11.53
1/2/2022 3:30:00 AM 6.21 43.178 0.089 7.04 5.22 11.53
1/2/2022 3:45:00 AM 6.19 43.142 0.089 7.07 5.07 11.54
1/2/2022 4:00:00 AM 6.17 43.106 0.089 7.06 5.46 11.54
1/2/2022 4:15:00 AM 6.15 43.07 0.089 7.07 4.79 11.56
1/2/2022 4:30:00 AM 6.13 43.034 0.089 7.07 4.85 11.55
1/2/2022 4:45:00 AM 6.11 42.998 0.089 7.09 4.93 11.56
1/2/2022 5:00:00 AM 6.09 42.962 0.089 7.08 4.65 11.57
1/2/2022 5:15:00 AM 6.06 42.908 0.089 7.09 4.88 11.57
1/2/2022 5:30:00 AM 6.04 42.872 0.089 7.09 4.87 11.59
1/2/2022 5:45:00 AM 6.02 42.836 0.089 7.09 4.65 11.6
1/2/2022 6:00:00 AM 5.99 42.782 0.089 7.08 4.49 11.61
1/2/2022 6:15:00 AM 5.96 42.728 0.089 7.09 4.71 11.61
1/2/2022 6:30:00 AM 5.92 42.656 0.089 7.09 4.36 11.62
1/2/2022 6:45:00 AM 5.89 42.602 0.089 7.09 4.33 11.63
1/2/2022 7:00:00 AM 5.85 42.53 0.09 7.09 4.3 11.64
1/2/2022 7:15:00 AM 5.81 42.458 0.09 7.09 4.33 11.66
1/2/2022 7:30:00 AM 5.78 42.404 0.09 7.09 4.37 11.67
1/2/2022 7:45:00 AM 5.75 42.35 0.09 7.08 4.08 11.69
1/2/2022 8:00:00 AM 5.71 42.278 0.09 7.09 4.42 11.73
1/2/2022 8:15:00 AM 5.68 42.224 0.09 7.11 4.19 11.8
1/2/2022 8:30:00 AM 5.65 42.17 0.09 7.08 4.18 11.85
1/2/2022 8:45:00 AM 5.61 42.098 0.09 7.14 4.12 11.94
1/2/2022 9:00:00 AM 5.59 42.062 0.09 7.16 4.33 12.08
1/2/2022 9:15:00 AM 5.57 42.026 0.09 7.19 3.92 12.21
1/2/2022 9:30:00 AM 5.55 41.99 0.09 7.23 3.65 12.33
1/2/2022 9:45:00 AM 5.53 41.954 0.09 7.25 3.67 12.45
1/2/2022 10:00:00 AM 5.53 41.954 0.09 7.31 3.56 12.62
1/2/2022 10:15:00 AM 5.54 41.972 0.09 7.32 3.81 12.79
1/2/2022 10:30:00 AM 5.51 41.918 0.09 7.4 3.48 12.83
1/2/2022 10:45:00 AM 5.48 41.864 0.09 7.42 3.8 12.83
1/2/2022 11:00:00 AM 5.46 41.828 0.09 7.44 3.37 12.88
1/2/2022 11:15:00 AM 5.46 41.828 0.09 7.43 3.6 12.92
1/2/2022 11:30:00 AM 5.43 41.774 0.09 7.49 3.35 12.93
1/2/2022 11:45:00 AM 5.39 41.702 0.09 7.49 3.42 12.91
1/2/2022 12:00:00 PM 5.35 41.63 0.09 7.49 3.42 12.89
1/2/2022 12:15:00 PM 5.31 41.558 0.09 7.48 3.17 12.87
1/2/2022 12:30:00 PM 5.27 41.486 0.09 7.47 3.27 12.85
1/2/2022 12:45:00 PM 5.24 41.432 0.09 7.47 3.14 12.88
1/2/2022 1:00:00 PM 5.21 41.378 0.09 7.49 3.3 12.96
1/2/2022 1:15:00 PM 5.17 41.306 0.09 7.51 3.25 13
1/2/2022 1:30:00 PM 5.13 41.234 0.09 7.51 3.61 12.98
1/2/2022 1:45:00 PM 5.08 41.144 0.09 7.5 3.26 12.96
1/2/2022 2:00:00 PM 5.03 41.054 0.09 7.44 2.98 12.95
1/2/2022 2:15:00 PM 4.99 40.982 0.09 7.48 3.08 12.93
1/2/2022 2:30:00 PM 4.95 40.91 0.09 7.43 3.14 12.89
1/2/2022 2:45:00 PM 4.9 40.82 0.09 7.43 3.25 12.83
1/2/2022 3:00:00 PM 4.85 40.73 0.09 7.4 3.11 12.79
1/2/2022 3:15:00 PM 4.79 40.622 0.09 7.34 3.09 12.74
1/2/2022 3:30:00 PM 4.73 40.514 0.09 7.35 3.08 12.68
1/2/2022 3:45:00 PM 4.67 40.406 0.09 7.27 3.16 12.62
1/2/2022 4:00:00 PM 4.61 40.298 0.09 7.29 3.18 12.56
1/2/2022 4:15:00 PM 4.53 40.154 0.09 7.23 3.14 12.51
1/2/2022 4:30:00 PM 4.47 40.046 0.091 7.23 3.04 12.46
1/2/2022 4:45:00 PM 4.41 39.938 0.091 7.21 3.1 12.42
1/2/2022 5:00:00 PM 4.33 39.794 0.091 7.19 3.04 12.39
1/2/2022 5:15:00 PM 4.27 39.686 0.091 7.17 3.13 12.38
1/2/2022 5:30:00 PM 4.2 39.56 0.091 7.16 2.95 12.37
1/2/2022 5:45:00 PM 4.14 39.452 0.091 7.13 2.99 12.37
1/2/2022 6:00:00 PM 4.08 39.344 0.091 7.14 2.89 12.38
1/2/2022 6:15:00 PM 4.02 39.236 0.091 7.13 3.12 12.39
1/2/2022 6:30:00 PM 3.97 39.146 0.092 7.09 3.05 12.41
1/2/2022 6:45:00 PM 3.92 39.056 0.092 7.1 2.85 12.42
1/2/2022 7:00:00 PM 3.86 38.948 0.092 7.09 3.07 12.44
1/2/2022 7:15:00 PM 3.81 38.858 0.092 7.12 2.97 12.45
1/2/2022 7:30:00 PM 3.75 38.75 0.092 7.12 2.99 12.46
1/2/2022 7:45:00 PM 3.7 38.66 0.092 7.11 3.14 12.49
1/2/2022 8:00:00 PM 3.65 38.57 0.092 7.11 3.02 12.51
1/2/2022 8:15:00 PM 3.6 38.48 0.092 7.07 2.89 12.54
1/2/2022 8:30:00 PM 3.54 38.372 0.092 7.1 3.12 12.55
1/2/2022 8:45:00 PM 3.5 38.3 0.092 7.11 2.96 12.57
1/2/2022 9:00:00 PM 3.45 38.21 0.092 7.11 2.86 12.6
1/2/2022 9:15:00 PM 3.4 38.12 0.092 7.11 3 12.61
1/2/2022 9:30:00 PM 3.37 38.066 0.092 7.07 2.94 12.63
1/2/2022 9:45:00 PM 3.32 37.976 0.093 7.1 2.76 12.64
1/2/2022 10:00:00 PM 3.28 37.904 0.093 7.1 2.89 12.65
1/2/2022 10:15:00 PM 3.22 37.796 0.093 7.1 2.97 12.68
1/2/2022 10:30:00 PM 3.17 37.706 0.093 7.1 2.87 12.7
1/2/2022 10:45:00 PM 3.13 37.634 0.093 7.11 2.96 12.71
1/2/2022 11:00:00 PM 3.08 37.544 0.093 7.1 2.8 12.74
1/2/2022 11:15:00 PM 3.02 37.436 0.093 7.07 2.73 12.76
1/2/2022 11:30:00 PM 2.97 37.346 0.093 7.08 2.91 12.78
1/2/2022 11:45:00 PM 2.92 37.256 0.093 7.1 2.81 12.79
1/3/2022 12:00:00 AM 2.87 37.166 0.093 7.08 2.9 12.81
1/3/2022 12:15:00 AM 2.82 37.076 0.093 7.1 2.77 12.84
1/3/2022 12:30:00 AM 2.77 36.986 0.093 7.1 2.94 12.85
1/3/2022 12:45:00 AM 2.74 36.932 0.093 7.1 2.91 12.87
1/3/2022 1:00:00 AM 2.7 36.86 0.093 7.1 2.8 12.88
1/3/2022 1:15:00 AM 2.66 36.788 0.093 7.1 2.76 12.9
1/3/2022 1:30:00 AM 2.63 36.734 0.093 7.09 2.73 12.92
1/3/2022 1:45:00 AM 2.59 36.662 0.093 7.06 2.81 12.93
1/3/2022 2:00:00 AM 2.54 36.572 0.093 7.1 2.83 12.95
1/3/2022 2:15:00 AM 2.48 36.464 0.093 7.1 2.84 12.97
1/3/2022 2:30:00 AM 2.43 36.374 0.093 7.05 2.83 12.99
1/3/2022 2:45:00 AM 2.39 36.302 0.093 7.07 2.7 13
1/3/2022 3:00:00 AM 2.35 36.23 0.094 7.1 2.82 13.02
1/3/2022 3:15:00 AM 2.31 36.158 0.094 7.1 2.76 13.04
1/3/2022 3:30:00 AM 2.28 36.104 0.094 7.06 2.83 13.06
1/3/2022 3:45:00 AM 2.25 36.05 0.094 7.1 2.67 13.07
1/3/2022 4:00:00 AM 2.22 35.996 0.094 7.09 2.73 13.08
1/3/2022 4:15:00 AM 2.19 35.942 0.094 7.1 2.56 13.09
1/3/2022 4:30:00 AM 2.15 35.87 0.094 7.08 2.68 13.12
1/3/2022 4:45:00 AM 2.12 35.816 0.094 7.09 2.7 13.13
1/3/2022 5:00:00 AM 2.06 35.708 0.094 7.09 2.79 13.14
1/3/2022 5:15:00 AM 2.03 35.654 0.094 7.09 2.68 13.16
1/3/2022 5:30:00 AM 1.98 35.564 0.094 7.09 2.66 13.17
1/3/2022 5:45:00 AM 1.95 35.51 0.094 7.09 2.6 13.18
1/3/2022 6:00:00 AM 1.91 35.438 0.094 7.09 2.6 13.2
1/3/2022 6:15:00 AM 1.86 35.348 0.094 7.07 2.65 13.22
1/3/2022 6:30:00 AM 1.82 35.276 0.094 7.08 2.77 13.23
1/3/2022 6:45:00 AM 1.78 35.204 0.094 7.09 2.61 13.25
1/3/2022 7:00:00 AM 1.74 35.132 0.094 7.04 2.59 13.26
1/3/2022 7:15:00 AM 1.7 35.06 0.094 7.07 2.58 13.28
1/3/2022 7:30:00 AM 1.67 35.006 0.094 7.08 2.63 13.29
1/3/2022 7:45:00 AM 1.62 34.916 0.094 7.04 2.64 13.32
1/3/2022 8:00:00 AM 1.58 34.844 0.094 7.08 2.63 13.35
1/3/2022 8:15:00 AM 1.55 34.79 0.094 7.09 2.67 13.4
1/3/2022 8:30:00 AM 1.52 34.736 0.094 7.1 2.58 13.46
1/3/2022 8:45:00 AM 1.49 34.682 0.094 7.11 2.67 13.55
1/3/2022 9:00:00 AM 1.46 34.628 0.094 7.11 2.66 13.66
1/3/2022 9:15:00 AM 1.43 34.574 0.094 7.16 2.56 13.79
1/3/2022 9:30:00 AM 1.4 34.52 0.093 7.19 2.6 13.93
1/3/2022 9:45:00 AM 1.38 34.484 0.093 7.21 2.5 14.04
1/3/2022 10:00:00 AM 1.36 34.448 0.093 7.24 2.58 14.16
1/3/2022 10:15:00 AM 1.34 34.412 0.093 7.24 2.58 14.26
1/3/2022 10:30:00 AM 1.33 34.394 0.093 7.3 2.49 14.37
1/3/2022 10:45:00 AM 1.31 34.358 0.093 7.33 2.64 14.44
1/3/2022 11:00:00 AM 1.3 34.34 0.093 7.36 2.61 14.51
1/3/2022 11:15:00 AM 1.29 34.322 0.093 7.38 2.61 14.56
1/3/2022 11:30:00 AM 1.3 34.34 0.092 7.41 2.54 14.62
1/3/2022 11:45:00 AM 1.3 34.34 0.092 7.43 2.58 14.66
1/3/2022 12:00:00 PM 1.31 34.358 0.092 7.46 2.51 14.69
1/3/2022 12:15:00 PM 1.33 34.394 0.092 7.44 2.54 14.71
1/3/2022 12:30:00 PM 1.33 34.394 0.092 7.49 2.49 14.73
1/3/2022 12:45:00 PM 1.34 34.412 0.092 7.51 2.39 14.75
1/3/2022 1:00:00 PM 1.37 34.466 0.092 7.49 2.47 14.76
1/3/2022 1:15:00 PM 1.38 34.484 0.092 7.53 2.62 14.76
1/3/2022 1:30:00 PM 1.38 34.484 0.092 7.49 2.41 14.75
1/3/2022 1:45:00 PM 1.37 34.466 0.092 7.54 2.48 14.74
1/3/2022 2:00:00 PM 1.37 34.466 0.091 7.55 2.46 14.73
1/3/2022 2:15:00 PM 1.38 34.484 0.091 7.55 2.43 14.73
1/3/2022 2:30:00 PM 1.38 34.484 0.091 7.53 2.46 14.73
1/3/2022 2:45:00 PM 1.38 34.484 0.091 7.56 2.5 14.72
1/3/2022 3:00:00 PM 1.37 34.466 0.091 7.56 2.52 14.7
1/3/2022 3:15:00 PM 1.35 34.43 0.091 7.51 2.54 14.69
1/3/2022 3:30:00 PM 1.33 34.394 0.091 7.52 2.46 14.66
1/3/2022 3:45:00 PM 1.28 34.304 0.091 7.53 2.43 14.63
1/3/2022 4:00:00 PM 1.23 34.214 0.091 7.5 2.42 14.59
1/3/2022 4:15:00 PM 1.17 34.106 0.091 7.48 2.44 14.54
1/3/2022 4:30:00 PM 1.11 33.998 0.092 7.43 2.45 14.45
1/3/2022 4:45:00 PM 1.03 33.854 0.092 7.39 2.38 14.35
1/3/2022 5:00:00 PM 0.95 33.71 0.092 7.33 2.45 14.21
1/3/2022 5:15:00 PM 0.87 33.566 0.092 7.29 2.45 14.09
1/3/2022 5:30:00 PM 0.8 33.44 0.092 7.23 2.4 14
1/3/2022 5:45:00 PM 0.73 33.314 0.092 7.21 2.33 13.93
1/3/2022 6:00:00 PM 0.64 33.152 0.093 7.18 2.45 13.89
1/3/2022 6:15:00 PM 0.56 33.008 0.093 7.13 2.45 13.86
1/3/2022 6:30:00 PM 0.48 32.864 0.093 7.14 2.43 13.84
1/3/2022 6:45:00 PM 0.42 32.756 0.093 7.11 2.53 13.84
1/3/2022 7:00:00 PM 0.35 32.63 0.093 7.12 2.46 13.85
1/3/2022 7:15:00 PM 0.29 32.522 0.093 7.11 2.5 13.87
1/3/2022 7:30:00 PM 0.23 32.414 0.093 7.06 2.44 13.88
1/3/2022 7:45:00 PM 0.17 32.306 0.093 7.1 2.48 13.9
1/3/2022 8:00:00 PM 0.12 32.216 0.093 7.1 2.5 13.93
1/3/2022 8:15:00 PM 0.06 32.108 0.093 7.09 2.49 13.95
1/3/2022 8:30:00 PM 0.02 32.036 0.094 7.09 2.36 13.97
1/3/2022 8:45:00 PM -0.01 31.982 0.094 7.09 2.48 13.99
1/3/2022 9:00:00 PM -0.01 31.982 0.094 7.09 2.52 14
1/3/2022 9:15:00 PM -0.01 31.982 0.094 7.09 2.59 14.02
1/3/2022 9:30:00 PM 0 32 0.094 7.08 2.55 14.03
1/3/2022 9:45:00 PM 0 32 0.095 7.09 2.57 14.03
1/3/2022 10:00:00 PM 0 32 0.095 7.07 2.57 14.03
1/3/2022 10:15:00 PM 0.01 32.018 0.095 7.08 2.65 14.02
1/3/2022 10:30:00 PM 0.01 32.018 0.095 7.08 2.58 14.03
1/3/2022 10:45:00 PM 0.02 32.036 0.095 7.05 2.6 14.02
1/3/2022 11:00:00 PM 0.03 32.054 0.095 7.07 2.65 14.02
1/3/2022 11:15:00 PM 0.03 32.054 0.096 7.08 2.61 14.02
1/3/2022 11:30:00 PM 0.04 32.072 0.096 7.06 2.54 14.01
1/3/2022 11:45:00 PM 0.04 32.072 0.096 7.07 2.48 14.01
1/4/2022 12:00:00 AM 0.05 32.09 0.096 7.07 2.51 14.01
1/4/2022 12:15:00 AM 0.05 32.09 0.096 7.07 2.52 14.01
1/4/2022 12:30:00 AM 0.05 32.09 0.096 7.03 2.52 14
1/4/2022 12:45:00 AM 0.06 32.108 0.096 7.07 2.61 14
1/4/2022 1:00:00 AM 0.05 32.09 0.096 7.07 2.52 14.01
1/4/2022 1:15:00 AM 0.05 32.09 0.096 7.03 2.52 14.01
1/4/2022 1:30:00 AM 0.04 32.072 0.096 7.05 2.54 14.01
1/4/2022 1:45:00 AM 0.04 32.072 0.096 7.07 2.56 14.01
1/4/2022 2:00:00 AM 0.03 32.054 0.096 7.05 2.55 14.02
1/4/2022 2:15:00 AM 0.03 32.054 0.096 7.04 2.54 14.02
1/4/2022 2:30:00 AM 0.03 32.054 0.096 7.04 2.61 14.02
1/4/2022 2:45:00 AM 0.03 32.054 0.096 7.04 2.51 14.02
1/4/2022 3:00:00 AM 0.02 32.036 0.096 7.04 2.39 14.02
1/4/2022 3:15:00 AM 0.02 32.036 0.096 7.04 2.57 14.02
1/4/2022 3:30:00 AM 0.02 32.036 0.096 7.06 2.57 14.03
1/4/2022 3:45:00 AM 0.02 32.036 0.096 7.02 2.5 14.03
1/4/2022 4:00:00 AM 0.02 32.036 0.096 7.06 2.48 14.03
1/4/2022 4:15:00 AM 0.02 32.036 0.096 7.06 2.54 14.04
1/4/2022 4:30:00 AM 0.02 32.036 0.096 7.06 2.48 14.03
1/4/2022 4:45:00 AM 0.03 32.054 0.096 7.02 2.55 14.02
1/4/2022 5:00:00 AM 0.03 32.054 0.096 7.03 2.55 14.02
1/4/2022 5:15:00 AM 0.04 32.072 0.096 7.04 2.38 14.01
1/4/2022 5:30:00 AM 0.04 32.072 0.096 7.04 2.54 14.01
1/4/2022 5:45:00 AM 0.05 32.09 0.096 7.03 2.55 14
1/4/2022 6:00:00 AM 0.05 32.09 0.096 7.05 2.4 14
1/4/2022 6:15:00 AM 0.06 32.108 0.096 7.04 2.44 14
1/4/2022 6:30:00 AM 0.06 32.108 0.096 7.04 2.4 14
1/4/2022 6:45:00 AM 0.06 32.108 0.096 7.05 2.43 14
1/4/2022 7:00:00 AM 0.06 32.108 0.097 7.04 2.4 13.99
1/4/2022 7:15:00 AM 0.07 32.126 0.097 7.04 2.41 13.99
1/4/2022 7:30:00 AM 0.07 32.126 0.097 6.99 2.49 13.99
1/4/2022 7:45:00 AM 0.07 32.126 0.097 7.04 2.36 14
1/4/2022 8:00:00 AM 0.07 32.126 0.097 7.04 2.46 14.03
1/4/2022 8:15:00 AM 0.08 32.144 0.097 7.06 2.47 14.09
1/4/2022 8:30:00 AM 0.08 32.144 0.097 7.07 2.47 14.16
1/4/2022 8:45:00 AM 0.08 32.144 0.097 7.04 2.43 14.28
1/4/2022 9:00:00 AM 0.08 32.144 0.097 7.1 2.43 14.38
1/4/2022 9:15:00 AM 0.07 32.126 0.097 7.08 2.42 14.51
1/4/2022 9:30:00 AM 0.08 32.144 0.097 7.15 2.42 14.59
1/4/2022 9:45:00 AM 0.09 32.162 0.097 7.14 2.49 14.65
1/4/2022 10:00:00 AM 0.11 32.198 0.096 7.18 2.4 14.73
1/4/2022 10:15:00 AM 0.14 32.252 0.096 7.2 2.4 14.79
1/4/2022 10:30:00 AM 0.16 32.288 0.096 7.22 2.43 14.84
1/4/2022 10:45:00 AM 0.18 32.324 0.096 7.2 2.44 14.89
1/4/2022 11:00:00 AM 0.19 32.342 0.096 7.24 2.45 14.92
1/4/2022 11:15:00 AM 0.2 32.36 0.096 7.28 2.45 14.95
1/4/2022 11:30:00 AM 0.2 32.36 0.096 7.26 2.51 14.96
1/4/2022 11:45:00 AM 0.19 32.342 0.095 7.32 2.53 14.98
1/4/2022 12:00:00 PM 0.2 32.36 0.095 7.33 2.6 14.99
1/4/2022 12:15:00 PM 0.2 32.36 0.095 7.33 2.54 15
1/4/2022 12:30:00 PM 0.18 32.324 0.095 7.35 2.73 14.99
1/4/2022 12:45:00 PM 0.18 32.324 0.094 7.36 2.66 14.99
1/4/2022 1:00:00 PM 0.15 32.27 0.094 7.31 2.79 14.98
1/4/2022 1:15:00 PM 0.21 32.378 0.094 7.38 2.91 14.96
1/4/2022 1:30:00 PM 0.35 32.63 0.093 7.38 2.97 14.95
1/4/2022 1:45:00 PM 0.43 32.774 0.093 7.35 2.85 14.94
1/4/2022 2:00:00 PM 0.48 32.864 0.093 7.38 2.84 14.91
1/4/2022 2:15:00 PM 0.53 32.954 0.093 7.4 2.86 14.88
1/4/2022 2:30:00 PM 0.59 33.062 0.092 7.41 2.78 14.84
1/4/2022 2:45:00 PM 0.63 33.134 0.092 7.37 2.96 14.81
1/4/2022 3:00:00 PM 0.65 33.17 0.092 7.4 2.99 14.78
1/4/2022 3:15:00 PM 0.66 33.188 0.092 7.4 3.2 14.74
1/4/2022 3:30:00 PM 0.64 33.152 0.092 7.39 3.21 14.71
1/4/2022 3:45:00 PM 0.61 33.098 0.092 7.36 3.21 14.65
1/4/2022 4:00:00 PM 0.56 33.008 0.092 7.34 3.27 14.59
1/4/2022 4:15:00 PM 0.5 32.9 0.092 7.31 3.07 14.53
1/4/2022 4:30:00 PM 0.47 32.846 0.092 7.31 2.95 14.45
1/4/2022 4:45:00 PM 0.44 32.792 0.092 7.28 2.88 14.36
1/4/2022 5:00:00 PM 0.42 32.756 0.093 7.22 2.77 14.26
1/4/2022 5:15:00 PM 0.41 32.738 0.093 7.23 2.95 14.18
1/4/2022 5:30:00 PM 0.4 32.72 0.093 7.2 2.94 14.11
1/4/2022 5:45:00 PM 0.38 32.684 0.093 7.18 2.81 14.05
1/4/2022 6:00:00 PM 0.36 32.648 0.093 7.16 2.84 14.01
1/4/2022 6:15:00 PM 0.35 32.63 0.093 7.1 2.81 13.98
1/4/2022 6:30:00 PM 0.33 32.594 0.093 7.11 2.94 13.95
1/4/2022 6:45:00 PM 0.32 32.576 0.093 7.11 2.88 13.94
1/4/2022 7:00:00 PM 0.3 32.54 0.093 7.1 2.87 13.93
1/4/2022 7:15:00 PM 0.28 32.504 0.093 7.09 2.88 13.93
1/4/2022 7:30:00 PM 0.26 32.468 0.093 7.09 2.88 13.93
1/4/2022 7:45:00 PM 0.24 32.432 0.093 7.08 2.76 13.93
1/4/2022 8:00:00 PM 0.23 32.414 0.094 7.08 2.82 13.93
1/4/2022 8:15:00 PM 0.21 32.378 0.094 7.08 2.77 13.93
1/4/2022 8:30:00 PM 0.2 32.36 0.094 7.08 2.79 13.94
1/4/2022 8:45:00 PM 0.18 32.324 0.094 7.04 2.88 13.94
1/4/2022 9:00:00 PM 0.17 32.306 0.094 7.07 2.82 13.94
1/4/2022 9:15:00 PM 0.15 32.27 0.094 7.07 2.71 13.94
1/4/2022 9:30:00 PM 0.14 32.252 0.094 7.07 2.79 13.95
1/4/2022 9:45:00 PM 0.13 32.234 0.094 7.07 2.72 13.95
1/4/2022 10:00:00 PM 0.12 32.216 0.094 7.07 2.76 13.95
1/4/2022 10:15:00 PM 0.11 32.198 0.094 7.04 2.89 13.95
1/4/2022 10:30:00 PM 0.1 32.18 0.094 7.07 2.68 13.95
1/4/2022 10:45:00 PM 0.09 32.162 0.094 7.07 2.84 13.95
1/4/2022 11:00:00 PM 0.09 32.162 0.094 7.07 2.73 13.95
1/4/2022 11:15:00 PM 0.08 32.144 0.094 7.05 2.92 13.95
1/4/2022 11:30:00 PM 0.06 32.108 0.094 7.07 2.69 13.95
1/4/2022 11:45:00 PM 0.05 32.09 0.094 7.07 2.75 13.95
1/5/2022 12:00:00 AM 0.04 32.072 0.094 7.05 2.74 13.94
1/5/2022 12:15:00 AM 0.02 32.036 0.094 7.07 2.67 13.95
1/5/2022 12:30:00 AM 0 32 0.094 7.07 2.6 13.95
1/5/2022 12:45:00 AM -0.01 31.982 0.094 7.06 2.64 13.95
1/5/2022 1:00:00 AM -0.01 31.982 0.094 7.07 2.63 13.95
1/5/2022 1:15:00 AM 0 32 0.094 7.02 2.69 13.95
1/5/2022 1:30:00 AM 0 32 0.094 7.07 2.7 13.95
1/5/2022 1:45:00 AM 0.01 32.018 0.094 7.06 2.59 13.95
1/5/2022 2:00:00 AM 0.01 32.018 0.094 7.06 2.57 13.95
1/5/2022 2:15:00 AM 0.02 32.036 0.094 7.06 2.57 13.95
1/5/2022 2:30:00 AM 0.02 32.036 0.094 7.06 2.53 13.95
1/5/2022 2:45:00 AM 0.02 32.036 0.094 7.06 2.53 13.95
1/5/2022 3:00:00 AM 0.02 32.036 0.094 7 2.54 13.95
1/5/2022 3:15:00 AM 0.02 32.036 0.094 7.06 2.61 13.94
1/5/2022 3:30:00 AM 0.02 32.036 0.094 7.05 2.71 13.95
1/5/2022 3:45:00 AM 0.03 32.054 0.094 7.02 2.51 13.94
1/5/2022 4:00:00 AM 0.03 32.054 0.094 7.06 2.6 13.94
1/5/2022 4:15:00 AM 0.03 32.054 0.094 7.06 2.53 13.94
1/5/2022 4:30:00 AM 0.03 32.054 0.094 7.06 2.48 13.94
1/5/2022 4:45:00 AM 0.03 32.054 0.094 7.06 2.48 13.93
1/5/2022 5:00:00 AM 0.03 32.054 0.094 7.06 2.46 13.93
1/5/2022 5:15:00 AM 0.03 32.054 0.094 7.05 2.42 13.92
1/5/2022 5:30:00 AM 0.03 32.054 0.094 7.05 2.65 13.92
1/5/2022 5:45:00 AM 0.03 32.054 0.094 7.06 2.59 13.91
1/5/2022 6:00:00 AM 0.03 32.054 0.094 7 2.54 13.91
1/5/2022 6:15:00 AM 0.04 32.072 0.094 7.06 2.44 13.9
1/5/2022 6:30:00 AM 0.04 32.072 0.094 7.02 2.47 13.9
1/5/2022 6:45:00 AM 0.04 32.072 0.094 7.06 2.48 13.89
1/5/2022 7:00:00 AM 0.04 32.072 0.094 7.06 2.53 13.89
1/5/2022 7:15:00 AM 0.04 32.072 0.094 7.06 2.4 13.88
1/5/2022 7:30:00 AM 0.04 32.072 0.094 7.04 2.49 13.88
1/5/2022 7:45:00 AM 0.05 32.09 0.094 7.07 2.48 13.89
1/5/2022 8:00:00 AM 0.05 32.09 0.095 7.06 2.48 13.92
1/5/2022 8:15:00 AM 0.05 32.09 0.095 7.07 2.5 13.97
1/5/2022 8:30:00 AM 0.06 32.108 0.095 7.09 2.48 14.05
1/5/2022 8:45:00 AM 0.06 32.108 0.095 7.1 2.53 14.14
1/5/2022 9:00:00 AM 0.07 32.126 0.094 7.12 2.42 14.25
1/5/2022 9:15:00 AM 0.07 32.126 0.094 7.1 2.42 14.33
1/5/2022 9:30:00 AM 0.09 32.162 0.094 7.15 2.4 14.44
1/5/2022 9:45:00 AM 0.1 32.18 0.094 7.19 2.39 14.53
1/5/2022 10:00:00 AM 0.11 32.198 0.093 7.21 2.42 14.6
1/5/2022 10:15:00 AM 0.12 32.216 0.093 7.2 2.48 14.68
1/5/2022 10:30:00 AM 0.13 32.234 0.093 7.26 2.47 14.74
1/5/2022 10:45:00 AM 0.15 32.27 0.093 7.29 2.46 14.78
1/5/2022 11:00:00 AM 0.19 32.342 0.092 7.3 2.54 14.81
1/5/2022 11:15:00 AM 0.31 32.558 0.092 7.33 2.53 14.83
1/5/2022 11:30:00 AM 0.44 32.792 0.092 7.3 2.5 14.84
1/5/2022 11:45:00 AM 0.52 32.936 0.092 7.36 2.53 14.83
1/5/2022 12:00:00 PM 0.62 33.116 0.091 7.38 2.46 14.83
1/5/2022 12:15:00 PM 0.7 33.26 0.091 7.35 2.5 14.83
1/5/2022 12:30:00 PM 0.78 33.404 0.091 7.41 2.41 14.81
1/5/2022 12:45:00 PM 0.84 33.512 0.091 7.41 2.49 14.79
1/5/2022 1:00:00 PM 0.92 33.656 0.09 7.43 2.58 14.77
1/5/2022 1:15:00 PM 0.97 33.746 0.09 7.43 2.59 14.75
1/5/2022 1:30:00 PM 1.02 33.836 0.09 7.43 2.76 14.72
1/5/2022 1:45:00 PM 1.07 33.926 0.09 7.44 2.7 14.68
1/5/2022 2:00:00 PM 1.12 34.016 0.09 7.44 2.62 14.66
1/5/2022 2:15:00 PM 1.17 34.106 0.09 7.44 2.57 14.6
1/5/2022 2:30:00 PM 1.21 34.178 0.09 7.44 2.56 14.58
1/5/2022 2:45:00 PM 1.22 34.196 0.09 7.43 2.63 14.53
1/5/2022 3:00:00 PM 1.23 34.214 0.089 7.43 2.56 14.46
1/5/2022 3:15:00 PM 1.23 34.214 0.089 7.37 2.68 14.39
1/5/2022 3:30:00 PM 1.24 34.232 0.089 7.41 2.63 14.34
1/5/2022 3:45:00 PM 1.25 34.25 0.089 7.34 2.63 14.3
1/5/2022 4:00:00 PM 1.25 34.25 0.089 7.38 2.68 14.24
1/5/2022 4:15:00 PM 1.25 34.25 0.089 7.36 2.68 14.18
1/5/2022 4:30:00 PM 1.24 34.232 0.089 7.34 2.62 14.1
1/5/2022 4:45:00 PM 1.22 34.196 0.09 7.31 2.67 13.99
1/5/2022 5:00:00 PM 1.2 34.16 0.09 7.27 2.64 13.88
1/5/2022 5:15:00 PM 1.18 34.124 0.09 7.21 2.71 13.75
1/5/2022 5:30:00 PM 1.17 34.106 0.09 7.22 2.81 13.65
1/5/2022 5:45:00 PM 1.16 34.088 0.09 7.15 2.74 13.58
1/5/2022 6:00:00 PM 1.15 34.07 0.09 7.17 2.73 13.51
1/5/2022 6:15:00 PM 1.14 34.052 0.09 7.16 2.71 13.46
1/5/2022 6:30:00 PM 1.13 34.034 0.091 7.09 2.75 13.42
1/5/2022 6:45:00 PM 1.13 34.034 0.091 7.1 2.7 13.4
1/5/2022 7:00:00 PM 1.11 33.998 0.091 7.11 2.78 13.38
1/5/2022 7:15:00 PM 1.1 33.98 0.091 7.08 2.64 13.37
1/5/2022 7:30:00 PM 1.09 33.962 0.091 7.1 2.74 13.37
1/5/2022 7:45:00 PM 1.08 33.944 0.091 7.1 2.72 13.37
1/5/2022 8:00:00 PM 1.06 33.908 0.091 7.09 2.84 13.36
1/5/2022 8:15:00 PM 1.05 33.89 0.091 7.09 2.67 13.37
1/5/2022 8:30:00 PM 1.04 33.872 0.091 7.09 2.7 13.37
1/5/2022 8:45:00 PM 1.04 33.872 0.091 7.08 2.72 13.36
1/5/2022 9:00:00 PM 1.04 33.872 0.091 7.03 2.74 13.37
1/5/2022 9:15:00 PM 1.04 33.872 0.091 7.08 2.69 13.37
1/5/2022 9:30:00 PM 1.04 33.872 0.092 7.08 2.85 13.37
1/5/2022 9:45:00 PM 1.04 33.872 0.092 7.08 2.85 13.37
1/5/2022 10:00:00 PM 1.04 33.872 0.092 7.08 2.86 13.37
1/5/2022 10:15:00 PM 1.03 33.854 0.092 7.08 2.69 13.37
1/5/2022 10:30:00 PM 1.04 33.872 0.092 7.08 2.75 13.37
1/5/2022 10:45:00 PM 1.04 33.872 0.092 7.02 2.71 13.37
1/5/2022 11:00:00 PM 1.05 33.89 0.092 7.08 2.77 13.36
1/5/2022 11:15:00 PM 1.06 33.908 0.092 7.07 2.82 13.36
1/5/2022 11:30:00 PM 1.06 33.908 0.092 7.08 2.83 13.36
1/5/2022 11:45:00 PM 1.07 33.926 0.092 7.08 2.77 13.35
1/6/2022 12:00:00 AM 1.07 33.926 0.092 7.05 2.81 13.35
1/6/2022 12:15:00 AM 1.06 33.908 0.092 7.08 2.76 13.36
1/6/2022 12:30:00 AM 1.04 33.872 0.092 7.08 2.83 13.36
1/6/2022 12:45:00 AM 1.02 33.836 0.092 7.08 2.74 13.36
1/6/2022 1:00:00 AM 1 33.8 0.092 7.03 2.87 13.36
1/6/2022 1:15:00 AM 0.98 33.764 0.092 7.08 2.75 13.36
1/6/2022 1:30:00 AM 0.98 33.764 0.092 7.08 2.82 13.37
1/6/2022 1:45:00 AM 0.98 33.764 0.092 7.08 2.86 13.37
1/6/2022 2:00:00 AM 0.98 33.764 0.092 7.08 2.81 13.38
1/6/2022 2:15:00 AM 0.98 33.764 0.092 7.08 2.71 13.38
1/6/2022 2:30:00 AM 0.98 33.764 0.092 7.02 2.78 13.38
1/6/2022 2:45:00 AM 0.99 33.782 0.092 7.08 2.82 13.39
1/6/2022 3:00:00 AM 0.97 33.746 0.092 7.03 2.74 13.39
1/6/2022 3:15:00 AM 0.95 33.71 0.092 7.08 2.72 13.39
1/6/2022 3:30:00 AM 0.92 33.656 0.092 7.08 2.83 13.4
1/6/2022 3:45:00 AM 0.9 33.62 0.092 7.03 2.9 13.41
1/6/2022 4:00:00 AM 0.88 33.584 0.092 7.05 2.78 13.42
1/6/2022 4:15:00 AM 0.88 33.584 0.092 7.08 2.75 13.42
1/6/2022 4:30:00 AM 0.88 33.584 0.092 7.08 2.87 13.42
1/6/2022 4:45:00 AM 0.88 33.584 0.092 7.08 2.81 13.43
1/6/2022 5:00:00 AM 0.86 33.548 0.092 7.03 2.8 13.44
1/6/2022 5:15:00 AM 0.85 33.53 0.093 7.08 2.8 13.45
1/6/2022 5:30:00 AM 0.84 33.512 0.093 7.08 2.66 13.45
1/6/2022 5:45:00 AM 0.83 33.494 0.093 7.08 2.77 13.46
1/6/2022 6:00:00 AM 0.81 33.458 0.093 7.04 2.79 13.47
1/6/2022 6:15:00 AM 0.79 33.422 0.093 7.06 2.81 13.48
1/6/2022 6:30:00 AM 0.76 33.368 0.093 7.08 2.68 13.49
1/6/2022 6:45:00 AM 0.74 33.332 0.092 7.08 2.72 13.5
1/6/2022 7:00:00 AM 0.73 33.314 0.092 7.08 2.87 13.5
1/6/2022 7:15:00 AM 0.7 33.26 0.092 7.08 2.76 13.51
1/6/2022 7:30:00 AM 0.68 33.224 0.092 7.04 2.7 13.52
1/6/2022 7:45:00 AM 0.63 33.134 0.093 7.08 2.71 13.56
1/6/2022 8:00:00 AM 0.61 33.098 0.092 7.06 2.73 13.61
1/6/2022 8:15:00 AM 0.6 33.08 0.092 7.1 2.73 13.7
1/6/2022 8:30:00 AM 0.58 33.044 0.092 7.12 2.7 13.82
1/6/2022 8:45:00 AM 0.56 33.008 0.092 7.11 2.61 13.94
1/6/2022 9:00:00 AM 0.55 32.99 0.092 7.16 2.65 14.05
1/6/2022 9:15:00 AM 0.55 32.99 0.092 7.14 2.67 14.17
1/6/2022 9:30:00 AM 0.55 32.99 0.092 7.2 2.58 14.28
1/6/2022 9:45:00 AM 0.57 33.026 0.092 7.22 2.68 14.37
1/6/2022 10:00:00 AM 0.59 33.062 0.092 7.22 2.57 14.46
1/6/2022 10:15:00 AM 0.61 33.098 0.092 7.27 2.53 14.53
1/6/2022 10:30:00 AM 0.63 33.134 0.091 7.29 2.47 14.57
1/6/2022 10:45:00 AM 0.66 33.188 0.091 7.29 2.56 14.61
1/6/2022 11:00:00 AM 0.71 33.278 0.091 7.29 2.55 14.65
1/6/2022 11:15:00 AM 0.75 33.35 0.091 7.34 2.55 14.68
1/6/2022 11:30:00 AM 0.8 33.44 0.091 7.36 2.51 14.7
1/6/2022 11:45:00 AM 0.84 33.512 0.091 7.37 2.51 14.72
1/6/2022 12:00:00 PM 0.9 33.62 0.091 7.38 2.56 14.73
1/6/2022 12:15:00 PM 0.97 33.746 0.091 7.4 2.52 14.75
1/6/2022 12:30:00 PM 1.04 33.872 0.09 7.41 2.55 14.73
1/6/2022 12:45:00 PM 1.1 33.98 0.09 7.38 2.48 14.73
1/6/2022 1:00:00 PM 1.17 34.106 0.09 7.43 2.48 14.73
1/6/2022 1:15:00 PM 1.32 34.376 0.09 7.45 2.54 14.72
1/6/2022 1:30:00 PM 1.39 34.502 0.09 7.41 2.54 14.71
1/6/2022 1:45:00 PM 1.4 34.52 0.09 7.45 2.43 14.67
1/6/2022 2:00:00 PM 1.4 34.52 0.09 7.45 2.45 14.61
1/6/2022 2:15:00 PM 1.38 34.484 0.09 7.39 2.46 14.55
1/6/2022 2:30:00 PM 1.37 34.466 0.09 7.43 2.39 14.51
1/6/2022 2:45:00 PM 1.34 34.412 0.09 7.41 2.51 14.48
1/6/2022 3:00:00 PM 1.31 34.358 0.09 7.41 2.5 14.45
1/6/2022 3:15:00 PM 1.28 34.304 0.09 7.38 2.46 14.42
1/6/2022 3:30:00 PM 1.25 34.25 0.09 7.39 2.37 14.4
1/6/2022 3:45:00 PM 1.23 34.214 0.09 7.38 2.41 14.37
1/6/2022 4:00:00 PM 1.21 34.178 0.09 7.37 2.41 14.31
1/6/2022 4:15:00 PM 1.2 34.16 0.09 7.35 2.44 14.23
1/6/2022 4:30:00 PM 1.18 34.124 0.091 7.31 2.52 14.14
1/6/2022 4:45:00 PM 1.16 34.088 0.091 7.28 2.4 14.04
1/6/2022 5:00:00 PM 1.14 34.052 0.091 7.27 2.42 13.93
1/6/2022 5:15:00 PM 1.11 33.998 0.091 7.24 2.4 13.83
1/6/2022 5:30:00 PM 1.09 33.962 0.091 7.2 2.4 13.75
1/6/2022 5:45:00 PM 1.07 33.926 0.091 7.19 2.45 13.67
1/6/2022 6:00:00 PM 1.05 33.89 0.091 7.17 2.37 13.62
1/6/2022 6:15:00 PM 1.03 33.854 0.091 7.13 2.44 13.59
1/6/2022 6:30:00 PM 1.01 33.818 0.092 7.14 2.37 13.56
1/6/2022 6:45:00 PM 1 33.8 0.092 7.13 2.41 13.54
1/6/2022 7:00:00 PM 0.98 33.764 0.092 7.13 2.35 13.52
1/6/2022 7:15:00 PM 0.96 33.728 0.092 7.1 2.47 13.52
1/6/2022 7:30:00 PM 0.94 33.692 0.092 7.09 2.34 13.51
1/6/2022 7:45:00 PM 0.92 33.656 0.092 7.11 2.4 13.52
1/6/2022 8:00:00 PM 0.91 33.638 0.092 7.1 2.45 13.52
1/6/2022 8:15:00 PM 0.89 33.602 0.092 7.1 2.39 13.52
1/6/2022 8:30:00 PM 0.88 33.584 0.092 7.1 2.41 13.51
1/6/2022 8:45:00 PM 0.87 33.566 0.092 7.06 2.43 13.52
1/6/2022 9:00:00 PM 0.85 33.53 0.092 7.09 2.38 13.52
1/6/2022 9:15:00 PM 0.84 33.512 0.092 7.09 2.45 13.52
1/6/2022 9:30:00 PM 0.83 33.494 0.093 7.09 2.4 13.53
1/6/2022 9:45:00 PM 0.81 33.458 0.093 7.09 2.39 13.54
1/6/2022 10:00:00 PM 0.8 33.44 0.093 7.09 2.42 13.54
1/6/2022 10:15:00 PM 0.79 33.422 0.093 7.08 2.42 13.54
1/6/2022 10:30:00 PM 0.77 33.386 0.093 7.09 2.4 13.54
1/6/2022 10:45:00 PM 0.75 33.35 0.093 7.09 2.42 13.56
1/6/2022 11:00:00 PM 0.73 33.314 0.093 7.09 2.48 13.56
1/6/2022 11:15:00 PM 0.7 33.26 0.093 7.08 2.36 13.56
1/6/2022 11:30:00 PM 0.67 33.206 0.093 7.09 2.44 13.57
1/6/2022 11:45:00 PM 0.63 33.134 0.093 7.09 2.42 13.57
1/7/2022 12:00:00 AM 0.59 33.062 0.093 7.09 2.43 13.58
1/7/2022 12:15:00 AM 0.56 33.008 0.093 7.04 2.43 13.59
1/7/2022 12:30:00 AM 0.55 32.99 0.093 7.07 2.38 13.6
1/7/2022 12:45:00 AM 0.52 32.936 0.093 7.09 2.33 13.61
1/7/2022 1:00:00 AM 0.48 32.864 0.093 7.06 2.44 13.62
1/7/2022 1:15:00 AM 0.42 32.756 0.093 7.09 2.43 13.63
1/7/2022 1:30:00 AM 0.37 32.666 0.093 7.09 2.4 13.64
1/7/2022 1:45:00 AM 0.33 32.594 0.093 7.08 2.36 13.65
1/7/2022 2:00:00 AM 0.29 32.522 0.093 7.09 2.37 13.66
1/7/2022 2:15:00 AM 0.26 32.468 0.093 7.04 2.45 13.67
1/7/2022 2:30:00 AM 0.24 32.432 0.093 7.09 2.34 13.68
1/7/2022 2:45:00 AM 0.21 32.378 0.093 7.08 2.31 13.69
1/7/2022 3:00:00 AM 0.2 32.36 0.093 7.09 2.4 13.71
1/7/2022 3:15:00 AM 0.19 32.342 0.093 7.09 2.32 13.71
1/7/2022 3:30:00 AM 0.18 32.324 0.093 7.09 2.33 13.73
1/7/2022 3:45:00 AM 0.17 32.306 0.093 7.09 2.36 13.73
1/7/2022 4:00:00 AM 0.16 32.288 0.093 7.07 2.31 13.73
1/7/2022 4:15:00 AM 0.15 32.27 0.093 7.08 2.32 13.74
1/7/2022 4:30:00 AM 0.14 32.252 0.093 7.08 2.26 13.74
1/7/2022 4:45:00 AM 0.14 32.252 0.093 7.07 2.28 13.75
1/7/2022 5:00:00 AM 0.14 32.252 0.093 7.05 2.41 13.75
1/7/2022 5:15:00 AM 0.14 32.252 0.093 7.08 2.41 13.75
1/7/2022 5:30:00 AM 0.14 32.252 0.093 7.08 2.3 13.75
1/7/2022 5:45:00 AM 0.14 32.252 0.093 7.05 2.33 13.76
1/7/2022 6:00:00 AM 0.14 32.252 0.093 7.08 2.34 13.76
1/7/2022 6:15:00 AM 0.14 32.252 0.093 7.08 2.32 13.76
1/7/2022 6:30:00 AM 0.13 32.234 0.093 7.08 2.35 13.76
1/7/2022 6:45:00 AM 0.13 32.234 0.093 7.08 2.3 13.76
1/7/2022 7:00:00 AM 0.14 32.252 0.093 7.08 2.31 13.76
1/7/2022 7:15:00 AM 0.13 32.234 0.093 7.08 2.27 13.77
1/7/2022 7:30:00 AM 0.13 32.234 0.093 7.06 2.31 13.77
1/7/2022 7:45:00 AM 0.13 32.234 0.093 7.09 2.32 13.79
1/7/2022 8:00:00 AM 0.14 32.252 0.093 7.09 2.31 13.83
1/7/2022 8:15:00 AM 0.14 32.252 0.093 7.06 2.37 13.89
1/7/2022 8:30:00 AM 0.15 32.27 0.093 7.12 2.38 13.99
1/7/2022 8:45:00 AM 0.17 32.306 0.093 7.13 2.38 14.09
1/7/2022 9:00:00 AM 0.18 32.324 0.092 7.11 2.35 14.19
1/7/2022 9:15:00 AM 0.19 32.342 0.092 7.16 2.38 14.29
1/7/2022 9:30:00 AM 0.22 32.396 0.092 7.19 2.34 14.38
1/7/2022 9:45:00 AM 0.26 32.468 0.092 7.2 2.34 14.48
1/7/2022 10:00:00 AM 0.3 32.54 0.092 7.24 2.28 14.58
1/7/2022 10:15:00 AM 0.34 32.612 0.092 7.23 2.34 14.65
1/7/2022 10:30:00 AM 0.39 32.702 0.092 7.29 2.32 14.71
1/7/2022 10:45:00 AM 0.46 32.828 0.091 7.31 2.27 14.75
1/7/2022 11:00:00 AM 0.49 32.882 0.091 7.33 2.31 14.78
1/7/2022 11:15:00 AM 0.48 32.864 0.091 7.34 2.24 14.8
1/7/2022 11:30:00 AM 0.5 32.9 0.091 7.35 2.24 14.82
1/7/2022 11:45:00 AM 0.53 32.954 0.092 7.35 2.3 14.81
1/7/2022 12:00:00 PM 0.57 33.026 0.093 7.36 2.27 14.81
1/7/2022 12:15:00 PM 0.64 33.152 0.093 7.36 2.28 14.82
1/7/2022 12:30:00 PM 0.68 33.224 0.094 7.39 2.38 14.79
1/7/2022 12:45:00 PM 0.72 33.296 0.094 7.37 2.29 14.78
1/7/2022 1:00:00 PM 0.77 33.386 0.093 7.4 2.28 14.77
1/7/2022 1:15:00 PM 0.84 33.512 0.092 7.41 2.29 14.77
1/7/2022 1:30:00 PM 0.88 33.584 0.092 7.41 2.27 14.73
1/7/2022 1:45:00 PM 0.9 33.62 0.092 7.37 2.26 14.7
1/7/2022 2:00:00 PM 0.9 33.62 0.092 7.41 2.24 14.66
1/7/2022 2:15:00 PM 0.89 33.602 0.092 7.41 2.29 14.64
1/7/2022 2:30:00 PM 0.88 33.584 0.092 7.4 2.26 14.61
1/7/2022 2:45:00 PM 0.85 33.53 0.091 7.4 2.28 14.58
1/7/2022 3:00:00 PM 0.82 33.476 0.091 7.4 2.31 14.57
1/7/2022 3:15:00 PM 0.8 33.44 0.091 7.39 2.26 14.55
1/7/2022 3:30:00 PM 0.78 33.404 0.091 7.39 2.28 14.52
1/7/2022 3:45:00 PM 0.76 33.368 0.091 7.38 2.28 14.49
1/7/2022 4:00:00 PM 0.72 33.296 0.091 7.36 2.34 14.47
1/7/2022 4:15:00 PM 0.68 33.224 0.091 7.35 2.32 14.43
1/7/2022 4:30:00 PM 0.62 33.116 0.091 7.32 2.33 14.37
1/7/2022 4:45:00 PM 0.56 33.008 0.091 7.31 2.3 14.3
1/7/2022 5:00:00 PM 0.51 32.918 0.091 7.29 2.29 14.22
1/7/2022 5:15:00 PM 0.44 32.792 0.091 7.24 2.33 14.12
1/7/2022 5:30:00 PM 0.4 32.72 0.091 7.2 2.31 14.04
1/7/2022 5:45:00 PM 0.36 32.648 0.092 7.21 2.27 13.99
1/7/2022 6:00:00 PM 0.32 32.576 0.092 7.19 2.27 13.95
1/7/2022 6:15:00 PM 0.28 32.504 0.092 7.17 2.29 13.91
1/7/2022 6:30:00 PM 0.25 32.45 0.092 7.11 2.28 13.89
1/7/2022 6:45:00 PM 0.2 32.36 0.093 7.15 2.35 13.89
1/7/2022 7:00:00 PM 0.16 32.288 0.093 7.14 2.38 13.88
1/7/2022 7:15:00 PM 0.11 32.198 0.093 7.13 2.35 13.89
1/7/2022 7:30:00 PM 0.06 32.108 0.093 7.12 2.34 13.9
1/7/2022 7:45:00 PM 0.03 32.054 0.093 7.12 2.33 13.91
1/7/2022 8:00:00 PM 0.02 32.036 0.093 7.12 2.27 13.91
1/7/2022 8:15:00 PM 0 32 0.093 7.1 2.36 13.93
1/7/2022 8:30:00 PM -0.01 31.982 0.094 7.11 2.39 13.93
1/7/2022 8:45:00 PM -0.01 31.982 0.094 7.11 2.4 13.94
1/7/2022 9:00:00 PM 0 32 0.094 7.1 2.4 13.95
1/7/2022 9:15:00 PM -0.01 31.982 0.094 7.07 2.38 13.96
1/7/2022 9:30:00 PM -0.02 31.964 0.094 7.09 2.45 13.96
1/7/2022 9:45:00 PM -0.02 31.964 0.094 7.08 2.44 13.96
1/7/2022 10:00:00 PM -0.02 31.964 0.095 7.1 2.5 13.97
1/7/2022 10:15:00 PM -0.02 31.964 0.095 7.1 2.48 13.97
1/7/2022 10:30:00 PM -0.02 31.964 0.095 7.09 2.46 13.97
1/7/2022 10:45:00 PM -0.03 31.946 0.095 7.09 2.42 13.98
1/7/2022 11:00:00 PM -0.03 31.946 0.095 7.09 2.44 13.98
1/7/2022 11:15:00 PM -0.02 31.964 0.095 7.09 2.44 13.98
1/7/2022 11:30:00 PM -0.02 31.964 0.096 7.09 2.46 13.98
1/7/2022 11:45:00 PM -0.02 31.964 0.096 7.09 2.42 13.98
1/8/2022 12:00:00 AM -0.02 31.964 0.096 7.09 2.43 13.98
1/8/2022 12:15:00 AM -0.01 31.982 0.096 7.08 2.37 13.98
1/8/2022 12:30:00 AM -0.02 31.964 0.096 7.08 2.36 13.99
1/8/2022 12:45:00 AM -0.03 31.946 0.096 7.08 2.36 13.99
1/8/2022 1:00:00 AM -0.03 31.946 0.097 7.06 2.36 13.99
1/8/2022 1:15:00 AM -0.02 31.964 0.097 7.08 2.39 13.99
1/8/2022 1:30:00 AM -0.02 31.964 0.097 7.08 2.35 13.99
1/8/2022 1:45:00 AM -0.02 31.964 0.097 7.06 2.34 14
1/8/2022 2:00:00 AM -0.02 31.964 0.097 7.07 2.36 13.99
1/8/2022 2:15:00 AM -0.02 31.964 0.097 7.07 2.33 13.99
1/8/2022 2:30:00 AM -0.02 31.964 0.097 7.02 2.36 13.99
1/8/2022 2:45:00 AM -0.02 31.964 0.097 7.07 2.37 14
1/8/2022 3:00:00 AM -0.01 31.982 0.097 7.06 2.44 14
1/8/2022 3:15:00 AM -0.01 31.982 0.097 7.06 2.34 13.99
1/8/2022 3:30:00 AM 0 32 0.098 7.06 2.33 13.99
1/8/2022 3:45:00 AM 0 32 0.098 7.03 2.31 14
1/8/2022 4:00:00 AM 0 32 0.098 7.06 2.29 13.99
1/8/2022 4:15:00 AM 0 32 0.098 7.03 2.31 14.01
1/8/2022 4:30:00 AM -0.01 31.982 0.098 7.05 2.29 14
1/8/2022 4:45:00 AM -0.01 31.982 0.098 7.06 2.3 14
1/8/2022 5:00:00 AM -0.01 31.982 0.098 7.05 2.29 14.01
1/8/2022 5:15:00 AM -0.01 31.982 0.098 7.05 2.3 14.01
1/8/2022 5:30:00 AM -0.01 31.982 0.098 7.05 2.31 14
1/8/2022 5:45:00 AM -0.01 31.982 0.098 7.05 2.26 14.02
1/8/2022 6:00:00 AM -0.01 31.982 0.098 7.04 2.24 14.01
1/8/2022 6:15:00 AM 0 32 0.098 7.01 2.24 14.01
1/8/2022 6:30:00 AM 0 32 0.099 7.04 2.27 14.01
1/8/2022 6:45:00 AM 0 32 0.099 7.04 2.24 14
1/8/2022 7:00:00 AM 0 32 0.099 7.03 2.26 14
1/8/2022 7:15:00 AM 0 32 0.099 7.03 2.45 14.01
1/8/2022 7:30:00 AM 0 32 0.099 7.03 2.35 14.02
1/8/2022 7:45:00 AM 0 32 0.099 7.02 2.44 14.03
1/8/2022 8:00:00 AM 0 32 0.099 7.03 2.39 14.06
1/8/2022 8:15:00 AM 0 32 0.099 7.04 2.33 14.12
1/8/2022 8:30:00 AM 0 32 0.099 7.05 2.22 14.2
1/8/2022 8:45:00 AM 0 32 0.099 7.03 2.33 14.3
1/8/2022 9:00:00 AM 0.02 32.036 0.099 7.06 2.28 14.39
1/8/2022 9:15:00 AM 0.02 32.036 0.099 7.05 2.27 14.5
1/8/2022 9:30:00 AM 0.03 32.054 0.099 7.09 2.34 14.58
1/8/2022 9:45:00 AM 0.03 32.054 0.098 7.1 2.24 14.67
1/8/2022 10:00:00 AM 0.04 32.072 0.098 7.1 2.3 14.72
1/8/2022 10:15:00 AM 0.04 32.072 0.098 7.13 2.29 14.83
1/8/2022 10:30:00 AM 0.07 32.126 0.098 7.14 2.29 14.89
1/8/2022 10:45:00 AM 0.1 32.18 0.098 7.15 2.31 14.91
1/8/2022 11:00:00 AM 0.14 32.252 0.098 7.18 2.27 14.98
1/8/2022 11:15:00 AM 0.18 32.324 0.098 7.19 2.24 15.01
1/8/2022 11:30:00 AM 0.21 32.378 0.098 7.17 2.35 15.05
1/8/2022 11:45:00 AM 0.22 32.396 0.098 7.22 2.4 15.08
1/8/2022 12:00:00 PM -99999.99 -179968 -99999.99 -99999.99 -99999.99 -99999.99
1/8/2022 12:15:00 PM -99999.99 -179968 -99999.99 -99999.99 -99999.99 -99999.99
1/8/2022 12:30:00 PM 0.15 32.27 0.098 7.3 2.43 15.15
1/8/2022 12:45:00 PM 0.17 32.306 0.098 7.31 2.46 15.16
1/8/2022 1:00:00 PM 0.16 32.288 0.098 7.34 2.41 15.17
1/8/2022 1:15:00 PM 0.14 32.252 0.098 7.36 2.51 15.16
1/8/2022 1:30:00 PM 0.14 32.252 0.098 7.33 2.52 15.17
1/8/2022 1:45:00 PM 0.11 32.198 0.098 7.36 2.52 15.14
1/8/2022 2:00:00 PM 0.09 32.162 0.098 7.38 2.47 15.14
1/8/2022 2:15:00 PM 0.13 32.234 0.098 7.38 2.53 15.15
1/8/2022 2:30:00 PM 0.16 32.288 0.097 7.37 2.63 15.16
1/8/2022 2:45:00 PM 0.15 32.27 0.097 7.39 2.6 15.16
1/8/2022 3:00:00 PM 0.11 32.198 0.097 7.39 2.57 15.14
1/8/2022 3:15:00 PM 0.09 32.162 0.097 7.39 2.62 15.12
1/8/2022 3:30:00 PM 0.07 32.126 0.096 7.39 2.68 15.09
1/8/2022 3:45:00 PM 0.05 32.09 0.096 7.38 2.74 15.05
1/8/2022 4:00:00 PM 0.04 32.072 0.096 7.36 2.7 15
1/8/2022 4:15:00 PM 0.03 32.054 0.096 7.35 2.67 14.94
1/8/2022 4:30:00 PM 0.02 32.036 0.096 7.31 2.62 14.89
1/8/2022 4:45:00 PM 0.01 32.018 0.096 7.31 2.61 14.8
1/8/2022 5:00:00 PM 0.01 32.018 0.096 7.28 2.66 14.7
1/8/2022 5:15:00 PM 0.01 32.018 0.096 7.25 2.57 14.6
1/8/2022 5:30:00 PM 0.01 32.018 0.096 7.24 2.7 14.5
1/8/2022 5:45:00 PM 0.01 32.018 0.096 7.22 2.58 14.44
1/8/2022 6:00:00 PM -99999.99 -179968 -99999.99 -99999.99 -99999.99 -99999.99
1/8/2022 6:15:00 PM -99999.99 -179968 -99999.99 -99999.99 -99999.99 -99999.99
1/8/2022 6:30:00 PM 0.01 32.018 0.097 7.16 2.52 14.26
1/8/2022 6:45:00 PM 0.01 32.018 0.097 7.15 2.51 14.23
1/8/2022 7:00:00 PM 0.01 32.018 0.097 7.14 2.56 14.2
1/8/2022 7:15:00 PM 0.01 32.018 0.097 7.12 2.53 14.18
1/8/2022 7:30:00 PM 0.01 32.018 0.097 7.1 2.5 14.16
1/8/2022 7:45:00 PM 0.01 32.018 0.097 7.12 2.5 14.14
1/8/2022 8:00:00 PM 0.02 32.036 0.097 7.11 2.46 14.12
1/8/2022 8:15:00 PM 0.02 32.036 0.097 7.11 2.51 14.11
1/8/2022 8:30:00 PM 0.02 32.036 0.097 7.09 2.39 14.1
1/8/2022 8:45:00 PM 0.01 32.018 0.098 7.09 2.43 14.09
1/8/2022 9:00:00 PM 0.02 32.036 0.098 7.09 2.46 14.08
1/8/2022 9:15:00 PM 0.02 32.036 0.098 7.07 2.42 14.07
1/8/2022 9:30:00 PM 0.02 32.036 0.098 7.08 2.43 14.07
1/8/2022 9:45:00 PM 0.03 32.054 0.098 7.08 2.46 14.05
1/8/2022 10:00:00 PM 0.03 32.054 0.098 7.08 2.37 14.05
1/8/2022 10:15:00 PM 0.02 32.036 0.098 7.08 2.46 14.05
1/8/2022 10:30:00 PM 0.02 32.036 0.098 7.08 2.35 14.04
1/8/2022 10:45:00 PM 0.03 32.054 0.098 7.07 2.45 14.03
1/8/2022 11:00:00 PM 0.04 32.072 0.098 7.05 2.42 14.03
1/8/2022 11:15:00 PM 0.04 32.072 0.098 7.07 2.37 14.02
1/8/2022 11:30:00 PM 0.05 32.09 0.098 7.07 2.33 14.01
1/8/2022 11:45:00 PM 0.05 32.09 0.098 7.06 2.39 14.01
1/9/2022 12:00:00 AM 0.05 32.09 0.098 7.06 2.27 14.01
1/9/2022 12:15:00 AM 0.05 32.09 0.098 7.04 2.34 14.01
1/9/2022 12:30:00 AM 0.05 32.09 0.098 7.06 2.38 14
1/9/2022 12:45:00 AM 0.05 32.09 0.098 7.07 2.42 13.99
1/9/2022 1:00:00 AM 0.05 32.09 0.098 7.07 2.35 13.99
1/9/2022 1:15:00 AM 0.05 32.09 0.099 7.07 2.33 13.99
1/9/2022 1:30:00 AM 0.05 32.09 0.099 7.07 2.38 13.99
1/9/2022 1:45:00 AM 0.05 32.09 0.099 7.04 2.32 13.98
1/9/2022 2:00:00 AM 0.05 32.09 0.099 7.07 2.32 13.98
1/9/2022 2:15:00 AM 0.06 32.108 0.099 7.05 2.32 13.98
1/9/2022 2:30:00 AM 0.06 32.108 0.099 7.05 2.31 13.97
1/9/2022 2:45:00 AM 0.06 32.108 0.099 7.07 2.28 13.97
1/9/2022 3:00:00 AM 0.06 32.108 0.098 7.06 2.34 13.97
1/9/2022 3:15:00 AM 0.06 32.108 0.098 7.07 2.33 13.97
1/9/2022 3:30:00 AM 0.06 32.108 0.098 7.04 2.31 13.96
1/9/2022 3:45:00 AM 0.06 32.108 0.098 7.07 2.38 13.96
1/9/2022 4:00:00 AM 0.06 32.108 0.098 7.07 2.25 13.95
1/9/2022 4:15:00 AM 0.06 32.108 0.098 7.05 2.29 13.94
1/9/2022 4:30:00 AM 0.06 32.108 0.098 7.07 2.34 13.94
1/9/2022 4:45:00 AM 0.06 32.108 0.098 7.05 2.37 13.94
1/9/2022 5:00:00 AM 0.06 32.108 0.098 7.07 2.31 13.93
1/9/2022 5:15:00 AM 0.06 32.108 0.098 7.05 2.33 13.93
1/9/2022 5:30:00 AM 0.06 32.108 0.098 7.07 2.25 13.93
1/9/2022 5:45:00 AM 0.07 32.126 0.098 7.06 2.23 13.92
1/9/2022 6:00:00 AM 0.07 32.126 0.098 7.07 2.23 13.92
1/9/2022 6:15:00 AM 0.07 32.126 0.097 7.05 2.33 13.91
1/9/2022 6:30:00 AM 0.07 32.126 0.097 7.07 2.29 13.91
1/9/2022 6:45:00 AM 0.07 32.126 0.097 7.07 2.3 13.91
1/9/2022 7:00:00 AM 0.07 32.126 0.098 7.07 2.27 13.9
1/9/2022 7:15:00 AM 0.07 32.126 0.098 7.07 2.25 13.9
1/9/2022 7:30:00 AM 0.07 32.126 0.099 7.07 2.27 13.89
1/9/2022 7:45:00 AM 0.06 32.108 0.099 7.06 2.29 13.9
1/9/2022 8:00:00 AM 0.06 32.108 0.099 7.06 2.25 13.9
1/9/2022 8:15:00 AM 0.06 32.108 0.098 7.08 2.31 13.92
1/9/2022 8:30:00 AM 0.06 32.108 0.098 7.08 2.27 13.96
1/9/2022 8:45:00 AM 0.07 32.126 0.097 7.09 2.34 14
1/9/2022 9:00:00 AM 0.07 32.126 0.097 7.07 2.31 14.04
1/9/2022 9:15:00 AM 0.07 32.126 0.097 7.1 2.33 14.08
1/9/2022 9:30:00 AM 0.07 32.126 0.097 7.12 2.28 14.13
1/9/2022 9:45:00 AM 0.07 32.126 0.097 7.12 2.32 14.17
1/9/2022 10:00:00 AM 0.07 32.126 0.098 7.12 2.34 14.21
1/9/2022 10:15:00 AM 0.08 32.144 0.099 7.13 2.36 14.26
1/9/2022 10:30:00 AM 0.09 32.162 0.099 7.15 2.34 14.33
1/9/2022 10:45:00 AM 0.09 32.162 0.099 7.17 2.32 14.4
1/9/2022 11:00:00 AM 0.08 32.144 0.098 7.19 2.4 14.44
1/9/2022 11:15:00 AM 0.08 32.144 0.097 7.2 2.37 14.48
1/9/2022 11:30:00 AM 0.08 32.144 0.097 7.21 2.41 14.5
1/9/2022 11:45:00 AM 0.09 32.162 0.096 7.2 2.38 14.55
1/9/2022 12:00:00 PM 0.09 32.162 0.097 7.21 2.38 14.59
1/9/2022 12:15:00 PM 0.09 32.162 0.097 7.23 2.41 14.61
1/9/2022 12:30:00 PM 0.09 32.162 0.097 7.23 2.46 14.62
1/9/2022 12:45:00 PM 0.09 32.162 0.097 7.26 2.4 14.63
1/9/2022 1:00:00 PM 0.09 32.162 0.097 7.26 2.46 14.63
1/9/2022 1:15:00 PM 0.09 32.162 0.096 7.27 2.39 14.64
1/9/2022 1:30:00 PM 0.09 32.162 0.096 7.28 2.42 14.65
1/9/2022 1:45:00 PM 0.09 32.162 0.096 7.28 2.41 14.64
1/9/2022 2:00:00 PM 0.08 32.144 0.097 7.27 2.51 14.61
1/9/2022 2:15:00 PM 0.08 32.144 0.097 7.28 2.44 14.57
1/9/2022 2:30:00 PM 0.08 32.144 0.097 7.25 2.56 14.52
1/9/2022 2:45:00 PM 0.08 32.144 0.098 7.26 2.48 14.46
1/9/2022 3:00:00 PM 0.08 32.144 0.098 7.26 2.5 14.41
1/9/2022 3:15:00 PM 0.08 32.144 0.098 7.24 2.53 14.36
1/9/2022 3:30:00 PM 0.08 32.144 0.098 7.23 2.5 14.3
1/9/2022 3:45:00 PM 0.09 32.162 0.098 7.2 2.5 14.26
1/9/2022 4:00:00 PM 0.09 32.162 0.098 7.21 2.5 14.21
1/9/2022 4:15:00 PM 0.1 32.18 0.098 7.2 2.5 14.16
1/9/2022 4:30:00 PM 0.1 32.18 0.098 7.15 2.49 14.11
1/9/2022 4:45:00 PM 0.1 32.18 0.098 7.16 2.61 14.06
1/9/2022 5:00:00 PM 0.11 32.198 0.098 7.16 2.56 14.01
1/9/2022 5:15:00 PM 0.12 32.216 0.099 7.16 2.55 13.96
1/9/2022 5:30:00 PM 0.12 32.216 0.099 7.15 2.6 13.92
1/9/2022 5:45:00 PM 0.13 32.234 0.099 7.14 2.73 13.89
1/9/2022 6:00:00 PM 0.14 32.252 0.1 7.13 2.63 13.86
1/9/2022 6:15:00 PM 0.14 32.252 0.1 7.12 2.67 13.83
1/9/2022 6:30:00 PM 0.15 32.27 0.1 7.09 2.67 13.81
1/9/2022 6:45:00 PM 0.16 32.288 0.1 7.12 2.57 13.8
1/9/2022 7:00:00 PM 0.16 32.288 0.1 7.11 2.62 13.78
1/9/2022 7:15:00 PM 0.17 32.306 0.1 7.11 2.57 13.77
1/9/2022 7:30:00 PM 0.18 32.324 0.1 7.08 2.68 13.76
1/9/2022 7:45:00 PM 0.19 32.342 0.1 7.1 2.56 13.76
1/9/2022 8:00:00 PM 0.2 32.36 0.1 7.09 2.52 13.76
1/9/2022 8:15:00 PM 0.2 32.36 0.1 7.1 2.68 13.75
1/9/2022 8:30:00 PM 0.21 32.378 0.1 7.09 2.73 13.74
1/9/2022 8:45:00 PM 0.21 32.378 0.1 7.1 2.59 13.74
1/9/2022 9:00:00 PM 0.22 32.396 0.101 7.06 2.49 13.75
1/9/2022 9:15:00 PM 0.22 32.396 0.101 7.1 2.68 13.75
1/9/2022 9:30:00 PM 0.22 32.396 0.101 7.1 2.61 13.75
1/9/2022 9:45:00 PM 0.23 32.414 0.101 7.09 2.67 13.74
1/9/2022 10:00:00 PM 0.24 32.432 0.101 7.09 2.68 13.74
1/9/2022 10:15:00 PM 0.24 32.432 0.101 7.1 2.77 13.74
1/9/2022 10:30:00 PM 0.24 32.432 0.101 7.09 2.6 13.74
1/9/2022 10:45:00 PM 0.24 32.432 0.101 7.09 2.5 13.75
1/9/2022 11:00:00 PM 0.25 32.45 0.101 7.1 2.58 13.75
1/9/2022 11:15:00 PM 0.25 32.45 0.101 7.1 2.61 13.75
1/9/2022 11:30:00 PM 0.25 32.45 0.101 7.1 2.54 13.75
1/9/2022 11:45:00 PM 0.24 32.432 0.101 7.08 2.55 13.75
1/10/2022 12:00:00 AM 0.23 32.414 0.101 7.07 2.54 13.76
1/10/2022 12:15:00 AM 0.22 32.396 0.101 7.1 2.53 13.77
1/10/2022 12:30:00 AM 0.2 32.36 0.101 7.09 2.6 13.77
1/10/2022 12:45:00 AM 0.18 32.324 0.101 7.06 2.68 13.78
1/10/2022 1:00:00 AM 0.16 32.288 0.101 7.1 2.51 13.79
1/10/2022 1:15:00 AM 0.13 32.234 0.101 7.1 2.72 13.8
1/10/2022 1:30:00 AM 0.11 32.198 0.101 7.06 2.71 13.81
1/10/2022 1:45:00 AM 0.09 32.162 0.101 7.1 2.65 13.82
1/10/2022 2:00:00 AM 0.07 32.126 0.101 7.09 2.58 13.84
1/10/2022 2:15:00 AM 0.04 32.072 0.101 7.09 2.66 13.85
1/10/2022 2:30:00 AM 0.02 32.036 0.102 7.1 2.57 13.86
1/10/2022 2:45:00 AM 0 32 0.102 7.1 2.61 13.87
1/10/2022 3:00:00 AM -0.01 31.982 0.102 7.09 2.62 13.87
1/10/2022 3:15:00 AM -0.02 31.964 0.102 7.09 2.67 13.9
1/10/2022 3:30:00 AM -0.02 31.964 0.102 7.1 2.59 13.91
1/10/2022 3:45:00 AM -0.01 31.982 0.102 7.09 2.65 13.91
1/10/2022 4:00:00 AM -0.01 31.982 0.102 7.09 2.5 13.92
1/10/2022 4:15:00 AM -0.01 31.982 0.102 7.09 2.62 13.92
1/10/2022 4:30:00 AM 0 32 0.102 7.08 2.64 13.93
1/10/2022 4:45:00 AM 0 32 0.102 7.08 2.7 13.93
1/10/2022 5:00:00 AM 0 32 0.102 7.07 2.6 13.93
1/10/2022 5:15:00 AM 0 32 0.102 7.06 2.53 13.94
1/10/2022 5:30:00 AM 0 32 0.103 7.09 2.63 13.94
1/10/2022 5:45:00 AM 0 32 0.103 7.07 2.55 13.95
1/10/2022 6:00:00 AM 0 32 0.103 7.07 2.58 13.95
1/10/2022 6:15:00 AM 0 32 0.103 7.08 2.5 13.95
1/10/2022 6:30:00 AM 0.01 32.018 0.103 7.08 2.51 13.95
1/10/2022 6:45:00 AM 0.02 32.036 0.103 7.08 2.46 13.94
1/10/2022 7:00:00 AM 0.03 32.054 0.103 7.05 2.54 13.95
1/10/2022 7:15:00 AM 0.03 32.054 0.103 7.08 2.5 13.95
1/10/2022 7:30:00 AM 0.02 32.036 0.103 7.07 2.54 13.95
1/10/2022 7:45:00 AM 0.02 32.036 0.103 7.08 2.5 13.96
1/10/2022 8:00:00 AM 0.01 32.018 0.103 7.08 2.51 14
1/10/2022 8:15:00 AM 0 32 0.103 7.09 2.45 14.07
1/10/2022 8:30:00 AM 0 32 0.103 7.09 2.51 14.13
1/10/2022 8:45:00 AM 0 32 0.103 7.1 2.52 14.21
1/10/2022 9:00:00 AM 0 32 0.103 7.1 2.51 14.29
1/10/2022 9:15:00 AM 0 32 0.103 7.13 2.54 14.37
1/10/2022 9:30:00 AM 0 32 0.103 7.14 2.44 14.45
1/10/2022 9:45:00 AM 0.01 32.018 0.103 7.16 2.42 14.52
1/10/2022 10:00:00 AM 0.03 32.054 0.103 7.16 2.41 14.6
1/10/2022 10:15:00 AM 0.04 32.072 0.103 7.15 2.47 14.67
1/10/2022 10:30:00 AM 0.06 32.108 0.103 7.2 2.52 14.74
1/10/2022 10:45:00 AM 0.08 32.144 0.103 7.22 2.48 14.81
1/10/2022 11:00:00 AM 0.07 32.126 0.102 7.24 2.45 14.86
1/10/2022 11:15:00 AM 0.1 32.18 0.102 7.25 2.37 14.92
1/10/2022 11:30:00 AM 0.12 32.216 0.102 7.26 2.44 14.95
1/10/2022 11:45:00 AM 0.14 32.252 0.102 7.3 2.37 14.98
1/10/2022 12:00:00 PM 0.18 32.324 0.102 7.32 2.45 15.02
1/10/2022 12:15:00 PM 0.2 32.36 0.102 7.33 2.39 15.02
1/10/2022 12:30:00 PM 0.26 32.468 0.102 7.35 2.42 15.04
1/10/2022 12:45:00 PM 0.22 32.396 0.102 7.33 2.42 15.02
1/10/2022 1:00:00 PM 0.16 32.288 0.102 7.37 2.5 15.02
1/10/2022 1:15:00 PM 0.15 32.27 0.102 7.38 2.43 15.02
1/10/2022 1:30:00 PM 0.14 32.252 0.102 7.35 2.46 15.02
1/10/2022 1:45:00 PM 0.14 32.252 0.102 7.39 2.46 15
1/10/2022 2:00:00 PM 0.14 32.252 0.102 7.39 2.45 14.99
1/10/2022 2:15:00 PM 0.15 32.27 0.102 7.39 2.41 14.98
1/10/2022 2:30:00 PM 0.14 32.252 0.102 7.39 2.48 14.96
1/10/2022 2:45:00 PM 0.11 32.198 0.101 7.38 2.45 14.94
1/10/2022 3:00:00 PM 0.09 32.162 0.101 7.38 2.43 14.91
1/10/2022 3:15:00 PM 0.06 32.108 0.101 7.35 2.46 14.88
1/10/2022 3:30:00 PM 0.05 32.09 0.101 7.36 2.4 14.86
1/10/2022 3:45:00 PM 0.03 32.054 0.101 7.37 2.42 14.82
1/10/2022 4:00:00 PM 0.03 32.054 0.101 7.36 2.45 14.8
1/10/2022 4:15:00 PM 0.02 32.036 0.101 7.35 2.49 14.77
1/10/2022 4:30:00 PM 0.01 32.018 0.101 7.34 2.54 14.74
1/10/2022 4:45:00 PM 0.01 32.018 0.101 7.3 2.49 14.66
1/10/2022 5:00:00 PM 0.01 32.018 0.101 7.29 2.59 14.57
1/10/2022 5:15:00 PM 0.01 32.018 0.101 7.25 2.49 14.46
1/10/2022 5:30:00 PM 0 32 0.101 7.25 2.46 14.36
1/10/2022 5:45:00 PM 0.01 32.018 0.101 7.22 2.45 14.28
1/10/2022 6:00:00 PM 0.01 32.018 0.101 7.2 2.41 14.22
1/10/2022 6:15:00 PM 0.02 32.036 0.102 7.18 2.42 14.16
1/10/2022 6:30:00 PM 0.01 32.018 0.102 7.16 2.46 14.1
1/10/2022 6:45:00 PM 0.01 32.018 0.102 7.16 2.38 14.07
1/10/2022 7:00:00 PM 0.01 32.018 0.102 7.15 2.39 14.04
1/10/2022 7:15:00 PM 0.02 32.036 0.102 7.14 2.33 14.02
1/10/2022 7:30:00 PM 0.01 32.018 0.103 7.13 2.35 14
1/10/2022 7:45:00 PM 0.01 32.018 0.103 7.11 2.34 13.99
1/10/2022 8:00:00 PM 0.02 32.036 0.103 7.12 2.4 13.97
1/10/2022 8:15:00 PM 0.02 32.036 0.103 7.08 2.31 13.95
1/10/2022 8:30:00 PM 0 32 0.103 7.09 2.34 13.95
1/10/2022 8:45:00 PM 0 32 0.103 7.11 2.37 13.94
1/10/2022 9:00:00 PM 0 32 0.104 7.1 2.31 13.92
1/10/2022 9:15:00 PM 0 32 0.104 7.1 2.28 13.92
1/10/2022 9:30:00 PM 0 32 0.104 7.09 2.31 13.92
1/10/2022 9:45:00 PM 0 32 0.104 7.06 2.32 13.91
1/10/2022 10:00:00 PM -0.01 31.982 0.104 7.07 2.31 13.91
1/10/2022 10:15:00 PM -0.02 31.964 0.104 7.08 2.31 13.91
1/10/2022 10:30:00 PM -0.02 31.964 0.104 7.05 2.32 13.91
1/10/2022 10:45:00 PM -0.02 31.964 0.104 7.07 2.29 13.92
1/10/2022 11:00:00 PM -0.02 31.964 0.104 7.07 2.28 13.91
1/10/2022 11:15:00 PM -0.02 31.964 0.105 7.06 2.28 13.91
1/10/2022 11:30:00 PM -0.02 31.964 0.105 7.05 2.31 13.9
1/10/2022 11:45:00 PM -0.02 31.964 0.105 7.05 2.29 13.92
1/11/2022 12:00:00 AM -0.02 31.964 0.105 7.06 2.32 13.92
1/11/2022 12:15:00 AM -0.01 31.982 0.105 7.05 2.31 13.9
1/11/2022 12:30:00 AM -0.01 31.982 0.105 7.05 2.22 13.9
1/11/2022 12:45:00 AM -0.01 31.982 0.105 7.04 2.29 13.9
1/11/2022 1:00:00 AM 0 32 0.105 7.03 2.27 13.89
1/11/2022 1:15:00 AM 0 32 0.105 7.03 2.27 13.89
1/11/2022 1:30:00 AM 0 32 0.105 7.03 2.22 13.88
1/11/2022 1:45:00 AM 0 32 0.106 7 2.23 13.88
1/11/2022 2:00:00 AM 0 32 0.106 7.02 2.24 13.87
1/11/2022 2:15:00 AM 0 32 0.106 7.02 2.25 13.87
1/11/2022 2:30:00 AM 0.01 32.018 0.106 7.02 2.26 13.87
1/11/2022 2:45:00 AM 0.01 32.018 0.106 7.02 2.22 13.86
1/11/2022 3:00:00 AM 0 32 0.106 7.01 2.18 13.85
1/11/2022 3:15:00 AM 0 32 0.106 7.01 2.25 13.84
1/11/2022 3:30:00 AM 0 32 0.106 7.01 2.21 13.84
1/11/2022 3:45:00 AM 0 32 0.106 7.01 2.22 13.84
1/11/2022 4:00:00 AM 0.01 32.018 0.106 7.01 2.17 13.84
1/11/2022 4:15:00 AM 0.01 32.018 0.106 7.01 2.24 13.84
1/11/2022 4:30:00 AM 0 32 0.106 7.01 2.22 13.83
1/11/2022 4:45:00 AM 0 32 0.106 6.98 2.15 13.84
1/11/2022 5:00:00 AM 0 32 0.107 6.99 2.17 13.85
1/11/2022 5:15:00 AM 0 32 0.107 6.98 2.21 13.85
1/11/2022 5:30:00 AM 0 32 0.107 7.01 2.15 13.85
1/11/2022 5:45:00 AM 0.01 32.018 0.107 7 2.15 13.85
1/11/2022 6:00:00 AM 0.01 32.018 0.107 7 2.14 13.85
1/11/2022 6:15:00 AM 0 32 0.107 6.98 2.18 13.85
1/11/2022 6:30:00 AM 0 32 0.107 7 2.16 13.85
1/11/2022 6:45:00 AM 0 32 0.107 6.99 2.17 13.86
1/11/2022 7:00:00 AM 0 32 0.107 7 2.22 13.85
1/11/2022 7:15:00 AM 0 32 0.108 7 2.18 13.85
1/11/2022 7:30:00 AM 0.01 32.018 0.108 6.99 2.17 13.86
1/11/2022 7:45:00 AM 0.01 32.018 0.108 6.99 2.2 13.86
1/11/2022 8:00:00 AM 0.02 32.036 0.108 6.99 2.18 13.89
1/11/2022 8:15:00 AM 0.02 32.036 0.108 6.99 2.21 13.91
1/11/2022 8:30:00 AM 0.02 32.036 0.108 7 2.21 13.96
1/11/2022 8:45:00 AM 0.03 32.054 0.108 7 2.17 14.03
1/11/2022 9:00:00 AM 0.03 32.054 0.108 7 2.15 14.08
1/11/2022 9:15:00 AM 0.04 32.072 0.108 6.99 2.19 14.15
1/11/2022 9:30:00 AM 0.06 32.108 0.108 7.02 2.19 14.26
1/11/2022 9:45:00 AM 0.07 32.126 0.108 7.03 2.34 14.35
1/11/2022 10:00:00 AM 0.09 32.162 0.108 7.04 2.2 14.41
1/11/2022 10:15:00 AM 0.1 32.18 0.108 7.05 2.17 14.51
1/11/2022 10:30:00 AM 0.11 32.198 0.108 7.06 2.19 14.56
1/11/2022 10:45:00 AM 0.13 32.234 0.108 7.07 2.15 14.67
1/11/2022 11:00:00 AM 0.16 32.288 0.107 7.09 2.14 14.76
1/11/2022 11:15:00 AM 0.17 32.306 0.107 7.06 2.16 14.82
1/11/2022 11:30:00 AM 0.18 32.324 0.107 7.12 2.14 14.89
1/11/2022 11:45:00 AM 0.21 32.378 0.107 7.14 2.13 14.97
1/11/2022 12:00:00 PM 0.22 32.396 0.107 7.16 2.14 15.03
1/11/2022 12:15:00 PM 0.24 32.432 0.107 7.15 2.17 15.08
1/11/2022 12:30:00 PM 0.24 32.432 0.107 7.2 2.16 15.13
1/11/2022 12:45:00 PM 0.23 32.414 0.107 7.22 2.17 15.16
1/11/2022 1:00:00 PM 0.21 32.378 0.107 7.24 2.23 15.2
1/11/2022 1:15:00 PM 0.19 32.342 0.107 7.28 2.27 15.23
1/11/2022 1:30:00 PM 0.18 32.324 0.107 7.29 2.31 15.25
1/11/2022 1:45:00 PM 0.17 32.306 0.107 7.31 2.36 15.27
1/11/2022 2:00:00 PM 0.15 32.27 0.107 7.33 2.48 15.28
1/11/2022 2:15:00 PM 0.14 32.252 0.107 7.3 2.37 15.3
1/11/2022 2:30:00 PM 0.13 32.234 0.107 7.36 2.4 15.31
1/11/2022 2:45:00 PM 0.11 32.198 0.107 7.36 2.41 15.31
1/11/2022 3:00:00 PM 0.11 32.198 0.107 7.37 2.44 15.31
1/11/2022 3:15:00 PM 0.1 32.18 0.107 7.37 2.47 15.29
1/11/2022 3:30:00 PM 0.09 32.162 0.107 7.36 2.45 15.27
1/11/2022 3:45:00 PM 0.07 32.126 0.107 7.32 2.49 15.23
1/11/2022 4:00:00 PM 0.06 32.108 0.107 7.33 2.46 15.18
1/11/2022 4:15:00 PM 0.05 32.09 0.107 7.31 2.43 15.13
1/11/2022 4:30:00 PM 0.04 32.072 0.107 7.3 2.43 15.06
1/11/2022 4:45:00 PM 0.04 32.072 0.107 7.29 2.45 14.98
1/11/2022 5:00:00 PM 0.03 32.054 0.107 7.27 2.44 14.87
1/11/2022 5:15:00 PM 0.03 32.054 0.107 7.21 2.46 14.77
1/11/2022 5:30:00 PM 0.03 32.054 0.108 7.21 2.52 14.67
1/11/2022 5:45:00 PM 0.03 32.054 0.108 7.18 2.33 14.56
1/11/2022 6:00:00 PM 0.03 32.054 0.108 7.18 2.33 14.48
1/11/2022 6:15:00 PM 0.03 32.054 0.108 7.17 2.41 14.41
1/11/2022 6:30:00 PM 0.03 32.054 0.108 7.12 2.36 14.35
1/11/2022 6:45:00 PM 0.03 32.054 0.108 7.14 2.41 14.29
1/11/2022 7:00:00 PM 0.03 32.054 0.108 7.12 2.41 14.25
1/11/2022 7:15:00 PM 0.03 32.054 0.108 7.1 2.29 14.2
1/11/2022 7:30:00 PM 0.03 32.054 0.108 7.1 2.34 14.16
1/11/2022 7:45:00 PM 0.03 32.054 0.108 7.09 2.35 14.13
1/11/2022 8:00:00 PM 0.03 32.054 0.108 7.08 2.37 14.1
1/11/2022 8:15:00 PM 0.03 32.054 0.108 7.04 2.35 14.08
1/11/2022 8:30:00 PM 0.03 32.054 0.108 7.06 2.3 14.05
1/11/2022 8:45:00 PM 0.04 32.072 0.108 7.04 2.33 14.03
1/11/2022 9:00:00 PM 0.04 32.072 0.108 7.05 2.4 14.01
1/11/2022 9:15:00 PM 0.04 32.072 0.108 7.04 2.36 13.99
1/11/2022 9:30:00 PM 0.04 32.072 0.108 7.02 2.35 13.97
1/11/2022 9:45:00 PM 0.04 32.072 0.108 7.03 2.33 13.96
1/11/2022 10:00:00 PM 0.04 32.072 0.108 7.03 2.38 13.94
1/11/2022 10:15:00 PM 0.04 32.072 0.108 7.02 2.43 13.93
1/11/2022 10:30:00 PM 0.04 32.072 0.108 6.99 2.34 13.91
1/11/2022 10:45:00 PM 0.04 32.072 0.108 7.02 2.26 13.9
1/11/2022 11:00:00 PM 0.04 32.072 0.108 7.01 2.37 13.89
1/11/2022 11:15:00 PM 0.04 32.072 0.108 6.99 2.36 13.89
1/11/2022 11:30:00 PM 0.04 32.072 0.108 7.01 2.35 13.87
1/11/2022 11:45:00 PM 0.04 32.072 0.108 7 2.28 13.86
1/12/2022 12:00:00 AM 0.05 32.09 0.108 6.99 2.36 13.85
1/12/2022 12:15:00 AM 0.05 32.09 0.108 7 2.33 13.84
1/12/2022 12:30:00 AM 0.05 32.09 0.108 6.99 2.32 13.83
1/12/2022 12:45:00 AM 0.05 32.09 0.109 6.98 2.3 13.82
1/12/2022 1:00:00 AM 0.05 32.09 0.109 6.99 2.34 13.81
1/12/2022 1:15:00 AM 0.05 32.09 0.109 6.99 2.29 13.81
1/12/2022 1:30:00 AM 0.05 32.09 0.109 6.98 2.32 13.79
1/12/2022 1:45:00 AM 0.05 32.09 0.109 6.96 2.37 13.78
1/12/2022 2:00:00 AM 0.05 32.09 0.109 6.98 2.28 13.77
1/12/2022 2:15:00 AM 0.05 32.09 0.109 6.98 2.42 13.77
1/12/2022 2:30:00 AM 0.05 32.09 0.109 6.98 2.38 13.76
1/12/2022 2:45:00 AM 0.05 32.09 0.109 6.95 2.3 13.76
1/12/2022 3:00:00 AM 0.05 32.09 0.109 6.98 2.3 13.75
1/12/2022 3:15:00 AM 0.05 32.09 0.109 6.98 2.37 13.74
1/12/2022 3:30:00 AM 0.05 32.09 0.11 6.94 2.38 13.74
1/12/2022 3:45:00 AM 0.05 32.09 0.11 6.98 2.29 13.73
1/12/2022 4:00:00 AM 0.05 32.09 0.11 6.98 2.3 13.73
1/12/2022 4:15:00 AM 0.06 32.108 0.11 6.97 2.26 13.72
1/12/2022 4:30:00 AM 0.06 32.108 0.11 6.97 2.34 13.71
1/12/2022 4:45:00 AM 0.06 32.108 0.11 6.96 2.31 13.71
1/12/2022 5:00:00 AM 0.06 32.108 0.11 6.97 2.28 13.7
1/12/2022 5:15:00 AM 0.06 32.108 0.11 6.97 2.29 13.7
1/12/2022 5:30:00 AM 0.06 32.108 0.11 6.97 2.32 13.68
1/12/2022 5:45:00 AM 0.06 32.108 0.11 6.97 2.26 13.68
1/12/2022 6:00:00 AM 0.06 32.108 0.11 6.97 2.37 13.68
1/12/2022 6:15:00 AM 0.07 32.126 0.11 6.97 2.29 13.67
1/12/2022 6:30:00 AM 0.07 32.126 0.11 6.97 2.33 13.66
1/12/2022 6:45:00 AM 0.07 32.126 0.11 6.97 2.3 13.66
1/12/2022 7:00:00 AM 0.07 32.126 0.11 6.97 2.31 13.66
1/12/2022 7:15:00 AM 0.07 32.126 0.11 6.97 2.25 13.65
1/12/2022 7:30:00 AM 0.07 32.126 0.11 6.97 2.3 13.64
1/12/2022 7:45:00 AM 0.07 32.126 0.11 6.97 2.28 13.65
1/12/2022 8:00:00 AM 0.07 32.126 0.11 6.95 2.32 13.69
1/12/2022 8:15:00 AM 0.08 32.144 0.11 6.98 2.25 13.74
1/12/2022 8:30:00 AM 0.09 32.162 0.11 6.99 2.24 13.82
1/12/2022 8:45:00 AM 0.1 32.18 0.11 7 2.32 13.92
1/12/2022 9:00:00 AM 0.11 32.198 0.11 7.01 2.23 14.01
1/12/2022 9:15:00 AM 0.12 32.216 0.11 7.02 2.28 14.11
1/12/2022 9:30:00 AM 0.13 32.234 0.11 7.04 2.27 14.23
1/12/2022 9:45:00 AM 0.14 32.252 0.11 7.05 2.34 14.34
1/12/2022 10:00:00 AM 0.15 32.27 0.109 7.05 2.32 14.44
1/12/2022 10:15:00 AM 0.16 32.288 0.109 7.08 2.29 14.53
1/12/2022 10:30:00 AM 0.18 32.324 0.109 7.1 2.31 14.63
1/12/2022 10:45:00 AM 0.2 32.36 0.109 7.12 2.46 14.71
1/12/2022 11:00:00 AM 0.2 32.36 0.109 7.11 2.37 14.78
1/12/2022 11:15:00 AM 0.21 32.378 0.109 7.16 2.32 14.86
1/12/2022 11:30:00 AM 0.24 32.432 0.108 7.18 2.41 14.93
1/12/2022 11:45:00 AM 0.25 32.45 0.108 7.21 2.42 14.97
1/12/2022 12:00:00 PM 0.25 32.45 0.108 7.22 2.5 15.02
1/12/2022 12:15:00 PM 0.26 32.468 0.108 7.24 2.41 15.06
1/12/2022 12:30:00 PM 0.24 32.432 0.108 7.27 2.51 15.09
1/12/2022 12:45:00 PM 0.23 32.414 0.107 7.29 2.48 15.13
1/12/2022 1:00:00 PM 0.2 32.36 0.107 7.29 2.6 15.15
1/12/2022 1:15:00 PM 0.16 32.288 0.107 7.3 2.66 15.15
1/12/2022 1:30:00 PM 0.15 32.27 0.107 7.34 2.59 15.17
1/12/2022 1:45:00 PM 0.17 32.306 0.107 7.35 2.69 15.17
1/12/2022 2:00:00 PM 0.16 32.288 0.107 7.36 2.66 15.16
1/12/2022 2:15:00 PM 0.14 32.252 0.107 7.37 2.68 15.16
1/12/2022 2:30:00 PM 0.13 32.234 0.106 7.38 2.76 15.14
1/12/2022 2:45:00 PM 0.14 32.252 0.106 7.37 2.78 15.14
1/12/2022 3:00:00 PM 0.15 32.27 0.106 7.39 2.75 15.14
1/12/2022 3:15:00 PM 0.14 32.252 0.106 7.38 2.74 15.12
1/12/2022 3:30:00 PM 0.11 32.198 0.106 7.38 2.73 15.09
1/12/2022 3:45:00 PM 0.1 32.18 0.106 7.36 2.78 15.05
1/12/2022 4:00:00 PM 0.09 32.162 0.105 7.35 2.82 15
1/12/2022 4:15:00 PM 0.09 32.162 0.105 7.36 2.83 14.92
1/12/2022 4:30:00 PM 0.08 32.144 0.105 7.34 2.79 14.83
1/12/2022 4:45:00 PM 0.08 32.144 0.105 7.32 2.83 14.75
1/12/2022 5:00:00 PM 0.07 32.126 0.105 7.27 2.93 14.62
1/12/2022 5:15:00 PM 0.07 32.126 0.105 7.27 2.92 14.51
1/12/2022 5:30:00 PM 0.07 32.126 0.105 7.25 2.77 14.4
1/12/2022 5:45:00 PM 0.07 32.126 0.105 7.21 2.86 14.29
1/12/2022 6:00:00 PM 0.07 32.126 0.105 7.18 2.84 14.21
1/12/2022 6:15:00 PM 0.07 32.126 0.105 7.17 2.8 14.13
1/12/2022 6:30:00 PM 0.07 32.126 0.104 7.16 2.84 14.07
1/12/2022 6:45:00 PM 0.07 32.126 0.104 7.15 2.92 14.01
1/12/2022 7:00:00 PM 0.07 32.126 0.104 7.12 2.83 13.96
1/12/2022 7:15:00 PM 0.07 32.126 0.104 7.12 2.85 13.93
1/12/2022 7:30:00 PM 0.07 32.126 0.104 7.11 2.77 13.88
1/12/2022 7:45:00 PM 0.07 32.126 0.104 7.09 2.8 13.86
1/12/2022 8:00:00 PM 0.07 32.126 0.104 7.1 2.78 13.83
1/12/2022 8:15:00 PM 0.07 32.126 0.104 7.06 2.82 13.81
1/12/2022 8:30:00 PM 0.07 32.126 0.104 7.08 2.78 13.79
1/12/2022 8:45:00 PM 0.07 32.126 0.104 7.07 2.7 13.78
1/12/2022 9:00:00 PM 0.07 32.126 0.104 7.07 2.76 13.76
1/12/2022 9:15:00 PM 0.07 32.126 0.104 7.05 2.69 13.75
1/12/2022 9:30:00 PM 0.07 32.126 0.104 7.06 2.92 13.74
1/12/2022 9:45:00 PM 0.07 32.126 0.104 7.06 2.76 13.73
1/12/2022 10:00:00 PM 0.07 32.126 0.104 7.05 2.82 13.72
1/12/2022 10:15:00 PM 0.08 32.144 0.104 7.05 2.79 13.72
1/12/2022 10:30:00 PM 0.08 32.144 0.103 7.05 2.71 13.71
1/12/2022 10:45:00 PM 0.08 32.144 0.103 7.02 2.76 13.71
1/12/2022 11:00:00 PM 0.08 32.144 0.103 7.04 2.77 13.71
1/12/2022 11:15:00 PM 0.08 32.144 0.103 7.02 2.93 13.7
1/12/2022 11:30:00 PM 0.08 32.144 0.103 7.04 2.78 13.7
1/12/2022 11:45:00 PM 0.08 32.144 0.103 7.04 2.74 13.69
1/13/2022 12:00:00 AM 0.08 32.144 0.103 7.02 2.73 13.69
1/13/2022 12:15:00 AM 0.08 32.144 0.103 7.04 2.69 13.69
1/13/2022 12:30:00 AM 0.08 32.144 0.103 7.03 2.8 13.69
1/13/2022 12:45:00 AM 0.08 32.144 0.103 7.03 2.72 13.68
1/13/2022 1:00:00 AM 0.08 32.144 0.103 7.03 2.79 13.68
1/13/2022 1:15:00 AM 0.08 32.144 0.103 7.03 2.84 13.68
1/13/2022 1:30:00 AM 0.08 32.144 0.103 7.03 2.79 13.67
1/13/2022 1:45:00 AM 0.08 32.144 0.103 7.03 2.79 13.67
1/13/2022 2:00:00 AM 0.08 32.144 0.103 7.03 2.91 13.67
1/13/2022 2:15:00 AM 0.08 32.144 0.103 7.03 2.73 13.67
1/13/2022 2:30:00 AM 0.08 32.144 0.103 7.02 2.73 13.68
1/13/2022 2:45:00 AM 0.09 32.162 0.103 7.02 2.71 13.67
1/13/2022 3:00:00 AM 0.09 32.162 0.103 7.03 2.91 13.67
1/13/2022 3:15:00 AM 0.09 32.162 0.103 7.03 2.81 13.66
1/13/2022 3:30:00 AM 0.09 32.162 0.103 7.03 2.85 13.66
1/13/2022 3:45:00 AM 0.09 32.162 0.103 7.03 2.74 13.66
1/13/2022 4:00:00 AM 0.09 32.162 0.103 7.02 2.69 13.66
1/13/2022 4:15:00 AM 0.09 32.162 0.103 7.02 2.66 13.66
1/13/2022 4:30:00 AM 0.09 32.162 0.103 7.03 2.85 13.66
1/13/2022 4:45:00 AM 0.09 32.162 0.103 7.03 2.78 13.65
1/13/2022 5:00:00 AM 0.09 32.162 0.102 6.99 2.71 13.66
1/13/2022 5:15:00 AM 0.09 32.162 0.102 7.03 2.77 13.65
1/13/2022 5:30:00 AM 0.09 32.162 0.102 7 2.76 13.65
1/13/2022 5:45:00 AM 0.09 32.162 0.102 7.01 2.93 13.65
1/13/2022 6:00:00 AM 0.09 32.162 0.102 7.02 2.81 13.65
1/13/2022 6:15:00 AM 0.09 32.162 0.102 7.02 2.71 13.65
1/13/2022 6:30:00 AM 0.09 32.162 0.102 7 2.83 13.65
1/13/2022 6:45:00 AM 0.09 32.162 0.102 7.02 2.79 13.65
1/13/2022 7:00:00 AM 0.08 32.144 0.102 7.02 2.8 13.65
1/13/2022 7:15:00 AM 0.08 32.144 0.102 7.02 2.68 13.65
1/13/2022 7:30:00 AM 0.08 32.144 0.102 7.01 2.78 13.65
1/13/2022 7:45:00 AM 0.09 32.162 0.102 7.03 2.74 13.67
1/13/2022 8:00:00 AM 0.09 32.162 0.102 7.03 2.87 13.69
1/13/2022 8:15:00 AM 0.1 32.18 0.102 7 2.72 13.73
1/13/2022 8:30:00 AM 0.1 32.18 0.101 7.04 2.78 13.77
1/13/2022 8:45:00 AM 0.1 32.18 0.101 7.03 2.85 13.83
1/13/2022 9:00:00 AM 0.11 32.198 0.101 7.06 2.74 13.89
1/13/2022 9:15:00 AM 0.12 32.216 0.101 7.07 2.69 13.99
1/13/2022 9:30:00 AM 0.13 32.234 0.101 7.06 2.68 14.11
1/13/2022 9:45:00 AM 0.13 32.234 0.101 7.1 2.99 14.21
1/13/2022 10:00:00 AM 0.15 32.27 0.101 7.12 2.78 14.32
1/13/2022 10:15:00 AM 0.17 32.306 0.1 7.15 2.82 14.44
1/13/2022 10:30:00 AM 0.21 32.378 0.1 7.16 2.73 14.55
1/13/2022 10:45:00 AM 0.27 32.486 0.1 7.2 2.77 14.67
1/13/2022 11:00:00 AM 0.3 32.54 0.1 7.2 2.76 14.75
1/13/2022 11:15:00 AM 0.32 32.576 0.099 7.25 2.89 14.81
1/13/2022 11:30:00 AM 0.32 32.576 0.099 7.27 2.8 14.86
1/13/2022 11:45:00 AM 0.3 32.54 0.099 7.27 2.72 14.89
1/13/2022 12:00:00 PM 0.27 32.486 0.099 7.3 2.77 14.9
1/13/2022 12:15:00 PM 0.25 32.45 0.098 7.31 2.87 14.92
1/13/2022 12:30:00 PM 0.24 32.432 0.098 7.3 2.94 14.94
1/13/2022 12:45:00 PM 0.24 32.432 0.098 7.34 3.08 14.96
1/13/2022 1:00:00 PM 0.25 32.45 0.098 7.36 2.97 14.98
1/13/2022 1:15:00 PM 0.25 32.45 0.097 7.37 3.03 14.98
1/13/2022 1:30:00 PM 0.26 32.468 0.097 7.39 2.93 14.99
1/13/2022 1:45:00 PM 0.27 32.486 0.097 7.39 2.79 14.98
1/13/2022 2:00:00 PM 0.26 32.468 0.097 7.4 2.83 14.97
1/13/2022 2:15:00 PM 0.25 32.45 0.097 7.41 2.88 14.96
1/13/2022 2:30:00 PM 0.26 32.468 0.097 7.41 3.02 14.96
1/13/2022 2:45:00 PM 0.26 32.468 0.097 7.42 2.86 14.95
1/13/2022 3:00:00 PM 0.24 32.432 0.097 7.43 3.01 14.93
1/13/2022 3:15:00 PM 0.21 32.378 0.096 7.42 3.18 14.9
1/13/2022 3:30:00 PM 0.17 32.306 0.096 7.42 3.27 14.85
1/13/2022 3:45:00 PM 0.15 32.27 0.096 7.36 3.29 14.8
1/13/2022 4:00:00 PM 0.14 32.252 0.096 7.38 3.73 14.74
1/13/2022 4:15:00 PM 0.13 32.234 0.097 7.36 3.89 14.67
1/13/2022 4:30:00 PM 0.11 32.198 0.097 7.32 4.91 14.6
1/13/2022 4:45:00 PM 0.1 32.18 0.097 7.31 4.76 14.49
1/13/2022 5:00:00 PM 0.09 32.162 0.097 7.29 4.61 14.38
1/13/2022 5:15:00 PM 0.08 32.144 0.097 7.24 4.36 14.28
1/13/2022 5:30:00 PM 0.08 32.144 0.097 7.24 4.64 14.18
1/13/2022 5:45:00 PM 0.08 32.144 0.098 7.22 3.93 14.09
1/13/2022 6:00:00 PM 0.07 32.126 0.098 7.2 4.04 14.02
1/13/2022 6:15:00 PM 0.07 32.126 0.098 7.18 3.83 13.96
1/13/2022 6:30:00 PM 0.07 32.126 0.098 7.17 3.98 13.92
1/13/2022 6:45:00 PM 0.07 32.126 0.098 7.15 4.04 13.87
1/13/2022 7:00:00 PM 0.07 32.126 0.098 7.13 3.89 13.84
1/13/2022 7:15:00 PM 0.06 32.108 0.099 7.13 4.06 13.82
1/13/2022 7:30:00 PM 0.06 32.108 0.099 7.12 3.96 13.8
1/13/2022 7:45:00 PM 0.06 32.108 0.099 7.08 3.67 13.78
1/13/2022 8:00:00 PM 0.07 32.126 0.099 7.09 3.85 13.77
1/13/2022 8:15:00 PM 0.07 32.126 0.099 7.09 3.92 13.76
1/13/2022 8:30:00 PM 0.07 32.126 0.099 7.1 3.9 13.76
1/13/2022 8:45:00 PM 0.06 32.108 0.099 7.07 3.57 13.75
1/13/2022 9:00:00 PM 0.06 32.108 0.099 7.07 3.66 13.75
1/13/2022 9:15:00 PM 0.06 32.108 0.099 7.08 3.5 13.74
1/13/2022 9:30:00 PM 0.06 32.108 0.099 7.08 3.57 13.73
1/13/2022 9:45:00 PM 0.06 32.108 0.099 7.08 3.42 13.74
1/13/2022 10:00:00 PM 0.06 32.108 0.099 7.08 3.48 13.74
1/13/2022 10:15:00 PM 0.06 32.108 0.099 7.07 3.44 13.74
1/13/2022 10:30:00 PM 0.06 32.108 0.099 7.04 3.49 13.74
1/13/2022 10:45:00 PM 0.07 32.126 0.1 7.07 3.3 13.73
1/13/2022 11:00:00 PM 0.07 32.126 0.1 7.07 3.57 13.73
1/13/2022 11:15:00 PM 0.08 32.144 0.1 7.07 3.32 13.73
1/13/2022 11:30:00 PM 0.08 32.144 0.1 7.07 3.35 13.73
1/13/2022 11:45:00 PM 0.09 32.162 0.1 7.07 3.31 13.72
1/14/2022 12:00:00 AM 0.09 32.162 0.1 7.07 3.2 13.72
1/14/2022 12:15:00 AM 0.09 32.162 0.1 7.04 3.31 13.71
1/14/2022 12:30:00 AM 0.09 32.162 0.1 7.04 3.24 13.71
1/14/2022 12:45:00 AM 0.09 32.162 0.1 7.07 3.17 13.71
1/14/2022 1:00:00 AM 0.09 32.162 0.1 7.06 3.06 13.7
1/14/2022 1:15:00 AM 0.09 32.162 0.1 7.06 3.18 13.7
1/14/2022 1:30:00 AM 0.09 32.162 0.1 7.06 3.29 13.69
1/14/2022 1:45:00 AM 0.09 32.162 0.1 7.06 3.1 13.69
1/14/2022 2:00:00 AM 0.09 32.162 0.1 7.04 3.17 13.7
1/14/2022 2:15:00 AM 0.09 32.162 0.101 7.06 3.08 13.69
1/14/2022 2:30:00 AM 0.1 32.18 0.101 7.06 3.11 13.69
1/14/2022 2:45:00 AM 0.1 32.18 0.101 7.06 2.95 13.68
1/14/2022 3:00:00 AM 0.1 32.18 0.101 7.05 3.07 13.68
1/14/2022 3:15:00 AM 0.1 32.18 0.101 7.04 3.18 13.68
1/14/2022 3:30:00 AM 0.1 32.18 0.101 7.04 3.13 13.67
1/14/2022 3:45:00 AM 0.1 32.18 0.101 7.06 3.1 13.68
1/14/2022 4:00:00 AM 0.1 32.18 0.101 7.04 3.06 13.67
1/14/2022 4:15:00 AM 0.1 32.18 0.101 7.06 3.15 13.67
1/14/2022 4:30:00 AM 0.1 32.18 0.101 7.06 3 13.67
1/14/2022 4:45:00 AM 0.1 32.18 0.101 7.06 2.88 13.67
1/14/2022 5:00:00 AM 0.11 32.198 0.101 7.06 3.02 13.67
1/14/2022 5:15:00 AM 0.11 32.198 0.101 7.06 3.04 13.66
1/14/2022 5:30:00 AM 0.11 32.198 0.101 7.06 3.03 13.66
1/14/2022 5:45:00 AM 0.11 32.198 0.101 7.03 2.95 13.67
1/14/2022 6:00:00 AM 0.11 32.198 0.101 7.06 2.98 13.66
1/14/2022 6:15:00 AM 0.11 32.198 0.101 7.05 2.92 13.66
1/14/2022 6:30:00 AM 0.11 32.198 0.101 7.06 2.97 13.66
1/14/2022 6:45:00 AM 0.11 32.198 0.101 7.06 2.92 13.66
1/14/2022 7:00:00 AM 0.11 32.198 0.1 7.07 2.91 13.65
1/14/2022 7:15:00 AM 0.1 32.18 0.1 7.07 2.94 13.66
1/14/2022 7:30:00 AM 0.1 32.18 0.1 7.06 2.99 13.67
1/14/2022 7:45:00 AM 0.1 32.18 0.1 7.07 2.97 13.68
1/14/2022 8:00:00 AM 0.1 32.18 0.1 7.07 2.93 13.69
1/14/2022 8:15:00 AM 0.1 32.18 0.1 7.08 3.11 13.72
1/14/2022 8:30:00 AM 0.1 32.18 0.1 7.09 3.03 13.79
1/14/2022 8:45:00 AM 0.11 32.198 0.1 7.07 3.01 13.87
1/14/2022 9:00:00 AM 0.11 32.198 0.1 7.12 3.05 13.99
1/14/2022 9:15:00 AM 0.13 32.234 0.1 7.11 3.03 14.1
1/14/2022 9:30:00 AM 0.17 32.306 0.1 7.16 3.03 14.23
1/14/2022 9:45:00 AM 0.19 32.342 0.1 7.17 3 14.31
1/14/2022 10:00:00 AM 0.18 32.324 0.1 7.19 2.79 14.4
1/14/2022 10:15:00 AM 0.17 32.306 0.1 7.2 2.91 14.45
1/14/2022 10:30:00 AM 0.17 32.306 0.1 7.22 2.96 14.49
1/14/2022 10:45:00 AM 0.17 32.306 0.1 7.24 2.8 14.52
1/14/2022 11:00:00 AM 0.17 32.306 0.099 7.23 3.02 14.55
1/14/2022 11:15:00 AM 0.18 32.324 0.099 7.26 2.89 14.59
1/14/2022 11:30:00 AM 0.19 32.342 0.099 7.25 2.77 14.62
1/14/2022 11:45:00 AM 0.2 32.36 0.099 7.29 2.93 14.66
1/14/2022 12:00:00 PM 0.21 32.378 0.099 7.3 2.81 14.69
1/14/2022 12:15:00 PM 0.23 32.414 0.099 7.28 2.9 14.71
1/14/2022 12:30:00 PM 0.25 32.45 0.099 7.33 2.82 14.73
1/14/2022 12:45:00 PM 0.25 32.45 0.099 7.34 2.87 14.74
1/14/2022 1:00:00 PM 0.24 32.432 0.098 7.34 2.85 14.75
1/14/2022 1:15:00 PM 0.22 32.396 0.098 7.33 2.95 14.73
1/14/2022 1:30:00 PM 0.21 32.378 0.098 7.34 2.86 14.73
1/14/2022 1:45:00 PM 0.23 32.414 0.098 7.36 2.76 14.74
1/14/2022 2:00:00 PM 0.26 32.468 0.098 7.37 2.84 14.74
1/14/2022 2:15:00 PM 0.28 32.504 0.098 7.37 2.71 14.75
1/14/2022 2:30:00 PM 0.3 32.54 0.098 7.38 5.47 14.76
1/14/2022 2:45:00 PM 0.32 32.576 0.098 7.38 2.94 14.76
1/14/2022 3:00:00 PM 0.33 32.594 0.098 7.38 2.79 14.76
1/14/2022 3:15:00 PM 0.33 32.594 0.098 7.38 2.88 14.75
1/14/2022 3:30:00 PM 0.33 32.594 0.098 7.38 2.82 14.74
1/14/2022 3:45:00 PM 0.31 32.558 0.097 7.37 2.87 14.72
1/14/2022 4:00:00 PM 0.29 32.522 0.098 7.38 2.79 14.68
1/14/2022 4:15:00 PM 0.26 32.468 0.098 7.34 2.74 14.63
1/14/2022 4:30:00 PM 0.23 32.414 0.098 7.34 2.78 14.57
1/14/2022 4:45:00 PM 0.2 32.36 0.098 7.33 2.85 14.49
1/14/2022 5:00:00 PM 0.17 32.306 0.098 7.31 2.81 14.39
1/14/2022 5:15:00 PM 0.14 32.252 0.098 7.28 2.67 14.3
1/14/2022 5:30:00 PM 0.11 32.198 0.099 7.26 2.77 14.2
1/14/2022 5:45:00 PM 0.07 32.126 0.099 7.24 2.71 14.12
1/14/2022 6:00:00 PM 0.04 32.072 0.099 7.22 2.73 14.06
1/14/2022 6:15:00 PM 0.03 32.054 0.1 7.18 2.66 14.01
1/14/2022 6:30:00 PM 0.02 32.036 0.1 7.18 2.72 13.96
1/14/2022 6:45:00 PM 0.01 32.018 0.1 7.15 2.74 13.94
1/14/2022 7:00:00 PM 0 32 0.1 7.16 2.69 13.92
1/14/2022 7:15:00 PM 0 32 0.1 7.14 2.69 13.9
1/14/2022 7:30:00 PM 0 32 0.101 7.14 2.75 13.89
1/14/2022 7:45:00 PM -0.01 31.982 0.101 7.13 2.64 13.88
1/14/2022 8:00:00 PM -0.01 31.982 0.101 7.13 2.76 13.88
1/14/2022 8:15:00 PM -0.01 31.982 0.101 7.11 2.72 13.89
1/14/2022 8:30:00 PM -0.01 31.982 0.101 7.11 2.65 13.88
1/14/2022 8:45:00 PM -0.02 31.964 0.101 7.11 2.58 13.89
1/14/2022 9:00:00 PM -0.02 31.964 0.102 7.1 2.59 13.89
1/14/2022 9:15:00 PM -0.02 31.964 0.102 7.09 2.59 13.89
1/14/2022 9:30:00 PM -0.02 31.964 0.102 7.08 2.55 13.88
1/14/2022 9:45:00 PM -0.02 31.964 0.102 7.06 2.51 13.89
1/14/2022 10:00:00 PM -0.01 31.982 0.102 7.05 2.58 13.88
1/14/2022 10:15:00 PM 0 32 0.103 7.07 2.52 13.88
1/14/2022 10:30:00 PM -0.01 31.982 0.103 7.06 2.52 13.87
1/14/2022 10:45:00 PM -0.01 31.982 0.103 7.06 2.54 13.87
1/14/2022 11:00:00 PM -0.01 31.982 0.103 7.05 2.46 13.86
1/14/2022 11:15:00 PM -0.01 31.982 0.103 7.05 2.59 13.85
1/14/2022 11:30:00 PM -0.01 31.982 0.103 7.04 2.45 13.84
1/14/2022 11:45:00 PM 0 32 0.104 7.03 2.57 13.84
1/15/2022 12:00:00 AM 0 32 0.104 7.02 2.45 13.82
1/15/2022 12:15:00 AM 0 32 0.104 7.01 2.63 13.81
1/15/2022 12:30:00 AM 0 32 0.104 6.98 2.42 13.81
1/15/2022 12:45:00 AM 0 32 0.104 7.01 2.44 13.79
1/15/2022 1:00:00 AM 0 32 0.104 7 2.49 13.77
1/15/2022 1:15:00 AM 0 32 0.105 6.96 2.39 13.76
1/15/2022 1:30:00 AM 0 32 0.105 6.96 2.33 13.75
1/15/2022 1:45:00 AM 0 32 0.105 6.98 2.34 13.74
1/15/2022 2:00:00 AM 0.01 32.018 0.105 6.97 2.34 13.72
1/15/2022 2:15:00 AM 0.02 32.036 0.105 6.96 2.32 13.71
1/15/2022 2:30:00 AM 0.02 32.036 0.105 6.92 2.49 13.68
1/15/2022 2:45:00 AM 0.03 32.054 0.105 6.94 2.39 13.66
1/15/2022 3:00:00 AM 0.04 32.072 0.106 6.93 2.33 13.65
1/15/2022 3:15:00 AM 0.04 32.072 0.106 6.93 2.28 13.63
1/15/2022 3:30:00 AM 0.05 32.09 0.106 6.9 2.25 13.62
1/15/2022 3:45:00 AM 0.05 32.09 0.106 6.91 2.23 13.6
1/15/2022 4:00:00 AM 0.05 32.09 0.106 6.9 2.25 13.59
1/15/2022 4:15:00 AM 0.06 32.108 0.106 6.9 2.19 13.57
1/15/2022 4:30:00 AM 0.07 32.126 0.107 6.89 2.2 13.54
1/15/2022 4:45:00 AM 0.07 32.126 0.107 6.88 2.19 13.53
1/15/2022 5:00:00 AM 0.07 32.126 0.107 6.87 2.16 13.51
1/15/2022 5:15:00 AM 0.08 32.144 0.107 6.85 2.18 13.49
1/15/2022 5:30:00 AM 0.08 32.144 0.107 6.87 2.14 13.47
1/15/2022 5:45:00 AM 0.09 32.162 0.107 6.86 2.16 13.45
1/15/2022 6:00:00 AM 0.09 32.162 0.108 6.82 2.16 13.44
1/15/2022 6:15:00 AM 0.1 32.18 0.108 6.84 2.16 13.41
1/15/2022 6:30:00 AM 0.11 32.198 0.108 6.84 2.12 13.4
1/15/2022 6:45:00 AM 0.11 32.198 0.108 6.81 2.12 13.39
1/15/2022 7:00:00 AM 0.11 32.198 0.108 6.83 2.11 13.37
1/15/2022 7:15:00 AM 0.12 32.216 0.108 6.83 2.21 13.34
1/15/2022 7:30:00 AM 0.12 32.216 0.109 6.83 2.2 13.33
1/15/2022 7:45:00 AM 0.13 32.234 0.109 6.81 2.14 13.33
1/15/2022 8:00:00 AM 0.14 32.252 0.109 6.82 2.13 13.34
1/15/2022 8:15:00 AM 0.15 32.27 0.109 6.81 2.07 13.37
1/15/2022 8:30:00 AM 0.16 32.288 0.109 6.82 2.09 13.41
1/15/2022 8:45:00 AM 0.17 32.306 0.109 6.82 2.11 13.45
1/15/2022 9:00:00 AM 0.18 32.324 0.109 6.81 2.08 13.52
1/15/2022 9:15:00 AM 0.19 32.342 0.11 6.83 2.08 13.59
1/15/2022 9:30:00 AM 0.2 32.36 0.11 6.83 2.09 13.69
1/15/2022 9:45:00 AM 0.22 32.396 0.11 6.84 2.05 13.77
1/15/2022 10:00:00 AM 0.26 32.468 0.11 6.81 2.02 13.89
1/15/2022 10:15:00 AM 0.29 32.522 0.11 6.86 2.05 13.99
1/15/2022 10:30:00 AM 0.33 32.594 0.11 6.87 2.07 14.09
1/15/2022 10:45:00 AM 0.36 32.648 0.11 6.88 2.11 14.22
1/15/2022 11:00:00 AM 0.4 32.72 0.11 6.84 2.12 14.29
1/15/2022 11:15:00 AM 0.44 32.792 0.11 6.9 2.06 14.42
1/15/2022 11:30:00 AM 0.47 32.846 0.11 6.9 2.07 14.5
1/15/2022 11:45:00 AM 0.49 32.882 0.109 6.93 2.1 14.62
1/15/2022 12:00:00 PM 0.49 32.882 0.109 6.95 2.1 14.72
1/15/2022 12:15:00 PM 0.49 32.882 0.109 6.97 2.12 14.79
1/15/2022 12:30:00 PM 0.47 32.846 0.109 6.99 2.16 14.87
1/15/2022 12:45:00 PM 0.45 32.81 0.109 6.97 2.13 14.97
1/15/2022 1:00:00 PM 0.41 32.738 0.11 7.03 2.18 15.05
1/15/2022 1:15:00 PM 0.37 32.666 0.11 7.08 2.2 15.13
1/15/2022 1:30:00 PM 0.34 32.612 0.11 7.08 2.18 15.17
1/15/2022 1:45:00 PM 0.29 32.522 0.11 7.13 2.54 15.25
1/15/2022 2:00:00 PM 0.26 32.468 0.11 7.16 2.18 15.3
1/15/2022 2:15:00 PM 0.24 32.432 0.11 7.17 2.16 15.33
1/15/2022 2:30:00 PM 0.21 32.378 0.11 7.22 2.18 15.37
1/15/2022 2:45:00 PM 0.19 32.342 0.11 7.23 2.29 15.39
1/15/2022 3:00:00 PM 0.18 32.324 0.11 7.25 2.17 15.41
1/15/2022 3:15:00 PM 0.16 32.288 0.111 7.27 2.2 15.42
1/15/2022 3:30:00 PM 0.13 32.234 0.111 7.27 2.25 15.43
1/15/2022 3:45:00 PM 0.11 32.198 0.111 7.29 2.17 15.43
1/15/2022 4:00:00 PM 0.1 32.18 0.111 7.3 2.27 15.41
1/15/2022 4:15:00 PM 0.09 32.162 0.111 7.29 2.25 15.38
1/15/2022 4:30:00 PM 0.08 32.144 0.112 7.29 2.42 15.35
1/15/2022 4:45:00 PM 0.07 32.126 0.112 7.29 2.33 15.29
1/15/2022 5:00:00 PM 0.06 32.108 0.112 7.28 2.28 15.2
1/15/2022 5:15:00 PM 0.06 32.108 0.113 7.25 2.24 15.13
1/15/2022 5:30:00 PM 0.05 32.09 0.113 7.25 2.25 15
1/15/2022 5:45:00 PM 0.05 32.09 0.113 7.21 2.3 14.9
1/15/2022 6:00:00 PM 0.05 32.09 0.113 7.22 2.34 14.8
1/15/2022 6:15:00 PM 0.04 32.072 0.114 7.21 2.26 14.72
1/15/2022 6:30:00 PM 0.04 32.072 0.114 7.18 2.25 14.61
1/15/2022 6:45:00 PM 0.04 32.072 0.114 7.18 2.3 14.54
1/15/2022 7:00:00 PM 0.04 32.072 0.114 7.16 2.34 14.48
1/15/2022 7:15:00 PM 0.04 32.072 0.114 7.15 2.28 14.4
1/15/2022 7:30:00 PM 0.04 32.072 0.114 7.11 2.3 14.35
1/15/2022 7:45:00 PM 0.04 32.072 0.114 7.12 2.27 14.31
1/15/2022 8:00:00 PM 0.04 32.072 0.114 7.11 2.27 14.25
1/15/2022 8:15:00 PM 0.04 32.072 0.113 7.09 2.28 14.21
1/15/2022 8:30:00 PM 0.04 32.072 0.114 7.09 2.29 14.17
1/15/2022 8:45:00 PM 0.04 32.072 0.113 7.08 2.35 14.13
1/15/2022 9:00:00 PM 0.04 32.072 0.114 7.07 2.25 14.09
1/15/2022 9:15:00 PM 0.05 32.09 0.114 7.02 2.2 14.07
1/15/2022 9:30:00 PM 0.04 32.072 0.114 7.05 2.28 14.03
1/15/2022 9:45:00 PM 0.04 32.072 0.114 7.02 2.26 14.02
1/15/2022 10:00:00 PM 0.04 32.072 0.114 7.04 2.31 13.99
1/15/2022 10:15:00 PM 0.05 32.09 0.113 7.02 2.16 13.96
1/15/2022 10:30:00 PM 0.04 32.072 0.113 7.01 2.22 13.95
1/15/2022 10:45:00 PM 0.04 32.072 0.113 7.02 2.26 13.93
1/15/2022 11:00:00 PM 0.05 32.09 0.113 7.01 2.19 13.91
1/15/2022 11:15:00 PM 0.05 32.09 0.113 6.97 2.21 13.89
1/15/2022 11:30:00 PM 0.05 32.09 0.113 7 2.23 13.88
1/15/2022 11:45:00 PM 0.05 32.09 0.113 6.98 2.21 13.87
1/16/2022 12:00:00 AM 0.05 32.09 0.113 6.99 2.17 13.85
1/16/2022 12:15:00 AM 0.05 32.09 0.113 6.98 2.24 13.84
1/16/2022 12:30:00 AM 0.05 32.09 0.113 6.96 2.24 13.82
1/16/2022 12:45:00 AM 0.05 32.09 0.114 6.98 2.19 13.82
1/16/2022 1:00:00 AM 0.05 32.09 0.114 6.97 2.19 13.81
1/16/2022 1:15:00 AM 0.05 32.09 0.114 6.96 2.2 13.8
1/16/2022 1:30:00 AM 0.05 32.09 0.114 6.96 2.15 13.78
1/16/2022 1:45:00 AM 0.05 32.09 0.114 6.96 2.19 13.77
1/16/2022 2:00:00 AM 0.06 32.108 0.114 6.95 2.1 13.76
1/16/2022 2:15:00 AM 0.06 32.108 0.114 6.95 2.13 13.75
1/16/2022 2:30:00 AM 0.06 32.108 0.114 6.95 2.11 13.75
1/16/2022 2:45:00 AM 0.06 32.108 0.114 6.92 2.2 13.73
1/16/2022 3:00:00 AM 0.06 32.108 0.115 6.94 2.22 13.73
1/16/2022 3:15:00 AM 0.06 32.108 0.115 6.92 2.16 13.71
1/16/2022 3:30:00 AM 0.06 32.108 0.115 6.94 2.17 13.71
1/16/2022 3:45:00 AM 0.06 32.108 0.115 6.91 2.12 13.7
1/16/2022 4:00:00 AM 0.06 32.108 0.115 6.93 2.15 13.69
1/16/2022 4:15:00 AM 0.06 32.108 0.115 6.9 2.18 13.67
1/16/2022 4:30:00 AM 0.06 32.108 0.115 6.93 2.08 13.66
1/16/2022 4:45:00 AM 0.07 32.126 0.116 6.92 2.15 13.65
1/16/2022 5:00:00 AM 0.07 32.126 0.116 6.92 2.15 13.65
1/16/2022 5:15:00 AM 0.07 32.126 0.116 6.92 2.21 13.62
1/16/2022 5:30:00 AM 0.07 32.126 0.116 6.88 2.16 13.62
1/16/2022 5:45:00 AM 0.07 32.126 0.116 6.91 2.13 13.61
1/16/2022 6:00:00 AM 0.07 32.126 0.116 6.91 2.09 13.61
1/16/2022 6:15:00 AM 0.07 32.126 0.116 6.91 2.14 13.6
1/16/2022 6:30:00 AM 0.07 32.126 0.117 6.9 2.1 13.59
1/16/2022 6:45:00 AM 0.07 32.126 0.117 6.91 2.06 13.58
1/16/2022 7:00:00 AM 0.08 32.144 0.117 6.9 2.11 13.57
1/16/2022 7:15:00 AM 0.08 32.144 0.117 6.88 2.06 13.56
1/16/2022 7:30:00 AM 0.08 32.144 0.117 6.9 2.05 13.55
1/16/2022 7:45:00 AM 0.08 32.144 0.117 6.87 2.07 13.56
1/16/2022 8:00:00 AM 0.08 32.144 0.117 6.89 1.99 13.57
1/16/2022 8:15:00 AM 0.09 32.162 0.117 6.9 1.98 13.6
1/16/2022 8:30:00 AM 0.09 32.162 0.118 6.9 1.96 13.65
1/16/2022 8:45:00 AM 0.1 32.18 0.118 6.9 2.04 13.7
1/16/2022 9:00:00 AM 0.1 32.18 0.118 6.91 2.07 13.77
1/16/2022 9:15:00 AM 0.11 32.198 0.118 6.91 2.01 13.85
1/16/2022 9:30:00 AM 0.13 32.234 0.118 6.92 2.01 13.94
1/16/2022 9:45:00 AM 0.16 32.288 0.118 6.93 2 14.05
1/16/2022 10:00:00 AM 0.19 32.342 0.118 6.94 2.02 14.14
1/16/2022 10:15:00 AM 0.22 32.396 0.118 6.92 2.09 14.24
1/16/2022 10:30:00 AM 0.27 32.486 0.118 6.95 2.06 14.34